<?xml version='1.0' encoding='UTF-8'?>
<gpx version="1.1" creator="https://www.komoot.de" xmlns="http://www.topografix.com/GPX/1/1" xmlns:xsi="http://www.w3.org/2001/XMLSchema-instance" xsi:schemaLocation="http://www.topografix.com/GPX/1/1 http://www.topografix.com/GPX/1/1/gpx.xsd">
  <metadata>
    <name>55_900Haenner</name>
    <author>
      <link href="https://www.komoot.de">
        <text>komoot</text>
        <type>text/html</type>
      </link>
    </author>
  </metadata>
  <trk>
    <name>55_900Haenner</name>
    <trkseg>
      <trkpt lat="47.541321" lon="7.870865">
        <ele>340.922374</ele>
        <time>2021-11-14T15:35:35.336Z</time>
      </trkpt>
      <trkpt lat="47.541410" lon="7.870791">
        <ele>340.922374</ele>
        <time>2021-11-14T15:35:36.851Z</time>
      </trkpt>
      <trkpt lat="47.541576" lon="7.870664">
        <ele>340.922374</ele>
        <time>2021-11-14T15:35:40.994Z</time>
      </trkpt>
      <trkpt lat="47.541796" lon="7.871042">
        <ele>340.922374</ele>
        <time>2021-11-14T15:35:48.174Z</time>
      </trkpt>
      <trkpt lat="47.541953" lon="7.871286">
        <ele>340.922374</ele>
        <time>2021-11-14T15:35:52.922Z</time>
      </trkpt>
      <trkpt lat="47.542039" lon="7.871556">
        <ele>341.498972</ele>
        <time>2021-11-14T15:35:57.436Z</time>
      </trkpt>
      <trkpt lat="47.542067" lon="7.871664">
        <ele>341.788427</ele>
        <time>2021-11-14T15:35:58.998Z</time>
      </trkpt>
      <trkpt lat="47.542091" lon="7.871721">
        <ele>341.956507</ele>
        <time>2021-11-14T15:35:59.589Z</time>
      </trkpt>
      <trkpt lat="47.542218" lon="7.871866">
        <ele>342.550793</ele>
        <time>2021-11-14T15:36:04.818Z</time>
      </trkpt>
      <trkpt lat="47.542394" lon="7.872341">
        <ele>343.906477</ele>
        <time>2021-11-14T15:36:14.878Z</time>
      </trkpt>
      <trkpt lat="47.542436" lon="7.872494">
        <ele>344.319716</ele>
        <time>2021-11-14T15:36:18.208Z</time>
      </trkpt>
      <trkpt lat="47.542537" lon="7.872430">
        <ele>344.726865</ele>
        <time>2021-11-14T15:36:20.244Z</time>
      </trkpt>
      <trkpt lat="47.542714" lon="7.872334">
        <ele>345.425475</ele>
        <time>2021-11-14T15:36:27.357Z</time>
      </trkpt>
      <trkpt lat="47.542814" lon="7.872280">
        <ele>345.819966</ele>
        <time>2021-11-14T15:36:30.234Z</time>
      </trkpt>
      <trkpt lat="47.542919" lon="7.872226">
        <ele>346.231917</ele>
        <time>2021-11-14T15:36:34.074Z</time>
      </trkpt>
      <trkpt lat="47.543013" lon="7.872182">
        <ele>346.597292</ele>
        <time>2021-11-14T15:36:37.704Z</time>
      </trkpt>
      <trkpt lat="47.543233" lon="7.872082">
        <ele>347.450209</ele>
        <time>2021-11-14T15:36:44.802Z</time>
      </trkpt>
      <trkpt lat="47.543251" lon="7.872152">
        <ele>347.672295</ele>
        <time>2021-11-14T15:36:48.217Z</time>
      </trkpt>
      <trkpt lat="47.543332" lon="7.872237">
        <ele>348.301353</ele>
        <time>2021-11-14T15:36:51.627Z</time>
      </trkpt>
      <trkpt lat="47.544390" lon="7.872423">
        <ele>355.053223</ele>
        <time>2021-11-14T15:37:33.259Z</time>
      </trkpt>
      <trkpt lat="47.544883" lon="7.872555">
        <ele>358.228110</ele>
        <time>2021-11-14T15:37:55.601Z</time>
      </trkpt>
      <trkpt lat="47.545131" lon="7.872664">
        <ele>359.905726</ele>
        <time>2021-11-14T15:38:06.605Z</time>
      </trkpt>
      <trkpt lat="47.545375" lon="7.872836">
        <ele>361.692589</ele>
        <time>2021-11-14T15:38:17.546Z</time>
      </trkpt>
      <trkpt lat="47.545478" lon="7.872968">
        <ele>362.593188</ele>
        <time>2021-11-14T15:38:24.354Z</time>
      </trkpt>
      <trkpt lat="47.545515" lon="7.873015">
        <ele>362.915487</ele>
        <time>2021-11-14T15:38:26.310Z</time>
      </trkpt>
      <trkpt lat="47.545746" lon="7.873302">
        <ele>364.909112</ele>
        <time>2021-11-14T15:38:39.510Z</time>
      </trkpt>
      <trkpt lat="47.545934" lon="7.873549">
        <ele>366.570764</ele>
        <time>2021-11-14T15:38:49.610Z</time>
      </trkpt>
      <trkpt lat="47.546077" lon="7.873763">
        <ele>367.914877</ele>
        <time>2021-11-14T15:38:58.806Z</time>
      </trkpt>
      <trkpt lat="47.546135" lon="7.873859">
        <ele>368.489960</ele>
        <time>2021-11-14T15:39:02.045Z</time>
      </trkpt>
      <trkpt lat="47.546309" lon="7.874154">
        <ele>370.238612</ele>
        <time>2021-11-14T15:39:13.160Z</time>
      </trkpt>
      <trkpt lat="47.547126" lon="7.875801">
        <ele>375.924442</ele>
        <time>2021-11-14T15:39:58.921Z</time>
      </trkpt>
      <trkpt lat="47.547574" lon="7.876801">
        <ele>377.764065</ele>
        <time>2021-11-14T15:40:17.917Z</time>
      </trkpt>
      <trkpt lat="47.547992" lon="7.877974">
        <ele>377.184416</ele>
        <time>2021-11-14T15:40:30.717Z</time>
      </trkpt>
      <trkpt lat="47.548234" lon="7.878638">
        <ele>376.854654</ele>
        <time>2021-11-14T15:40:36.030Z</time>
      </trkpt>
      <trkpt lat="47.548422" lon="7.878959">
        <ele>376.027825</ele>
        <time>2021-11-14T15:40:38.872Z</time>
      </trkpt>
      <trkpt lat="47.548718" lon="7.879258">
        <ele>374.566339</ele>
        <time>2021-11-14T15:40:42.411Z</time>
      </trkpt>
      <trkpt lat="47.549140" lon="7.879391">
        <ele>372.806278</ele>
        <time>2021-11-14T15:40:46.597Z</time>
      </trkpt>
      <trkpt lat="47.549318" lon="7.879398">
        <ele>372.079875</ele>
        <time>2021-11-14T15:40:48.224Z</time>
      </trkpt>
      <trkpt lat="47.549327" lon="7.879547">
        <ele>371.667968</ele>
        <time>2021-11-14T15:40:49.211Z</time>
      </trkpt>
      <trkpt lat="47.549726" lon="7.880786">
        <ele>368.073912</ele>
        <time>2021-11-14T15:40:58.166Z</time>
      </trkpt>
      <trkpt lat="47.549927" lon="7.881490">
        <ele>366.219300</ele>
        <time>2021-11-14T15:41:03.202Z</time>
      </trkpt>
      <trkpt lat="47.550112" lon="7.882535">
        <ele>363.598119</ele>
        <time>2021-11-14T15:41:10.858Z</time>
      </trkpt>
      <trkpt lat="47.550234" lon="7.883221">
        <ele>361.665154</ele>
        <time>2021-11-14T15:41:15.636Z</time>
      </trkpt>
      <trkpt lat="47.550288" lon="7.884050">
        <ele>359.258904</ele>
        <time>2021-11-14T15:41:21.074Z</time>
      </trkpt>
      <trkpt lat="47.550332" lon="7.884727">
        <ele>357.293891</ele>
        <time>2021-11-14T15:41:25.473Z</time>
      </trkpt>
      <trkpt lat="47.550391" lon="7.885109">
        <ele>356.161702</ele>
        <time>2021-11-14T15:41:27.999Z</time>
      </trkpt>
      <trkpt lat="47.550548" lon="7.885799">
        <ele>353.663874</ele>
        <time>2021-11-14T15:41:32.600Z</time>
      </trkpt>
      <trkpt lat="47.550677" lon="7.886476">
        <ele>350.980047</ele>
        <time>2021-11-14T15:41:37.027Z</time>
      </trkpt>
      <trkpt lat="47.550758" lon="7.887295">
        <ele>347.822062</ele>
        <time>2021-11-14T15:41:42.168Z</time>
      </trkpt>
      <trkpt lat="47.550789" lon="7.887816">
        <ele>345.826656</ele>
        <time>2021-11-14T15:41:45.400Z</time>
      </trkpt>
      <trkpt lat="47.550831" lon="7.888611">
        <ele>342.529581</ele>
        <time>2021-11-14T15:41:50.356Z</time>
      </trkpt>
      <trkpt lat="47.550833" lon="7.889069">
        <ele>340.591653</ele>
        <time>2021-11-14T15:41:53.165Z</time>
      </trkpt>
      <trkpt lat="47.550915" lon="7.890600">
        <ele>334.093334</ele>
        <time>2021-11-14T15:42:02.558Z</time>
      </trkpt>
      <trkpt lat="47.550904" lon="7.891725">
        <ele>330.746604</ele>
        <time>2021-11-14T15:42:09.562Z</time>
      </trkpt>
      <trkpt lat="47.550892" lon="7.893176">
        <ele>326.530697</ele>
        <time>2021-11-14T15:42:19.174Z</time>
      </trkpt>
      <trkpt lat="47.550908" lon="7.894308">
        <ele>325.245688</ele>
        <time>2021-11-14T15:42:28.380Z</time>
      </trkpt>
      <trkpt lat="47.550878" lon="7.895158">
        <ele>324.505325</ele>
        <time>2021-11-14T15:42:35.528Z</time>
      </trkpt>
      <trkpt lat="47.550838" lon="7.895509">
        <ele>324.195694</ele>
        <time>2021-11-14T15:42:38.686Z</time>
      </trkpt>
      <trkpt lat="47.550660" lon="7.896255">
        <ele>323.230516</ele>
        <time>2021-11-14T15:42:45.170Z</time>
      </trkpt>
      <trkpt lat="47.550639" lon="7.896345">
        <ele>323.064823</ele>
        <time>2021-11-14T15:42:46.363Z</time>
      </trkpt>
      <trkpt lat="47.550648" lon="7.896481">
        <ele>322.827049</ele>
        <time>2021-11-14T15:42:47.319Z</time>
      </trkpt>
      <trkpt lat="47.550727" lon="7.897231">
        <ele>321.506262</ele>
        <time>2021-11-14T15:42:52.923Z</time>
      </trkpt>
      <trkpt lat="47.550819" lon="7.898109">
        <ele>319.960254</ele>
        <time>2021-11-14T15:42:59.101Z</time>
      </trkpt>
      <trkpt lat="47.550801" lon="7.900244">
        <ele>314.340703</ele>
        <time>2021-11-14T15:43:12.946Z</time>
      </trkpt>
      <trkpt lat="47.550769" lon="7.901362">
        <ele>311.165255</ele>
        <time>2021-11-14T15:43:20.218Z</time>
      </trkpt>
      <trkpt lat="47.550757" lon="7.901591">
        <ele>310.595932</ele>
        <time>2021-11-14T15:43:22.354Z</time>
      </trkpt>
      <trkpt lat="47.550688" lon="7.902451">
        <ele>308.449269</ele>
        <time>2021-11-14T15:43:30.787Z</time>
      </trkpt>
      <trkpt lat="47.550498" lon="7.903445">
        <ele>305.888567</ele>
        <time>2021-11-14T15:43:41.038Z</time>
      </trkpt>
      <trkpt lat="47.550302" lon="7.904164">
        <ele>303.954515</ele>
        <time>2021-11-14T15:43:48.297Z</time>
      </trkpt>
      <trkpt lat="47.550169" lon="7.904457">
        <ele>303.067559</ele>
        <time>2021-11-14T15:43:51.604Z</time>
      </trkpt>
      <trkpt lat="47.550025" lon="7.904774">
        <ele>302.107730</ele>
        <time>2021-11-14T15:43:55.223Z</time>
      </trkpt>
      <trkpt lat="47.549868" lon="7.905010">
        <ele>301.275361</ele>
        <time>2021-11-14T15:43:58.355Z</time>
      </trkpt>
      <trkpt lat="47.549867" lon="7.905155">
        <ele>300.911111</ele>
        <time>2021-11-14T15:43:59.752Z</time>
      </trkpt>
      <trkpt lat="47.550067" lon="7.905245">
        <ele>300.133203</ele>
        <time>2021-11-14T15:44:02.677Z</time>
      </trkpt>
      <trkpt lat="47.550283" lon="7.905413">
        <ele>299.225288</ele>
        <time>2021-11-14T15:44:06.127Z</time>
      </trkpt>
      <trkpt lat="47.550497" lon="7.905558">
        <ele>298.349518</ele>
        <time>2021-11-14T15:44:09.485Z</time>
      </trkpt>
      <trkpt lat="47.549539" lon="7.908625">
        <ele>293.165877</ele>
        <time>2021-11-14T15:44:33.929Z</time>
      </trkpt>
      <trkpt lat="47.549520" lon="7.908678">
        <ele>293.107516</ele>
        <time>2021-11-14T15:44:34.430Z</time>
      </trkpt>
      <trkpt lat="47.549340" lon="7.909274">
        <ele>292.472535</ele>
        <time>2021-11-14T15:44:39.756Z</time>
      </trkpt>
      <trkpt lat="47.549287" lon="7.909450">
        <ele>292.285114</ele>
        <time>2021-11-14T15:44:41.330Z</time>
      </trkpt>
      <trkpt lat="47.549195" lon="7.909756">
        <ele>291.959344</ele>
        <time>2021-11-14T15:44:44.065Z</time>
      </trkpt>
      <trkpt lat="47.549102" lon="7.910058">
        <ele>291.636527</ele>
        <time>2021-11-14T15:44:46.771Z</time>
      </trkpt>
      <trkpt lat="47.549012" lon="7.910340">
        <ele>291.333171</ele>
        <time>2021-11-14T15:44:49.286Z</time>
      </trkpt>
      <trkpt lat="47.548412" lon="7.912168">
        <ele>289.790413</ele>
        <time>2021-11-14T15:45:05.616Z</time>
      </trkpt>
      <trkpt lat="47.548027" lon="7.913334">
        <ele>289.093167</ele>
        <time>2021-11-14T15:45:16.377Z</time>
      </trkpt>
      <trkpt lat="47.547994" lon="7.913433">
        <ele>289.067057</ele>
        <time>2021-11-14T15:45:17.298Z</time>
      </trkpt>
      <trkpt lat="47.547423" lon="7.915080">
        <ele>288.629214</ele>
        <time>2021-11-14T15:45:34.786Z</time>
      </trkpt>
      <trkpt lat="47.547113" lon="7.915971">
        <ele>288.855804</ele>
        <time>2021-11-14T15:45:45.424Z</time>
      </trkpt>
      <trkpt lat="47.547091" lon="7.916039">
        <ele>288.880204</ele>
        <time>2021-11-14T15:45:46.474Z</time>
      </trkpt>
      <trkpt lat="47.547032" lon="7.916218">
        <ele>288.944663</ele>
        <time>2021-11-14T15:45:48.745Z</time>
      </trkpt>
      <trkpt lat="47.546821" lon="7.916867">
        <ele>289.177760</ele>
        <time>2021-11-14T15:45:57.160Z</time>
      </trkpt>
      <trkpt lat="47.546262" lon="7.919081">
        <ele>289.807358</ele>
        <time>2021-11-14T15:46:24.821Z</time>
      </trkpt>
      <trkpt lat="47.546128" lon="7.919617">
        <ele>289.941500</ele>
        <time>2021-11-14T15:46:30.249Z</time>
      </trkpt>
      <trkpt lat="47.545973" lon="7.920313">
        <ele>290.190498</ele>
        <time>2021-11-14T15:46:37.668Z</time>
      </trkpt>
      <trkpt lat="47.545913" lon="7.920765">
        <ele>290.517943</ele>
        <time>2021-11-14T15:46:42.426Z</time>
      </trkpt>
      <trkpt lat="47.545881" lon="7.921096">
        <ele>290.755625</ele>
        <time>2021-11-14T15:46:46.393Z</time>
      </trkpt>
      <trkpt lat="47.545810" lon="7.921755">
        <ele>291.229986</ele>
        <time>2021-11-14T15:46:55.003Z</time>
      </trkpt>
      <trkpt lat="47.545778" lon="7.921947">
        <ele>291.370562</ele>
        <time>2021-11-14T15:46:57.956Z</time>
      </trkpt>
      <trkpt lat="47.545714" lon="7.922249">
        <ele>291.595562</ele>
        <time>2021-11-14T15:47:01.810Z</time>
      </trkpt>
      <trkpt lat="47.545699" lon="7.922325">
        <ele>291.651846</ele>
        <time>2021-11-14T15:47:03.007Z</time>
      </trkpt>
      <trkpt lat="47.545690" lon="7.922369">
        <ele>291.684527</ele>
        <time>2021-11-14T15:47:04.079Z</time>
      </trkpt>
      <trkpt lat="47.545641" lon="7.922610">
        <ele>291.863438</ele>
        <time>2021-11-14T15:47:07.434Z</time>
      </trkpt>
      <trkpt lat="47.545587" lon="7.922895">
        <ele>292.316227</ele>
        <time>2021-11-14T15:47:12.266Z</time>
      </trkpt>
      <trkpt lat="47.545553" lon="7.923142">
        <ele>292.912180</ele>
        <time>2021-11-14T15:47:15.877Z</time>
      </trkpt>
      <trkpt lat="47.545536" lon="7.923407">
        <ele>293.541493</ele>
        <time>2021-11-14T15:47:20.753Z</time>
      </trkpt>
      <trkpt lat="47.545521" lon="7.923709">
        <ele>294.257385</ele>
        <time>2021-11-14T15:47:25.920Z</time>
      </trkpt>
      <trkpt lat="47.545481" lon="7.924396">
        <ele>295.887561</ele>
        <time>2021-11-14T15:47:40.523Z</time>
      </trkpt>
      <trkpt lat="47.545466" lon="7.924880">
        <ele>297.032998</ele>
        <time>2021-11-14T15:47:51.830Z</time>
      </trkpt>
      <trkpt lat="47.545446" lon="7.925350">
        <ele>298.146338</ele>
        <time>2021-11-14T15:48:02.204Z</time>
      </trkpt>
      <trkpt lat="47.545417" lon="7.925848">
        <ele>299.029491</ele>
        <time>2021-11-14T15:48:12.683Z</time>
      </trkpt>
      <trkpt lat="47.545409" lon="7.926773">
        <ele>300.599864</ele>
        <time>2021-11-14T15:48:29.884Z</time>
      </trkpt>
      <trkpt lat="47.545407" lon="7.927001">
        <ele>300.986941</ele>
        <time>2021-11-14T15:48:33.693Z</time>
      </trkpt>
      <trkpt lat="47.545406" lon="7.927306">
        <ele>301.504703</ele>
        <time>2021-11-14T15:48:38.298Z</time>
      </trkpt>
      <trkpt lat="47.545421" lon="7.927686">
        <ele>302.150878</ele>
        <time>2021-11-14T15:48:43.833Z</time>
      </trkpt>
      <trkpt lat="47.545475" lon="7.928419">
        <ele>302.495552</ele>
        <time>2021-11-14T15:48:53.151Z</time>
      </trkpt>
      <trkpt lat="47.545563" lon="7.929641">
        <ele>301.479959</ele>
        <time>2021-11-14T15:49:03.030Z</time>
      </trkpt>
      <trkpt lat="47.545661" lon="7.930955">
        <ele>300.362494</ele>
        <time>2021-11-14T15:49:12.426Z</time>
      </trkpt>
      <trkpt lat="47.545696" lon="7.931497">
        <ele>299.857204</ele>
        <time>2021-11-14T15:49:16.395Z</time>
      </trkpt>
      <trkpt lat="47.545721" lon="7.931992">
        <ele>299.396543</ele>
        <time>2021-11-14T15:49:20.188Z</time>
      </trkpt>
      <trkpt lat="47.545724" lon="7.932758">
        <ele>298.685659</ele>
        <time>2021-11-14T15:49:26.397Z</time>
      </trkpt>
      <trkpt lat="47.545702" lon="7.933290">
        <ele>298.191020</ele>
        <time>2021-11-14T15:49:31.040Z</time>
      </trkpt>
      <trkpt lat="47.545674" lon="7.933625">
        <ele>298.260154</ele>
        <time>2021-11-14T15:49:34.240Z</time>
      </trkpt>
      <trkpt lat="47.545457" lon="7.935110">
        <ele>299.098325</ele>
        <time>2021-11-14T15:49:52.375Z</time>
      </trkpt>
      <trkpt lat="47.545074" lon="7.936484">
        <ele>300.288431</ele>
        <time>2021-11-14T15:50:13.902Z</time>
      </trkpt>
      <trkpt lat="47.544903" lon="7.936917">
        <ele>300.874711</ele>
        <time>2021-11-14T15:50:21.219Z</time>
      </trkpt>
      <trkpt lat="47.544705" lon="7.937395">
        <ele>301.530136</ele>
        <time>2021-11-14T15:50:29.403Z</time>
      </trkpt>
      <trkpt lat="47.544472" lon="7.937932">
        <ele>302.276189</ele>
        <time>2021-11-14T15:50:38.810Z</time>
      </trkpt>
      <trkpt lat="47.543826" lon="7.939433">
        <ele>304.344177</ele>
        <time>2021-11-14T15:51:05.692Z</time>
      </trkpt>
      <trkpt lat="47.543435" lon="7.940670">
        <ele>305.844837</ele>
        <time>2021-11-14T15:51:25.652Z</time>
      </trkpt>
      <trkpt lat="47.543161" lon="7.942213">
        <ele>306.558947</ele>
        <time>2021-11-14T15:51:46.502Z</time>
      </trkpt>
      <trkpt lat="47.543007" lon="7.943867">
        <ele>306.205297</ele>
        <time>2021-11-14T15:52:02.046Z</time>
      </trkpt>
      <trkpt lat="47.542913" lon="7.945267">
        <ele>304.677989</ele>
        <time>2021-11-14T15:52:12.805Z</time>
      </trkpt>
      <trkpt lat="47.542872" lon="7.945781">
        <ele>304.116120</ele>
        <time>2021-11-14T15:52:16.402Z</time>
      </trkpt>
      <trkpt lat="47.542875" lon="7.946089">
        <ele>303.619475</ele>
        <time>2021-11-14T15:52:18.492Z</time>
      </trkpt>
      <trkpt lat="47.542902" lon="7.946514">
        <ele>302.913981</ele>
        <time>2021-11-14T15:52:21.372Z</time>
      </trkpt>
      <trkpt lat="47.542943" lon="7.946806">
        <ele>302.421069</ele>
        <time>2021-11-14T15:52:23.418Z</time>
      </trkpt>
      <trkpt lat="47.542974" lon="7.946965">
        <ele>302.147551</ele>
        <time>2021-11-14T15:52:24.629Z</time>
      </trkpt>
      <trkpt lat="47.542979" lon="7.946989">
        <ele>302.106041</ele>
        <time>2021-11-14T15:52:24.784Z</time>
      </trkpt>
      <trkpt lat="47.543007" lon="7.947104">
        <ele>301.903998</ele>
        <time>2021-11-14T15:52:25.633Z</time>
      </trkpt>
      <trkpt lat="47.543087" lon="7.947317">
        <ele>301.501157</ele>
        <time>2021-11-14T15:52:27.375Z</time>
      </trkpt>
      <trkpt lat="47.543191" lon="7.947615">
        <ele>300.946733</ele>
        <time>2021-11-14T15:52:29.817Z</time>
      </trkpt>
      <trkpt lat="47.543242" lon="7.947745">
        <ele>300.698238</ele>
        <time>2021-11-14T15:52:30.947Z</time>
      </trkpt>
      <trkpt lat="47.543273" lon="7.947816">
        <ele>300.558492</ele>
        <time>2021-11-14T15:52:31.574Z</time>
      </trkpt>
      <trkpt lat="47.543358" lon="7.947967">
        <ele>300.233555</ele>
        <time>2021-11-14T15:52:33.016Z</time>
      </trkpt>
      <trkpt lat="47.543455" lon="7.948127">
        <ele>299.878140</ele>
        <time>2021-11-14T15:52:34.684Z</time>
      </trkpt>
      <trkpt lat="47.543532" lon="7.948214">
        <ele>299.684458</ele>
        <time>2021-11-14T15:52:35.764Z</time>
      </trkpt>
      <trkpt lat="47.543579" lon="7.948287">
        <ele>299.669517</ele>
        <time>2021-11-14T15:52:36.528Z</time>
      </trkpt>
      <trkpt lat="47.543760" lon="7.948548">
        <ele>299.614095</ele>
        <time>2021-11-14T15:52:39.416Z</time>
      </trkpt>
      <trkpt lat="47.543864" lon="7.948694">
        <ele>299.582658</ele>
        <time>2021-11-14T15:52:41.088Z</time>
      </trkpt>
      <trkpt lat="47.544239" lon="7.949202">
        <ele>299.471164</ele>
        <time>2021-11-14T15:52:48.450Z</time>
      </trkpt>
      <trkpt lat="47.544521" lon="7.949558">
        <ele>299.389871</ele>
        <time>2021-11-14T15:52:54.624Z</time>
      </trkpt>
      <trkpt lat="47.544901" lon="7.950044">
        <ele>299.311054</ele>
        <time>2021-11-14T15:53:03.781Z</time>
      </trkpt>
      <trkpt lat="47.545166" lon="7.950366">
        <ele>299.399894</ele>
        <time>2021-11-14T15:53:10.112Z</time>
      </trkpt>
      <trkpt lat="47.545434" lon="7.950668">
        <ele>299.487174</ele>
        <time>2021-11-14T15:53:15.896Z</time>
      </trkpt>
      <trkpt lat="47.545542" lon="7.950842">
        <ele>299.528533</ele>
        <time>2021-11-14T15:53:18.380Z</time>
      </trkpt>
      <trkpt lat="47.545667" lon="7.950979">
        <ele>299.568836</ele>
        <time>2021-11-14T15:53:20.917Z</time>
      </trkpt>
      <trkpt lat="47.545737" lon="7.951055">
        <ele>299.591332</ele>
        <time>2021-11-14T15:53:22.189Z</time>
      </trkpt>
      <trkpt lat="47.545876" lon="7.951233">
        <ele>299.638956</ele>
        <time>2021-11-14T15:53:24.932Z</time>
      </trkpt>
      <trkpt lat="47.546112" lon="7.951485">
        <ele>299.714363</ele>
        <time>2021-11-14T15:53:29.065Z</time>
      </trkpt>
      <trkpt lat="47.546164" lon="7.951520">
        <ele>299.729168</ele>
        <time>2021-11-14T15:53:29.904Z</time>
      </trkpt>
      <trkpt lat="47.546212" lon="7.951535">
        <ele>299.741884</ele>
        <time>2021-11-14T15:53:30.619Z</time>
      </trkpt>
      <trkpt lat="47.546231" lon="7.951558">
        <ele>299.748244</ele>
        <time>2021-11-14T15:53:30.936Z</time>
      </trkpt>
      <trkpt lat="47.546421" lon="7.951793">
        <ele>299.679421</ele>
        <time>2021-11-14T15:53:34.240Z</time>
      </trkpt>
      <trkpt lat="47.546634" lon="7.952024">
        <ele>299.573176</ele>
        <time>2021-11-14T15:53:37.669Z</time>
      </trkpt>
      <trkpt lat="47.546695" lon="7.952091">
        <ele>299.542612</ele>
        <time>2021-11-14T15:53:38.633Z</time>
      </trkpt>
      <trkpt lat="47.546776" lon="7.952185">
        <ele>299.501200</ele>
        <time>2021-11-14T15:53:39.983Z</time>
      </trkpt>
      <trkpt lat="47.546935" lon="7.952372">
        <ele>299.419491</ele>
        <time>2021-11-14T15:53:42.631Z</time>
      </trkpt>
      <trkpt lat="47.547090" lon="7.952543">
        <ele>299.341708</ele>
        <time>2021-11-14T15:53:45.242Z</time>
      </trkpt>
      <trkpt lat="47.547400" lon="7.952910">
        <ele>299.181994</ele>
        <time>2021-11-14T15:53:50.645Z</time>
      </trkpt>
      <trkpt lat="47.547458" lon="7.952975">
        <ele>299.152723</ele>
        <time>2021-11-14T15:53:51.632Z</time>
      </trkpt>
      <trkpt lat="47.547550" lon="7.953078">
        <ele>299.106310</ele>
        <time>2021-11-14T15:53:53.241Z</time>
      </trkpt>
      <trkpt lat="47.547624" lon="7.953160">
        <ele>299.069117</ele>
        <time>2021-11-14T15:53:54.496Z</time>
      </trkpt>
      <trkpt lat="47.547797" lon="7.953355">
        <ele>298.943670</ele>
        <time>2021-11-14T15:53:57.500Z</time>
      </trkpt>
      <trkpt lat="47.547871" lon="7.953437">
        <ele>298.880693</ele>
        <time>2021-11-14T15:53:58.794Z</time>
      </trkpt>
      <trkpt lat="47.547994" lon="7.953584">
        <ele>298.772994</ele>
        <time>2021-11-14T15:54:00.975Z</time>
      </trkpt>
      <trkpt lat="47.548115" lon="7.953729">
        <ele>298.666934</ele>
        <time>2021-11-14T15:54:03.125Z</time>
      </trkpt>
      <trkpt lat="47.548251" lon="7.953895">
        <ele>298.546846</ele>
        <time>2021-11-14T15:54:05.525Z</time>
      </trkpt>
      <trkpt lat="47.548335" lon="7.953779">
        <ele>298.468587</ele>
        <time>2021-11-14T15:54:07.431Z</time>
      </trkpt>
      <trkpt lat="47.549296" lon="7.953268">
        <ele>297.711746</ele>
        <time>2021-11-14T15:54:25.747Z</time>
      </trkpt>
      <trkpt lat="47.549442" lon="7.953195">
        <ele>297.437392</ele>
        <time>2021-11-14T15:54:28.298Z</time>
      </trkpt>
      <trkpt lat="47.549640" lon="7.953086">
        <ele>297.061307</ele>
        <time>2021-11-14T15:54:32.012Z</time>
      </trkpt>
      <trkpt lat="47.549673" lon="7.953076">
        <ele>297.001335</ele>
        <time>2021-11-14T15:54:32.570Z</time>
      </trkpt>
      <trkpt lat="47.549687" lon="7.953071">
        <ele>296.975694</ele>
        <time>2021-11-14T15:54:32.762Z</time>
      </trkpt>
      <trkpt lat="47.550567" lon="7.953069">
        <ele>295.408867</ele>
        <time>2021-11-14T15:54:46.938Z</time>
      </trkpt>
      <trkpt lat="47.550656" lon="7.953072">
        <ele>295.250363</ele>
        <time>2021-11-14T15:54:48.255Z</time>
      </trkpt>
      <trkpt lat="47.550967" lon="7.953063">
        <ele>294.696527</ele>
        <time>2021-11-14T15:54:53.019Z</time>
      </trkpt>
      <trkpt lat="47.551254" lon="7.952986">
        <ele>294.141790</ele>
        <time>2021-11-14T15:54:57.408Z</time>
      </trkpt>
      <trkpt lat="47.551295" lon="7.952900">
        <ele>294.004859</ele>
        <time>2021-11-14T15:54:58.471Z</time>
      </trkpt>
      <trkpt lat="47.551334" lon="7.952777">
        <ele>293.828125</ele>
        <time>2021-11-14T15:55:01.146Z</time>
      </trkpt>
      <trkpt lat="47.551339" lon="7.952761">
        <ele>293.805194</ele>
        <time>2021-11-14T15:55:01.517Z</time>
      </trkpt>
      <trkpt lat="47.551381" lon="7.952341">
        <ele>293.253022</ele>
        <time>2021-11-14T15:55:10.298Z</time>
      </trkpt>
      <trkpt lat="47.551506" lon="7.950255">
        <ele>291.089596</ele>
        <time>2021-11-14T15:55:55.913Z</time>
      </trkpt>
      <trkpt lat="47.551525" lon="7.950027">
        <ele>291.063860</ele>
        <time>2021-11-14T15:56:01.308Z</time>
      </trkpt>
      <trkpt lat="47.551581" lon="7.949830">
        <ele>291.039912</ele>
        <time>2021-11-14T15:56:06.411Z</time>
      </trkpt>
      <trkpt lat="47.551581" lon="7.949830">
        <ele>291.039912</ele>
        <time>2021-11-14T15:56:06.437Z</time>
      </trkpt>
      <trkpt lat="47.551581" lon="7.949830">
        <ele>291.039912</ele>
        <time>2021-11-14T15:56:06.441Z</time>
      </trkpt>
      <trkpt lat="47.551673" lon="7.949634">
        <ele>291.013167</ele>
        <time>2021-11-14T15:56:12.617Z</time>
      </trkpt>
      <trkpt lat="47.551794" lon="7.949387">
        <ele>290.978975</ele>
        <time>2021-11-14T15:56:20.094Z</time>
      </trkpt>
      <trkpt lat="47.551827" lon="7.949334">
        <ele>290.970897</ele>
        <time>2021-11-14T15:56:22.131Z</time>
      </trkpt>
      <trkpt lat="47.552010" lon="7.949039">
        <ele>290.926010</ele>
        <time>2021-11-14T15:56:32.180Z</time>
      </trkpt>
      <trkpt lat="47.552049" lon="7.948982">
        <ele>290.916917</ele>
        <time>2021-11-14T15:56:34.384Z</time>
      </trkpt>
      <trkpt lat="47.552094" lon="7.948926">
        <ele>290.907162</ele>
        <time>2021-11-14T15:56:36.832Z</time>
      </trkpt>
      <trkpt lat="47.552202" lon="7.949003">
        <ele>290.887268</ele>
        <time>2021-11-14T15:56:41.528Z</time>
      </trkpt>
      <trkpt lat="47.552351" lon="7.949099">
        <ele>290.860299</ele>
        <time>2021-11-14T15:56:47.764Z</time>
      </trkpt>
      <trkpt lat="47.552382" lon="7.949119">
        <ele>290.854687</ele>
        <time>2021-11-14T15:56:49.291Z</time>
      </trkpt>
      <trkpt lat="47.552518" lon="7.949236">
        <ele>290.890782</ele>
        <time>2021-11-14T15:56:55.760Z</time>
      </trkpt>
      <trkpt lat="47.552953" lon="7.948775">
        <ele>291.163900</ele>
        <time>2021-11-14T15:57:17.421Z</time>
      </trkpt>
      <trkpt lat="47.552995" lon="7.948735">
        <ele>291.189397</ele>
        <time>2021-11-14T15:57:19.578Z</time>
      </trkpt>
      <trkpt lat="47.553147" lon="7.948591">
        <ele>291.281530</ele>
        <time>2021-11-14T15:57:26.780Z</time>
      </trkpt>
      <trkpt lat="47.553147" lon="7.948591">
        <ele>291.281530</ele>
        <time>2021-11-14T15:57:26.787Z</time>
      </trkpt>
      <trkpt lat="47.553811" lon="7.948060">
        <ele>291.666855</ele>
        <time>2021-11-14T15:57:40.771Z</time>
      </trkpt>
      <trkpt lat="47.554475" lon="7.947529">
        <ele>291.621475</ele>
        <time>2021-11-14T15:57:54.757Z</time>
      </trkpt>
      <trkpt lat="47.554475" lon="7.947529">
        <ele>291.621475</ele>
        <time>2021-11-14T15:57:54.778Z</time>
      </trkpt>
      <trkpt lat="47.554517" lon="7.947576">
        <ele>291.608408</ele>
        <time>2021-11-14T15:57:55.627Z</time>
      </trkpt>
      <trkpt lat="47.554563" lon="7.947632">
        <ele>291.593628</ele>
        <time>2021-11-14T15:57:56.564Z</time>
      </trkpt>
      <trkpt lat="47.554614" lon="7.947707">
        <ele>291.575790</ele>
        <time>2021-11-14T15:57:57.685Z</time>
      </trkpt>
      <trkpt lat="47.554731" lon="7.947945">
        <ele>291.526456</ele>
        <time>2021-11-14T15:58:00.480Z</time>
      </trkpt>
      <trkpt lat="47.554749" lon="7.947993">
        <ele>291.517256</ele>
        <time>2021-11-14T15:58:01.041Z</time>
      </trkpt>
      <trkpt lat="47.554846" lon="7.948223">
        <ele>291.471814</ele>
        <time>2021-11-14T15:58:03.591Z</time>
      </trkpt>
      <trkpt lat="47.554900" lon="7.948352">
        <ele>291.446381</ele>
        <time>2021-11-14T15:58:04.896Z</time>
      </trkpt>
      <trkpt lat="47.554929" lon="7.948424">
        <ele>291.432332</ele>
        <time>2021-11-14T15:58:05.652Z</time>
      </trkpt>
      <trkpt lat="47.555270" lon="7.949203">
        <ele>291.183336</ele>
        <time>2021-11-14T15:58:13.615Z</time>
      </trkpt>
      <trkpt lat="47.555335" lon="7.949348">
        <ele>291.084429</ele>
        <time>2021-11-14T15:58:15.105Z</time>
      </trkpt>
      <trkpt lat="47.555388" lon="7.949465">
        <ele>291.004364</ele>
        <time>2021-11-14T15:58:16.325Z</time>
      </trkpt>
      <trkpt lat="47.555429" lon="7.949557">
        <ele>290.941721</ele>
        <time>2021-11-14T15:58:17.267Z</time>
      </trkpt>
      <trkpt lat="47.555472" lon="7.949652">
        <ele>290.876727</ele>
        <time>2021-11-14T15:58:18.182Z</time>
      </trkpt>
      <trkpt lat="47.555594" lon="7.949924">
        <ele>290.691160</ele>
        <time>2021-11-14T15:58:20.902Z</time>
      </trkpt>
      <trkpt lat="47.555651" lon="7.950049">
        <ele>290.605444</ele>
        <time>2021-11-14T15:58:22.150Z</time>
      </trkpt>
      <trkpt lat="47.555760" lon="7.950281">
        <ele>290.444827</ele>
        <time>2021-11-14T15:58:24.498Z</time>
      </trkpt>
      <trkpt lat="47.555919" lon="7.950621">
        <ele>290.209796</ele>
        <time>2021-11-14T15:58:27.909Z</time>
      </trkpt>
      <trkpt lat="47.556066" lon="7.950941">
        <ele>289.989852</ele>
        <time>2021-11-14T15:58:31.109Z</time>
      </trkpt>
      <trkpt lat="47.556242" lon="7.951253">
        <ele>289.792089</ele>
        <time>2021-11-14T15:58:34.572Z</time>
      </trkpt>
      <trkpt lat="47.556537" lon="7.951618">
        <ele>289.720620</ele>
        <time>2021-11-14T15:58:39.418Z</time>
      </trkpt>
      <trkpt lat="47.556779" lon="7.951918">
        <ele>289.661946</ele>
        <time>2021-11-14T15:58:43.663Z</time>
      </trkpt>
      <trkpt lat="47.556818" lon="7.951969">
        <ele>289.652273</ele>
        <time>2021-11-14T15:58:44.400Z</time>
      </trkpt>
      <trkpt lat="47.556921" lon="7.952131">
        <ele>289.624341</ele>
        <time>2021-11-14T15:58:46.528Z</time>
      </trkpt>
      <trkpt lat="47.557113" lon="7.952476">
        <ele>289.568221</ele>
        <time>2021-11-14T15:58:51.111Z</time>
      </trkpt>
      <trkpt lat="47.557371" lon="7.952961">
        <ele>289.490719</ele>
        <time>2021-11-14T15:58:58.031Z</time>
      </trkpt>
      <trkpt lat="47.557829" lon="7.953829">
        <ele>289.551231</ele>
        <time>2021-11-14T15:59:10.112Z</time>
      </trkpt>
      <trkpt lat="47.558045" lon="7.954108">
        <ele>289.590374</ele>
        <time>2021-11-14T15:59:14.349Z</time>
      </trkpt>
      <trkpt lat="47.558149" lon="7.954179">
        <ele>289.606016</ele>
        <time>2021-11-14T15:59:16.448Z</time>
      </trkpt>
      <trkpt lat="47.558138" lon="7.954249">
        <ele>289.612642</ele>
        <time>2021-11-14T15:59:17.128Z</time>
      </trkpt>
      <trkpt lat="47.558124" lon="7.954331">
        <ele>289.620440</ele>
        <time>2021-11-14T15:59:18.004Z</time>
      </trkpt>
      <trkpt lat="47.558107" lon="7.954410">
        <ele>289.628084</ele>
        <time>2021-11-14T15:59:18.801Z</time>
      </trkpt>
      <trkpt lat="47.558161" lon="7.954466">
        <ele>289.637087</ele>
        <time>2021-11-14T15:59:19.799Z</time>
      </trkpt>
      <trkpt lat="47.558201" lon="7.954539">
        <ele>289.645756</ele>
        <time>2021-11-14T15:59:20.867Z</time>
      </trkpt>
      <trkpt lat="47.558360" lon="7.955074">
        <ele>289.699647</ele>
        <time>2021-11-14T15:59:26.772Z</time>
      </trkpt>
      <trkpt lat="47.558659" lon="7.956055">
        <ele>289.394488</ele>
        <time>2021-11-14T15:59:36.867Z</time>
      </trkpt>
      <trkpt lat="47.558756" lon="7.956469">
        <ele>289.245201</ele>
        <time>2021-11-14T15:59:40.663Z</time>
      </trkpt>
      <trkpt lat="47.559224" lon="7.958738">
        <ele>288.672144</ele>
        <time>2021-11-14T16:00:01.107Z</time>
      </trkpt>
      <trkpt lat="47.559324" lon="7.959601">
        <ele>288.564563</ele>
        <time>2021-11-14T16:00:09.465Z</time>
      </trkpt>
      <trkpt lat="47.559346" lon="7.959868">
        <ele>288.531516</ele>
        <time>2021-11-14T16:00:12.559Z</time>
      </trkpt>
      <trkpt lat="47.559406" lon="7.960730">
        <ele>288.690180</ele>
        <time>2021-11-14T16:00:22.042Z</time>
      </trkpt>
      <trkpt lat="47.559408" lon="7.961845">
        <ele>289.247674</ele>
        <time>2021-11-14T16:00:35.807Z</time>
      </trkpt>
      <trkpt lat="47.559368" lon="7.962709">
        <ele>289.680684</ele>
        <time>2021-11-14T16:00:47.049Z</time>
      </trkpt>
      <trkpt lat="47.559232" lon="7.963800">
        <ele>289.903761</ele>
        <time>2021-11-14T16:00:59.641Z</time>
      </trkpt>
      <trkpt lat="47.559029" lon="7.964894">
        <ele>290.028796</ele>
        <time>2021-11-14T16:01:11.344Z</time>
      </trkpt>
      <trkpt lat="47.558949" lon="7.965326">
        <ele>290.078162</ele>
        <time>2021-11-14T16:01:15.580Z</time>
      </trkpt>
      <trkpt lat="47.558732" lon="7.966356">
        <ele>290.026966</ele>
        <time>2021-11-14T16:01:25.463Z</time>
      </trkpt>
      <trkpt lat="47.558606" lon="7.966985">
        <ele>289.967513</ele>
        <time>2021-11-14T16:01:31.719Z</time>
      </trkpt>
      <trkpt lat="47.558448" lon="7.967701">
        <ele>289.899254</ele>
        <time>2021-11-14T16:01:38.974Z</time>
      </trkpt>
      <trkpt lat="47.558430" lon="7.967788">
        <ele>289.891009</ele>
        <time>2021-11-14T16:01:39.857Z</time>
      </trkpt>
      <trkpt lat="47.558327" lon="7.968108">
        <ele>289.863343</ele>
        <time>2021-11-14T16:01:43.810Z</time>
      </trkpt>
      <trkpt lat="47.558313" lon="7.968259">
        <ele>289.868030</ele>
        <time>2021-11-14T16:01:45.269Z</time>
      </trkpt>
      <trkpt lat="47.558296" lon="7.968403">
        <ele>289.872524</ele>
        <time>2021-11-14T16:01:47.072Z</time>
      </trkpt>
      <trkpt lat="47.558225" lon="7.968807">
        <ele>289.885360</ele>
        <time>2021-11-14T16:01:51.526Z</time>
      </trkpt>
      <trkpt lat="47.558045" lon="7.969704">
        <ele>289.914132</ele>
        <time>2021-11-14T16:02:01.096Z</time>
      </trkpt>
      <trkpt lat="47.557756" lon="7.971140">
        <ele>289.819701</ele>
        <time>2021-11-14T16:02:15.787Z</time>
      </trkpt>
      <trkpt lat="47.557538" lon="7.972196">
        <ele>289.556337</ele>
        <time>2021-11-14T16:02:25.471Z</time>
      </trkpt>
      <trkpt lat="47.557419" lon="7.972636">
        <ele>289.443288</ele>
        <time>2021-11-14T16:02:29.726Z</time>
      </trkpt>
      <trkpt lat="47.557323" lon="7.972992">
        <ele>289.351858</ele>
        <time>2021-11-14T16:02:33.343Z</time>
      </trkpt>
      <trkpt lat="47.557235" lon="7.973507">
        <ele>289.422819</ele>
        <time>2021-11-14T16:02:38.421Z</time>
      </trkpt>
      <trkpt lat="47.557108" lon="7.974186">
        <ele>289.653199</ele>
        <time>2021-11-14T16:02:45.573Z</time>
      </trkpt>
      <trkpt lat="47.557045" lon="7.974526">
        <ele>289.768483</ele>
        <time>2021-11-14T16:02:49.608Z</time>
      </trkpt>
      <trkpt lat="47.556769" lon="7.976421">
        <ele>290.552999</ele>
        <time>2021-11-14T16:03:13.768Z</time>
      </trkpt>
      <trkpt lat="47.556668" lon="7.978159">
        <ele>291.509751</ele>
        <time>2021-11-14T16:03:35.682Z</time>
      </trkpt>
      <trkpt lat="47.557185" lon="7.988787">
        <ele>293.658375</ele>
        <time>2021-11-14T16:05:30.017Z</time>
      </trkpt>
      <trkpt lat="47.557298" lon="7.990679">
        <ele>294.144442</ele>
        <time>2021-11-14T16:05:51.241Z</time>
      </trkpt>
      <trkpt lat="47.557377" lon="7.991413">
        <ele>294.340562</ele>
        <time>2021-11-14T16:05:59.528Z</time>
      </trkpt>
      <trkpt lat="47.557666" lon="7.996934">
        <ele>295.336420</ele>
        <time>2021-11-14T16:06:58.385Z</time>
      </trkpt>
      <trkpt lat="47.557611" lon="7.998828">
        <ele>296.145707</ele>
        <time>2021-11-14T16:07:21.013Z</time>
      </trkpt>
      <trkpt lat="47.557595" lon="7.999065">
        <ele>296.249221</ele>
        <time>2021-11-14T16:07:24.037Z</time>
      </trkpt>
      <trkpt lat="47.557590" lon="7.999121">
        <ele>296.273771</ele>
        <time>2021-11-14T16:07:24.696Z</time>
      </trkpt>
      <trkpt lat="47.557569" lon="7.999330">
        <ele>296.365604</ele>
        <time>2021-11-14T16:07:30.284Z</time>
      </trkpt>
      <trkpt lat="47.557552" lon="7.999488">
        <ele>296.435138</ele>
        <time>2021-11-14T16:07:32.302Z</time>
      </trkpt>
      <trkpt lat="47.557421" lon="8.000151">
        <ele>296.560808</ele>
        <time>2021-11-14T16:07:40.500Z</time>
      </trkpt>
      <trkpt lat="47.556859" lon="8.003033">
        <ele>296.517156</ele>
        <time>2021-11-14T16:08:10.214Z</time>
      </trkpt>
      <trkpt lat="47.556414" lon="8.004608">
        <ele>295.994817</ele>
        <time>2021-11-14T16:08:24.983Z</time>
      </trkpt>
      <trkpt lat="47.555689" lon="8.008075">
        <ele>294.266993</ele>
        <time>2021-11-14T16:08:56.650Z</time>
      </trkpt>
      <trkpt lat="47.555492" lon="8.008854">
        <ele>293.778938</ele>
        <time>2021-11-14T16:09:03.604Z</time>
      </trkpt>
      <trkpt lat="47.555373" lon="8.009365">
        <ele>293.461798</ele>
        <time>2021-11-14T16:09:07.925Z</time>
      </trkpt>
      <trkpt lat="47.555124" lon="8.010557">
        <ele>292.930290</ele>
        <time>2021-11-14T16:09:18.398Z</time>
      </trkpt>
      <trkpt lat="47.555069" lon="8.010772">
        <ele>292.851470</ele>
        <time>2021-11-14T16:09:20.364Z</time>
      </trkpt>
      <trkpt lat="47.555159" lon="8.010812">
        <ele>292.803743</ele>
        <time>2021-11-14T16:09:21.577Z</time>
      </trkpt>
      <trkpt lat="47.555290" lon="8.010881">
        <ele>292.733122</ele>
        <time>2021-11-14T16:09:23.370Z</time>
      </trkpt>
      <trkpt lat="47.555339" lon="8.010917">
        <ele>292.705341</ele>
        <time>2021-11-14T16:09:24.061Z</time>
      </trkpt>
      <trkpt lat="47.555372" lon="8.010968">
        <ele>292.681121</ele>
        <time>2021-11-14T16:09:24.663Z</time>
      </trkpt>
      <trkpt lat="47.555387" lon="8.010980">
        <ele>292.672462</ele>
        <time>2021-11-14T16:09:24.888Z</time>
      </trkpt>
      <trkpt lat="47.555405" lon="8.010993">
        <ele>292.662291</ele>
        <time>2021-11-14T16:09:25.145Z</time>
      </trkpt>
      <trkpt lat="47.555438" lon="8.011004">
        <ele>292.645110</ele>
        <time>2021-11-14T16:09:25.578Z</time>
      </trkpt>
      <trkpt lat="47.555418" lon="8.011120">
        <ele>292.604067</ele>
        <time>2021-11-14T16:09:26.664Z</time>
      </trkpt>
      <trkpt lat="47.555367" lon="8.011430">
        <ele>292.494686</ele>
        <time>2021-11-14T16:09:29.635Z</time>
      </trkpt>
      <trkpt lat="47.555341" lon="8.011585">
        <ele>292.439935</ele>
        <time>2021-11-14T16:09:31.145Z</time>
      </trkpt>
      <trkpt lat="47.555333" lon="8.011686">
        <ele>292.405074</ele>
        <time>2021-11-14T16:09:32.201Z</time>
      </trkpt>
      <trkpt lat="47.555323" lon="8.011802">
        <ele>292.364986</ele>
        <time>2021-11-14T16:09:33.301Z</time>
      </trkpt>
      <trkpt lat="47.555269" lon="8.012084">
        <ele>292.352171</ele>
        <time>2021-11-14T16:09:36.239Z</time>
      </trkpt>
      <trkpt lat="47.555212" lon="8.012332">
        <ele>292.493435</ele>
        <time>2021-11-14T16:09:38.983Z</time>
      </trkpt>
      <trkpt lat="47.555138" lon="8.012646">
        <ele>292.672771</ele>
        <time>2021-11-14T16:09:42.589Z</time>
      </trkpt>
      <trkpt lat="47.555084" lon="8.012876">
        <ele>292.804077</ele>
        <time>2021-11-14T16:09:45.436Z</time>
      </trkpt>
      <trkpt lat="47.554948" lon="8.013450">
        <ele>293.132099</ele>
        <time>2021-11-14T16:09:53.394Z</time>
      </trkpt>
      <trkpt lat="47.554871" lon="8.013777">
        <ele>293.318843</ele>
        <time>2021-11-14T16:09:58.048Z</time>
      </trkpt>
      <trkpt lat="47.554843" lon="8.013902">
        <ele>293.389860</ele>
        <time>2021-11-14T16:09:59.817Z</time>
      </trkpt>
      <trkpt lat="47.554807" lon="8.014038">
        <ele>293.468630</ele>
        <time>2021-11-14T16:10:01.776Z</time>
      </trkpt>
      <trkpt lat="47.554594" lon="8.014946">
        <ele>294.089076</ele>
        <time>2021-11-14T16:10:14.302Z</time>
      </trkpt>
      <trkpt lat="47.554389" lon="8.015820">
        <ele>294.790688</ele>
        <time>2021-11-14T16:10:26.325Z</time>
      </trkpt>
      <trkpt lat="47.554188" lon="8.016568">
        <ele>295.401183</ele>
        <time>2021-11-14T16:10:37.009Z</time>
      </trkpt>
      <trkpt lat="47.554072" lon="8.017124">
        <ele>295.798111</ele>
        <time>2021-11-14T16:10:44.607Z</time>
      </trkpt>
      <trkpt lat="47.553834" lon="8.018363">
        <ele>296.271024</ele>
        <time>2021-11-14T16:11:00.344Z</time>
      </trkpt>
      <trkpt lat="47.553821" lon="8.018432">
        <ele>296.297323</ele>
        <time>2021-11-14T16:11:01.332Z</time>
      </trkpt>
      <trkpt lat="47.553780" lon="8.018576">
        <ele>296.354699</ele>
        <time>2021-11-14T16:11:02.911Z</time>
      </trkpt>
      <trkpt lat="47.553753" lon="8.018684">
        <ele>296.396980</ele>
        <time>2021-11-14T16:11:04.083Z</time>
      </trkpt>
      <trkpt lat="47.553744" lon="8.018750">
        <ele>296.421698</ele>
        <time>2021-11-14T16:11:04.861Z</time>
      </trkpt>
      <trkpt lat="47.553738" lon="8.018867">
        <ele>296.464774</ele>
        <time>2021-11-14T16:11:06.156Z</time>
      </trkpt>
      <trkpt lat="47.553693" lon="8.019156">
        <ele>296.573656</ele>
        <time>2021-11-14T16:11:09.061Z</time>
      </trkpt>
      <trkpt lat="47.553654" lon="8.019401">
        <ele>296.666066</ele>
        <time>2021-11-14T16:11:11.604Z</time>
      </trkpt>
      <trkpt lat="47.553605" lon="8.019679">
        <ele>296.784288</ele>
        <time>2021-11-14T16:11:14.284Z</time>
      </trkpt>
      <trkpt lat="47.553542" lon="8.020040">
        <ele>296.968706</ele>
        <time>2021-11-14T16:11:18.261Z</time>
      </trkpt>
      <trkpt lat="47.553523" lon="8.020179">
        <ele>297.038850</ele>
        <time>2021-11-14T16:11:19.513Z</time>
      </trkpt>
      <trkpt lat="47.553554" lon="8.020916">
        <ele>297.404068</ele>
        <time>2021-11-14T16:11:28.339Z</time>
      </trkpt>
      <trkpt lat="47.553598" lon="8.021379">
        <ele>297.635320</ele>
        <time>2021-11-14T16:11:34.143Z</time>
      </trkpt>
      <trkpt lat="47.553607" lon="8.021497">
        <ele>297.694053</ele>
        <time>2021-11-14T16:11:35.719Z</time>
      </trkpt>
      <trkpt lat="47.553614" lon="8.021587">
        <ele>297.738860</ele>
        <time>2021-11-14T16:11:36.899Z</time>
      </trkpt>
      <trkpt lat="47.553615" lon="8.021606">
        <ele>297.748286</ele>
        <time>2021-11-14T16:11:37.158Z</time>
      </trkpt>
      <trkpt lat="47.553619" lon="8.021667">
        <ele>297.778598</ele>
        <time>2021-11-14T16:11:37.807Z</time>
      </trkpt>
      <trkpt lat="47.553685" lon="8.022501">
        <ele>298.628155</ele>
        <time>2021-11-14T16:11:48.570Z</time>
      </trkpt>
      <trkpt lat="47.553695" lon="8.022619">
        <ele>298.868176</ele>
        <time>2021-11-14T16:11:50.403Z</time>
      </trkpt>
      <trkpt lat="47.553699" lon="8.022667">
        <ele>298.965787</ele>
        <time>2021-11-14T16:11:51.156Z</time>
      </trkpt>
      <trkpt lat="47.553719" lon="8.022919">
        <ele>299.477887</ele>
        <time>2021-11-14T16:11:54.940Z</time>
      </trkpt>
      <trkpt lat="47.553732" lon="8.023128">
        <ele>299.901485</ele>
        <time>2021-11-14T16:11:58.525Z</time>
      </trkpt>
      <trkpt lat="47.553811" lon="8.023113">
        <ele>300.139660</ele>
        <time>2021-11-14T16:12:00.444Z</time>
      </trkpt>
      <trkpt lat="47.554021" lon="8.023095">
        <ele>300.768699</ele>
        <time>2021-11-14T16:12:05.777Z</time>
      </trkpt>
      <trkpt lat="47.554299" lon="8.023080">
        <ele>301.600588</ele>
        <time>2021-11-14T16:12:14.045Z</time>
      </trkpt>
      <trkpt lat="47.554701" lon="8.023055">
        <ele>302.803797</ele>
        <time>2021-11-14T16:12:26.717Z</time>
      </trkpt>
      <trkpt lat="47.554717" lon="8.023117">
        <ele>302.937761</ele>
        <time>2021-11-14T16:12:28.323Z</time>
      </trkpt>
      <trkpt lat="47.554744" lon="8.023183">
        <ele>303.093522</ele>
        <time>2021-11-14T16:12:30.395Z</time>
      </trkpt>
      <trkpt lat="47.554815" lon="8.023260">
        <ele>303.356637</ele>
        <time>2021-11-14T16:12:33.834Z</time>
      </trkpt>
      <trkpt lat="47.555014" lon="8.023500">
        <ele>304.502272</ele>
        <time>2021-11-14T16:12:43.732Z</time>
      </trkpt>
      <trkpt lat="47.555120" lon="8.023629">
        <ele>305.136641</ele>
        <time>2021-11-14T16:12:48.639Z</time>
      </trkpt>
      <trkpt lat="47.555288" lon="8.023837">
        <ele>306.149117</ele>
        <time>2021-11-14T16:12:56.710Z</time>
      </trkpt>
      <trkpt lat="47.555464" lon="8.023921">
        <ele>307.004248</ele>
        <time>2021-11-14T16:13:03.629Z</time>
      </trkpt>
      <trkpt lat="47.555771" lon="8.023937">
        <ele>308.424914</ele>
        <time>2021-11-14T16:13:15.288Z</time>
      </trkpt>
      <trkpt lat="47.555905" lon="8.023936">
        <ele>309.044633</ele>
        <time>2021-11-14T16:13:20.902Z</time>
      </trkpt>
      <trkpt lat="47.556090" lon="8.023781">
        <ele>310.027504</ele>
        <time>2021-11-14T16:13:29.106Z</time>
      </trkpt>
      <trkpt lat="47.556286" lon="8.023733">
        <ele>310.946245</ele>
        <time>2021-11-14T16:13:37.403Z</time>
      </trkpt>
      <trkpt lat="47.556504" lon="8.023642">
        <ele>312.025924</ele>
        <time>2021-11-14T16:13:46.342Z</time>
      </trkpt>
      <trkpt lat="47.556691" lon="8.023589">
        <ele>313.022892</ele>
        <time>2021-11-14T16:13:53.995Z</time>
      </trkpt>
      <trkpt lat="47.556774" lon="8.023573">
        <ele>313.461181</ele>
        <time>2021-11-14T16:13:57.661Z</time>
      </trkpt>
      <trkpt lat="47.556882" lon="8.023535">
        <ele>314.042443</ele>
        <time>2021-11-14T16:14:02.715Z</time>
      </trkpt>
      <trkpt lat="47.556913" lon="8.023525">
        <ele>314.208575</ele>
        <time>2021-11-14T16:14:04.129Z</time>
      </trkpt>
      <trkpt lat="47.557050" lon="8.023513">
        <ele>314.927222</ele>
        <time>2021-11-14T16:14:09.272Z</time>
      </trkpt>
      <trkpt lat="47.557190" lon="8.023515">
        <ele>315.660359</ele>
        <time>2021-11-14T16:14:15.237Z</time>
      </trkpt>
      <trkpt lat="47.557314" lon="8.023539">
        <ele>316.315196</ele>
        <time>2021-11-14T16:14:20.401Z</time>
      </trkpt>
      <trkpt lat="47.557730" lon="8.023786">
        <ele>318.661928</ele>
        <time>2021-11-14T16:14:37.460Z</time>
      </trkpt>
      <trkpt lat="47.557897" lon="8.023902">
        <ele>319.627725</ele>
        <time>2021-11-14T16:14:45.919Z</time>
      </trkpt>
      <trkpt lat="47.558094" lon="8.024012">
        <ele>320.730114</ele>
        <time>2021-11-14T16:14:54.397Z</time>
      </trkpt>
      <trkpt lat="47.558184" lon="8.024093">
        <ele>321.288237</ele>
        <time>2021-11-14T16:15:00.075Z</time>
      </trkpt>
      <trkpt lat="47.558867" lon="8.025170">
        <ele>326.821431</ele>
        <time>2021-11-14T16:15:41.597Z</time>
      </trkpt>
      <trkpt lat="47.558912" lon="8.025234">
        <ele>327.167463</ele>
        <time>2021-11-14T16:15:45.238Z</time>
      </trkpt>
      <trkpt lat="47.559129" lon="8.025458">
        <ele>328.634644</ele>
        <time>2021-11-14T16:15:55.045Z</time>
      </trkpt>
      <trkpt lat="47.559351" lon="8.025813">
        <ele>330.446631</ele>
        <time>2021-11-14T16:16:08.796Z</time>
      </trkpt>
      <trkpt lat="47.559413" lon="8.025913">
        <ele>330.955036</ele>
        <time>2021-11-14T16:16:12.500Z</time>
      </trkpt>
      <trkpt lat="47.559833" lon="8.027284">
        <ele>336.569590</ele>
        <time>2021-11-14T16:16:58.173Z</time>
      </trkpt>
      <trkpt lat="47.559956" lon="8.027552">
        <ele>337.778008</ele>
        <time>2021-11-14T16:17:06.614Z</time>
      </trkpt>
      <trkpt lat="47.560018" lon="8.027691">
        <ele>338.399239</ele>
        <time>2021-11-14T16:17:11.585Z</time>
      </trkpt>
      <trkpt lat="47.560181" lon="8.027943">
        <ele>339.700712</ele>
        <time>2021-11-14T16:17:20.862Z</time>
      </trkpt>
      <trkpt lat="47.560294" lon="8.028059">
        <ele>340.460215</ele>
        <time>2021-11-14T16:17:26.935Z</time>
      </trkpt>
      <trkpt lat="47.560542" lon="8.028303">
        <ele>341.767408</ele>
        <time>2021-11-14T16:17:38.284Z</time>
      </trkpt>
      <trkpt lat="47.560627" lon="8.028359">
        <ele>342.111341</ele>
        <time>2021-11-14T16:17:42.534Z</time>
      </trkpt>
      <trkpt lat="47.560664" lon="8.028383">
        <ele>342.260674</ele>
        <time>2021-11-14T16:17:44.802Z</time>
      </trkpt>
      <trkpt lat="47.561248" lon="8.028606">
        <ele>344.490453</ele>
        <time>2021-11-14T16:18:07.233Z</time>
      </trkpt>
      <trkpt lat="47.561630" lon="8.028850">
        <ele>346.028450</ele>
        <time>2021-11-14T16:18:22.317Z</time>
      </trkpt>
      <trkpt lat="47.561870" lon="8.029058">
        <ele>347.056419</ele>
        <time>2021-11-14T16:18:30.279Z</time>
      </trkpt>
      <trkpt lat="47.562490" lon="8.029832">
        <ele>348.482192</ele>
        <time>2021-11-14T16:18:51.061Z</time>
      </trkpt>
      <trkpt lat="47.562698" lon="8.029971">
        <ele>348.754085</ele>
        <time>2021-11-14T16:18:56.434Z</time>
      </trkpt>
      <trkpt lat="47.562995" lon="8.029987">
        <ele>349.108232</ele>
        <time>2021-11-14T16:19:03.212Z</time>
      </trkpt>
      <trkpt lat="47.563183" lon="8.030459">
        <ele>349.548946</ele>
        <time>2021-11-14T16:19:09.846Z</time>
      </trkpt>
      <trkpt lat="47.563345" lon="8.030793">
        <ele>349.881034</ele>
        <time>2021-11-14T16:19:15.123Z</time>
      </trkpt>
      <trkpt lat="47.563394" lon="8.030849">
        <ele>350.018352</ele>
        <time>2021-11-14T16:19:16.353Z</time>
      </trkpt>
      <trkpt lat="47.563725" lon="8.031208">
        <ele>350.928602</ele>
        <time>2021-11-14T16:19:24.374Z</time>
      </trkpt>
      <trkpt lat="47.564393" lon="8.032053">
        <ele>352.877601</ele>
        <time>2021-11-14T16:19:45.196Z</time>
      </trkpt>
      <trkpt lat="47.564511" lon="8.032311">
        <ele>353.344319</ele>
        <time>2021-11-14T16:19:50.522Z</time>
      </trkpt>
      <trkpt lat="47.564569" lon="8.032525">
        <ele>353.689648</ele>
        <time>2021-11-14T16:19:54.859Z</time>
      </trkpt>
      <trkpt lat="47.564678" lon="8.032921">
        <ele>354.829016</ele>
        <time>2021-11-14T16:20:02.206Z</time>
      </trkpt>
      <trkpt lat="47.564702" lon="8.033000">
        <ele>355.099339</ele>
        <time>2021-11-14T16:20:05.008Z</time>
      </trkpt>
      <trkpt lat="47.564933" lon="8.033469">
        <ele>356.911073</ele>
        <time>2021-11-14T16:20:17.960Z</time>
      </trkpt>
      <trkpt lat="47.565189" lon="8.033686">
        <ele>358.274796</ele>
        <time>2021-11-14T16:20:27.376Z</time>
      </trkpt>
      <trkpt lat="47.565871" lon="8.033704">
        <ele>361.428942</ele>
        <time>2021-11-14T16:20:51.491Z</time>
      </trkpt>
      <trkpt lat="47.566001" lon="8.033711">
        <ele>362.030473</ele>
        <time>2021-11-14T16:20:57.720Z</time>
      </trkpt>
      <trkpt lat="47.566321" lon="8.033776">
        <ele>363.652617</ele>
        <time>2021-11-14T16:21:09.003Z</time>
      </trkpt>
      <trkpt lat="47.566670" lon="8.033967">
        <ele>365.538380</ele>
        <time>2021-11-14T16:21:22.386Z</time>
      </trkpt>
      <trkpt lat="47.566763" lon="8.034017">
        <ele>366.039836</ele>
        <time>2021-11-14T16:21:26.120Z</time>
      </trkpt>
      <trkpt lat="47.567079" lon="8.034308">
        <ele>367.925586</ele>
        <time>2021-11-14T16:21:39.164Z</time>
      </trkpt>
      <trkpt lat="47.567313" lon="8.034591">
        <ele>369.456467</ele>
        <time>2021-11-14T16:21:50.236Z</time>
      </trkpt>
      <trkpt lat="47.567673" lon="8.035162">
        <ele>371.916025</ele>
        <time>2021-11-14T16:22:07.318Z</time>
      </trkpt>
      <trkpt lat="47.568018" lon="8.035824">
        <ele>374.038104</ele>
        <time>2021-11-14T16:22:23.977Z</time>
      </trkpt>
      <trkpt lat="47.568240" lon="8.036333">
        <ele>375.575687</ele>
        <time>2021-11-14T16:22:36.226Z</time>
      </trkpt>
      <trkpt lat="47.568395" lon="8.036764">
        <ele>376.814710</ele>
        <time>2021-11-14T16:22:45.541Z</time>
      </trkpt>
      <trkpt lat="47.568512" lon="8.037290">
        <ele>378.215019</ele>
        <time>2021-11-14T16:22:55.708Z</time>
      </trkpt>
      <trkpt lat="47.568537" lon="8.037570">
        <ele>378.909374</ele>
        <time>2021-11-14T16:23:01.525Z</time>
      </trkpt>
      <trkpt lat="47.568540" lon="8.037665">
        <ele>379.143179</ele>
        <time>2021-11-14T16:23:03.386Z</time>
      </trkpt>
      <trkpt lat="47.568562" lon="8.038275">
        <ele>380.644949</ele>
        <time>2021-11-14T16:23:15.612Z</time>
      </trkpt>
      <trkpt lat="47.568633" lon="8.038920">
        <ele>382.251585</ele>
        <time>2021-11-14T16:23:28.661Z</time>
      </trkpt>
      <trkpt lat="47.568715" lon="8.039132">
        <ele>382.852335</ele>
        <time>2021-11-14T16:23:33.986Z</time>
      </trkpt>
      <trkpt lat="47.568916" lon="8.039421">
        <ele>383.872703</ele>
        <time>2021-11-14T16:23:41.939Z</time>
      </trkpt>
      <trkpt lat="47.568992" lon="8.039490">
        <ele>384.197446</ele>
        <time>2021-11-14T16:23:44.961Z</time>
      </trkpt>
      <trkpt lat="47.569043" lon="8.039527">
        <ele>384.404341</ele>
        <time>2021-11-14T16:23:46.510Z</time>
      </trkpt>
      <trkpt lat="47.569103" lon="8.039554">
        <ele>384.635615</ele>
        <time>2021-11-14T16:23:48.037Z</time>
      </trkpt>
      <trkpt lat="47.569159" lon="8.039571">
        <ele>384.890204</ele>
        <time>2021-11-14T16:23:49.730Z</time>
      </trkpt>
      <trkpt lat="47.569259" lon="8.039574">
        <ele>385.335673</ele>
        <time>2021-11-14T16:23:52.781Z</time>
      </trkpt>
      <trkpt lat="47.569469" lon="8.039531">
        <ele>386.279848</ele>
        <time>2021-11-14T16:23:58.639Z</time>
      </trkpt>
      <trkpt lat="47.569586" lon="8.039479">
        <ele>386.823863</ele>
        <time>2021-11-14T16:24:02.165Z</time>
      </trkpt>
      <trkpt lat="47.569647" lon="8.039770">
        <ele>387.739530</ele>
        <time>2021-11-14T16:24:08.800Z</time>
      </trkpt>
      <trkpt lat="47.569695" lon="8.040052">
        <ele>388.613471</ele>
        <time>2021-11-14T16:24:15.149Z</time>
      </trkpt>
      <trkpt lat="47.569707" lon="8.040137">
        <ele>388.874421</ele>
        <time>2021-11-14T16:24:17.377Z</time>
      </trkpt>
      <trkpt lat="47.569814" lon="8.040942">
        <ele>391.339881</ele>
        <time>2021-11-14T16:24:36.309Z</time>
      </trkpt>
      <trkpt lat="47.569913" lon="8.041464">
        <ele>393.006928</ele>
        <time>2021-11-14T16:24:48.574Z</time>
      </trkpt>
      <trkpt lat="47.569947" lon="8.041607">
        <ele>393.513289</ele>
        <time>2021-11-14T16:24:51.964Z</time>
      </trkpt>
      <trkpt lat="47.570037" lon="8.042001">
        <ele>394.902492</ele>
        <time>2021-11-14T16:25:03.469Z</time>
      </trkpt>
      <trkpt lat="47.570472" lon="8.043006">
        <ele>398.890166</ele>
        <time>2021-11-14T16:25:32.386Z</time>
      </trkpt>
      <trkpt lat="47.570550" lon="8.043505">
        <ele>400.600791</ele>
        <time>2021-11-14T16:25:43.637Z</time>
      </trkpt>
      <trkpt lat="47.570553" lon="8.043603">
        <ele>400.928413</ele>
        <time>2021-11-14T16:25:47.490Z</time>
      </trkpt>
      <trkpt lat="47.570556" lon="8.043717">
        <ele>401.309421</ele>
        <time>2021-11-14T16:25:49.755Z</time>
      </trkpt>
      <trkpt lat="47.570458" lon="8.044327">
        <ele>402.001814</ele>
        <time>2021-11-14T16:26:01.296Z</time>
      </trkpt>
      <trkpt lat="47.570449" lon="8.044391">
        <ele>402.056432</ele>
        <time>2021-11-14T16:26:02.352Z</time>
      </trkpt>
      <trkpt lat="47.570407" lon="8.044709">
        <ele>402.327147</ele>
        <time>2021-11-14T16:26:08.292Z</time>
      </trkpt>
      <trkpt lat="47.570401" lon="8.044853">
        <ele>402.447681</ele>
        <time>2021-11-14T16:26:09.907Z</time>
      </trkpt>
      <trkpt lat="47.570393" lon="8.045065">
        <ele>402.625073</ele>
        <time>2021-11-14T16:26:12.170Z</time>
      </trkpt>
      <trkpt lat="47.570405" lon="8.045482">
        <ele>402.973772</ele>
        <time>2021-11-14T16:26:18.402Z</time>
      </trkpt>
      <trkpt lat="47.570410" lon="8.045595">
        <ele>403.068380</ele>
        <time>2021-11-14T16:26:19.289Z</time>
      </trkpt>
      <trkpt lat="47.570454" lon="8.045878">
        <ele>403.311009</ele>
        <time>2021-11-14T16:26:23.579Z</time>
      </trkpt>
      <trkpt lat="47.570703" lon="8.046690">
        <ele>403.333018</ele>
        <time>2021-11-14T16:26:30.098Z</time>
      </trkpt>
      <trkpt lat="47.570990" lon="8.047289">
        <ele>402.441077</ele>
        <time>2021-11-14T16:26:35.479Z</time>
      </trkpt>
      <trkpt lat="47.571053" lon="8.047570">
        <ele>402.081586</ele>
        <time>2021-11-14T16:26:37.572Z</time>
      </trkpt>
      <trkpt lat="47.571035" lon="8.047613">
        <ele>402.020150</ele>
        <time>2021-11-14T16:26:37.924Z</time>
      </trkpt>
      <trkpt lat="47.571041" lon="8.047802">
        <ele>401.790441</ele>
        <time>2021-11-14T16:26:39.410Z</time>
      </trkpt>
      <trkpt lat="47.571051" lon="8.047825">
        <ele>401.757222</ele>
        <time>2021-11-14T16:26:39.594Z</time>
      </trkpt>
      <trkpt lat="47.571060" lon="8.047840">
        <ele>401.732851</ele>
        <time>2021-11-14T16:26:39.726Z</time>
      </trkpt>
      <trkpt lat="47.571146" lon="8.047904">
        <ele>401.559688</ele>
        <time>2021-11-14T16:26:40.783Z</time>
      </trkpt>
      <trkpt lat="47.571173" lon="8.047904">
        <ele>401.511102</ele>
        <time>2021-11-14T16:26:41.056Z</time>
      </trkpt>
      <trkpt lat="47.571192" lon="8.047900">
        <ele>401.476570</ele>
        <time>2021-11-14T16:26:41.270Z</time>
      </trkpt>
      <trkpt lat="47.571216" lon="8.047888">
        <ele>401.430992</ele>
        <time>2021-11-14T16:26:41.570Z</time>
      </trkpt>
      <trkpt lat="47.571230" lon="8.047878">
        <ele>401.403027</ele>
        <time>2021-11-14T16:26:41.733Z</time>
      </trkpt>
      <trkpt lat="47.571328" lon="8.047952">
        <ele>401.205114</ele>
        <time>2021-11-14T16:26:43.051Z</time>
      </trkpt>
      <trkpt lat="47.571393" lon="8.048046">
        <ele>401.041701</ele>
        <time>2021-11-14T16:26:44.026Z</time>
      </trkpt>
      <trkpt lat="47.571420" lon="8.048138">
        <ele>400.919899</ele>
        <time>2021-11-14T16:26:44.756Z</time>
      </trkpt>
      <trkpt lat="47.571850" lon="8.050064">
        <ele>400.070483</ele>
        <time>2021-11-14T16:27:01.265Z</time>
      </trkpt>
      <trkpt lat="47.572078" lon="8.050690">
        <ele>399.880728</ele>
        <time>2021-11-14T16:27:09.378Z</time>
      </trkpt>
      <trkpt lat="47.572428" lon="8.051523">
        <ele>400.096042</ele>
        <time>2021-11-14T16:27:23.181Z</time>
      </trkpt>
      <trkpt lat="47.572498" lon="8.051744">
        <ele>400.190465</ele>
        <time>2021-11-14T16:27:26.895Z</time>
      </trkpt>
      <trkpt lat="47.572645" lon="8.052612">
        <ele>400.536577</ele>
        <time>2021-11-14T16:27:37.557Z</time>
      </trkpt>
      <trkpt lat="47.572728" lon="8.053331">
        <ele>400.818689</ele>
        <time>2021-11-14T16:27:45.440Z</time>
      </trkpt>
      <trkpt lat="47.572769" lon="8.053639">
        <ele>400.376861</ele>
        <time>2021-11-14T16:27:48.014Z</time>
      </trkpt>
      <trkpt lat="47.572855" lon="8.053943">
        <ele>399.751097</ele>
        <time>2021-11-14T16:27:50.748Z</time>
      </trkpt>
      <trkpt lat="47.573098" lon="8.054422">
        <ele>398.613426</ele>
        <time>2021-11-14T16:27:55.062Z</time>
      </trkpt>
      <trkpt lat="47.573806" lon="8.055119">
        <ele>396.221946</ele>
        <time>2021-11-14T16:28:03.401Z</time>
      </trkpt>
      <trkpt lat="47.573993" lon="8.055472">
        <ele>395.425591</ele>
        <time>2021-11-14T16:28:06.220Z</time>
      </trkpt>
      <trkpt lat="47.574121" lon="8.056069">
        <ele>394.396294</ele>
        <time>2021-11-14T16:28:10.333Z</time>
      </trkpt>
      <trkpt lat="47.574181" lon="8.057386">
        <ele>392.227366</ele>
        <time>2021-11-14T16:28:19.899Z</time>
      </trkpt>
      <trkpt lat="47.574225" lon="8.057606">
        <ele>391.850327</ele>
        <time>2021-11-14T16:28:21.603Z</time>
      </trkpt>
      <trkpt lat="47.574360" lon="8.057968">
        <ele>391.515566</ele>
        <time>2021-11-14T16:28:25.823Z</time>
      </trkpt>
      <trkpt lat="47.574691" lon="8.058686">
        <ele>392.206899</ele>
        <time>2021-11-14T16:28:37.045Z</time>
      </trkpt>
      <trkpt lat="47.575062" lon="8.059032">
        <ele>392.723413</ele>
        <time>2021-11-14T16:28:47.511Z</time>
      </trkpt>
      <trkpt lat="47.575229" lon="8.059329">
        <ele>393.030776</ele>
        <time>2021-11-14T16:28:53.421Z</time>
      </trkpt>
      <trkpt lat="47.575626" lon="8.060407">
        <ele>393.536785</ele>
        <time>2021-11-14T16:29:10.384Z</time>
      </trkpt>
      <trkpt lat="47.575642" lon="8.060451">
        <ele>393.537947</ele>
        <time>2021-11-14T16:29:11.731Z</time>
      </trkpt>
      <trkpt lat="47.575791" lon="8.060748">
        <ele>393.546554</ele>
        <time>2021-11-14T16:29:15.225Z</time>
      </trkpt>
      <trkpt lat="47.576045" lon="8.061150">
        <ele>393.559361</ele>
        <time>2021-11-14T16:29:20.520Z</time>
      </trkpt>
      <trkpt lat="47.576551" lon="8.062025">
        <ele>393.573687</ele>
        <time>2021-11-14T16:29:30.271Z</time>
      </trkpt>
      <trkpt lat="47.576712" lon="8.062700">
        <ele>393.456395</ele>
        <time>2021-11-14T16:29:35.803Z</time>
      </trkpt>
      <trkpt lat="47.576741" lon="8.063055">
        <ele>393.397811</ele>
        <time>2021-11-14T16:29:38.878Z</time>
      </trkpt>
      <trkpt lat="47.576746" lon="8.063355">
        <ele>393.348648</ele>
        <time>2021-11-14T16:29:41.471Z</time>
      </trkpt>
      <trkpt lat="47.576746" lon="8.063401">
        <ele>393.341112</ele>
        <time>2021-11-14T16:29:42.135Z</time>
      </trkpt>
      <trkpt lat="47.576737" lon="8.063729">
        <ele>393.287333</ele>
        <time>2021-11-14T16:29:45.423Z</time>
      </trkpt>
      <trkpt lat="47.576750" lon="8.064033">
        <ele>393.237429</ele>
        <time>2021-11-14T16:29:48.947Z</time>
      </trkpt>
      <trkpt lat="47.576848" lon="8.064544">
        <ele>393.150397</ele>
        <time>2021-11-14T16:29:55.084Z</time>
      </trkpt>
      <trkpt lat="47.576978" lon="8.064848">
        <ele>393.334724</ele>
        <time>2021-11-14T16:29:59.340Z</time>
      </trkpt>
      <trkpt lat="47.577043" lon="8.064953">
        <ele>393.412127</ele>
        <time>2021-11-14T16:30:01.952Z</time>
      </trkpt>
      <trkpt lat="47.577380" lon="8.065302">
        <ele>393.743110</ele>
        <time>2021-11-14T16:30:09.913Z</time>
      </trkpt>
      <trkpt lat="47.577609" lon="8.065406">
        <ele>393.935943</ele>
        <time>2021-11-14T16:30:14.300Z</time>
      </trkpt>
      <trkpt lat="47.577839" lon="8.065448">
        <ele>394.122522</ele>
        <time>2021-11-14T16:30:17.903Z</time>
      </trkpt>
      <trkpt lat="47.578177" lon="8.065370">
        <ele>394.397933</ele>
        <time>2021-11-14T16:30:23.526Z</time>
      </trkpt>
      <trkpt lat="47.578363" lon="8.065294">
        <ele>394.553271</ele>
        <time>2021-11-14T16:30:27.933Z</time>
      </trkpt>
      <trkpt lat="47.578623" lon="8.065188">
        <ele>394.923207</ele>
        <time>2021-11-14T16:30:32.026Z</time>
      </trkpt>
      <trkpt lat="47.579003" lon="8.065169">
        <ele>395.497544</ele>
        <time>2021-11-14T16:30:38.759Z</time>
      </trkpt>
      <trkpt lat="47.579104" lon="8.065203">
        <ele>395.653994</ele>
        <time>2021-11-14T16:30:40.916Z</time>
      </trkpt>
      <trkpt lat="47.579181" lon="8.065229">
        <ele>395.773286</ele>
        <time>2021-11-14T16:30:41.966Z</time>
      </trkpt>
      <trkpt lat="47.579504" lon="8.065414">
        <ele>396.296346</ele>
        <time>2021-11-14T16:30:48.992Z</time>
      </trkpt>
      <trkpt lat="47.579627" lon="8.065529">
        <ele>396.516010</ele>
        <time>2021-11-14T16:30:51.820Z</time>
      </trkpt>
      <trkpt lat="47.579737" lon="8.065632">
        <ele>396.712542</ele>
        <time>2021-11-14T16:30:55.413Z</time>
      </trkpt>
      <trkpt lat="47.579947" lon="8.065949">
        <ele>397.165270</ele>
        <time>2021-11-14T16:31:01.740Z</time>
      </trkpt>
      <trkpt lat="47.580169" lon="8.066489">
        <ele>398.980800</ele>
        <time>2021-11-14T16:31:12.950Z</time>
      </trkpt>
      <trkpt lat="47.580436" lon="8.068266">
        <ele>405.209437</ele>
        <time>2021-11-14T16:31:57.836Z</time>
      </trkpt>
      <trkpt lat="47.580540" lon="8.068640">
        <ele>406.609325</ele>
        <time>2021-11-14T16:32:10.450Z</time>
      </trkpt>
      <trkpt lat="47.581072" lon="8.070001">
        <ele>412.531554</ele>
        <time>2021-11-14T16:32:54.167Z</time>
      </trkpt>
      <trkpt lat="47.581200" lon="8.070445">
        <ele>414.349437</ele>
        <time>2021-11-14T16:33:05.852Z</time>
      </trkpt>
      <trkpt lat="47.581302" lon="8.070775">
        <ele>415.716075</ele>
        <time>2021-11-14T16:33:13.389Z</time>
      </trkpt>
      <trkpt lat="47.581397" lon="8.071044">
        <ele>416.596171</ele>
        <time>2021-11-14T16:33:19.284Z</time>
      </trkpt>
      <trkpt lat="47.581509" lon="8.071314">
        <ele>416.973762</ele>
        <time>2021-11-14T16:33:25.282Z</time>
      </trkpt>
      <trkpt lat="47.581639" lon="8.071564">
        <ele>417.349795</ele>
        <time>2021-11-14T16:33:30.468Z</time>
      </trkpt>
      <trkpt lat="47.582001" lon="8.072163">
        <ele>418.307851</ele>
        <time>2021-11-14T16:33:43.025Z</time>
      </trkpt>
      <trkpt lat="47.582255" lon="8.072455">
        <ele>418.875486</ele>
        <time>2021-11-14T16:33:47.612Z</time>
      </trkpt>
      <trkpt lat="47.582481" lon="8.072674">
        <ele>419.352305</ele>
        <time>2021-11-14T16:33:51.403Z</time>
      </trkpt>
      <trkpt lat="47.583806" lon="8.073622">
        <ele>421.857164</ele>
        <time>2021-11-14T16:34:19.764Z</time>
      </trkpt>
      <trkpt lat="47.584025" lon="8.073868">
        <ele>422.322698</ele>
        <time>2021-11-14T16:34:27.387Z</time>
      </trkpt>
      <trkpt lat="47.584571" lon="8.074688">
        <ele>424.516475</ele>
        <time>2021-11-14T16:34:49.597Z</time>
      </trkpt>
      <trkpt lat="47.584889" lon="8.075206">
        <ele>426.062786</ele>
        <time>2021-11-14T16:35:03.472Z</time>
      </trkpt>
      <trkpt lat="47.585216" lon="8.075691">
        <ele>427.576700</ele>
        <time>2021-11-14T16:35:16.670Z</time>
      </trkpt>
      <trkpt lat="47.586044" lon="8.076710">
        <ele>429.982411</ele>
        <time>2021-11-14T16:35:44.895Z</time>
      </trkpt>
      <trkpt lat="47.586782" lon="8.077419">
        <ele>431.582248</ele>
        <time>2021-11-14T16:36:01.622Z</time>
      </trkpt>
      <trkpt lat="47.587261" lon="8.077843">
        <ele>432.338349</ele>
        <time>2021-11-14T16:36:11.592Z</time>
      </trkpt>
      <trkpt lat="47.588175" lon="8.078681">
        <ele>433.609232</ele>
        <time>2021-11-14T16:36:31.558Z</time>
      </trkpt>
      <trkpt lat="47.588322" lon="8.078847">
        <ele>433.827757</ele>
        <time>2021-11-14T16:36:35.334Z</time>
      </trkpt>
      <trkpt lat="47.588405" lon="8.078961">
        <ele>433.961558</ele>
        <time>2021-11-14T16:36:38.030Z</time>
      </trkpt>
      <trkpt lat="47.588607" lon="8.079377">
        <ele>435.163207</ele>
        <time>2021-11-14T16:36:46.131Z</time>
      </trkpt>
      <trkpt lat="47.588698" lon="8.079659">
        <ele>435.925033</ele>
        <time>2021-11-14T16:36:51.316Z</time>
      </trkpt>
      <trkpt lat="47.588723" lon="8.079889">
        <ele>436.492760</ele>
        <time>2021-11-14T16:36:55.655Z</time>
      </trkpt>
      <trkpt lat="47.588725" lon="8.080182">
        <ele>437.206819</ele>
        <time>2021-11-14T16:37:01.066Z</time>
      </trkpt>
      <trkpt lat="47.588682" lon="8.080451">
        <ele>437.880515</ele>
        <time>2021-11-14T16:37:06.748Z</time>
      </trkpt>
      <trkpt lat="47.588590" lon="8.080813">
        <ele>438.823239</ele>
        <time>2021-11-14T16:37:14.852Z</time>
      </trkpt>
      <trkpt lat="47.588550" lon="8.080930">
        <ele>439.142900</ele>
        <time>2021-11-14T16:37:18.429Z</time>
      </trkpt>
      <trkpt lat="47.588407" lon="8.081450">
        <ele>440.518692</ele>
        <time>2021-11-14T16:37:31.887Z</time>
      </trkpt>
      <trkpt lat="47.588361" lon="8.081689">
        <ele>441.283178</ele>
        <time>2021-11-14T16:37:37.854Z</time>
      </trkpt>
      <trkpt lat="47.588330" lon="8.081966">
        <ele>442.146851</ele>
        <time>2021-11-14T16:37:45.384Z</time>
      </trkpt>
      <trkpt lat="47.588296" lon="8.082646">
        <ele>444.244199</ele>
        <time>2021-11-14T16:38:02.139Z</time>
      </trkpt>
      <trkpt lat="47.588280" lon="8.082843">
        <ele>444.854529</ele>
        <time>2021-11-14T16:38:06.840Z</time>
      </trkpt>
      <trkpt lat="47.588252" lon="8.083013">
        <ele>445.392798</ele>
        <time>2021-11-14T16:38:11.247Z</time>
      </trkpt>
      <trkpt lat="47.588165" lon="8.083275">
        <ele>446.291062</ele>
        <time>2021-11-14T16:38:17.428Z</time>
      </trkpt>
      <trkpt lat="47.588010" lon="8.083700">
        <ele>447.777207</ele>
        <time>2021-11-14T16:38:27.194Z</time>
      </trkpt>
      <trkpt lat="47.587959" lon="8.083838">
        <ele>448.261229</ele>
        <time>2021-11-14T16:38:30.550Z</time>
      </trkpt>
      <trkpt lat="47.587882" lon="8.084051">
        <ele>448.712302</ele>
        <time>2021-11-14T16:38:34.867Z</time>
      </trkpt>
      <trkpt lat="47.588020" lon="8.084597">
        <ele>448.858055</ele>
        <time>2021-11-14T16:38:46.601Z</time>
      </trkpt>
      <trkpt lat="47.588158" lon="8.084984">
        <ele>448.967482</ele>
        <time>2021-11-14T16:38:54.488Z</time>
      </trkpt>
      <trkpt lat="47.589034" lon="8.086621">
        <ele>448.911419</ele>
        <time>2021-11-14T16:39:18.311Z</time>
      </trkpt>
      <trkpt lat="47.589219" lon="8.087142">
        <ele>448.436129</ele>
        <time>2021-11-14T16:39:24.742Z</time>
      </trkpt>
      <trkpt lat="47.589430" lon="8.087648">
        <ele>447.955909</ele>
        <time>2021-11-14T16:39:31.367Z</time>
      </trkpt>
      <trkpt lat="47.589617" lon="8.088001">
        <ele>447.593571</ele>
        <time>2021-11-14T16:39:36.559Z</time>
      </trkpt>
      <trkpt lat="47.589783" lon="8.088286">
        <ele>447.289597</ele>
        <time>2021-11-14T16:39:40.947Z</time>
      </trkpt>
      <trkpt lat="47.589945" lon="8.088411">
        <ele>447.209325</ele>
        <time>2021-11-14T16:39:44.362Z</time>
      </trkpt>
      <trkpt lat="47.590377" lon="8.088555">
        <ele>447.246223</ele>
        <time>2021-11-14T16:39:52.673Z</time>
      </trkpt>
      <trkpt lat="47.590905" lon="8.088833">
        <ele>447.292916</ele>
        <time>2021-11-14T16:40:04.865Z</time>
      </trkpt>
      <trkpt lat="47.591177" lon="8.088996">
        <ele>447.317364</ele>
        <time>2021-11-14T16:40:11.886Z</time>
      </trkpt>
      <trkpt lat="47.591424" lon="8.089141">
        <ele>447.339502</ele>
        <time>2021-11-14T16:40:18.303Z</time>
      </trkpt>
      <trkpt lat="47.592461" lon="8.089742">
        <ele>446.446606</ele>
        <time>2021-11-14T16:40:39.893Z</time>
      </trkpt>
      <trkpt lat="47.592605" lon="8.089818">
        <ele>446.306372</ele>
        <time>2021-11-14T16:40:42.604Z</time>
      </trkpt>
      <trkpt lat="47.592791" lon="8.089929">
        <ele>446.122422</ele>
        <time>2021-11-14T16:40:45.846Z</time>
      </trkpt>
      <trkpt lat="47.593024" lon="8.090029">
        <ele>445.899879</ele>
        <time>2021-11-14T16:40:49.765Z</time>
      </trkpt>
      <trkpt lat="47.593640" lon="8.090048">
        <ele>444.874470</ele>
        <time>2021-11-14T16:40:59.113Z</time>
      </trkpt>
      <trkpt lat="47.593855" lon="8.090121">
        <ele>444.417306</ele>
        <time>2021-11-14T16:41:02.287Z</time>
      </trkpt>
      <trkpt lat="47.594384" lon="8.090672">
        <ele>443.077380</ele>
        <time>2021-11-14T16:41:11.950Z</time>
      </trkpt>
      <trkpt lat="47.594891" lon="8.090865">
        <ele>441.992446</ele>
        <time>2021-11-14T16:41:20.787Z</time>
      </trkpt>
      <trkpt lat="47.595114" lon="8.090962">
        <ele>442.027596</ele>
        <time>2021-11-14T16:41:24.645Z</time>
      </trkpt>
      <trkpt lat="47.595175" lon="8.090989">
        <ele>442.043510</ele>
        <time>2021-11-14T16:41:26.805Z</time>
      </trkpt>
      <trkpt lat="47.595423" lon="8.091040">
        <ele>442.106098</ele>
        <time>2021-11-14T16:41:32.024Z</time>
      </trkpt>
      <trkpt lat="47.595794" lon="8.090946">
        <ele>442.200184</ele>
        <time>2021-11-14T16:41:40.284Z</time>
      </trkpt>
      <trkpt lat="47.596308" lon="8.090667">
        <ele>442.337011</ele>
        <time>2021-11-14T16:41:53.501Z</time>
      </trkpt>
      <trkpt lat="47.596452" lon="8.090663">
        <ele>442.373014</ele>
        <time>2021-11-14T16:41:57.062Z</time>
      </trkpt>
      <trkpt lat="47.596598" lon="8.090642">
        <ele>442.409682</ele>
        <time>2021-11-14T16:42:00.821Z</time>
      </trkpt>
      <trkpt lat="47.596791" lon="8.090594">
        <ele>441.874176</ele>
        <time>2021-11-14T16:42:06.433Z</time>
      </trkpt>
      <trkpt lat="47.596934" lon="8.090414">
        <ele>441.180595</ele>
        <time>2021-11-14T16:42:10.236Z</time>
      </trkpt>
      <trkpt lat="47.597023" lon="8.090189">
        <ele>440.530153</ele>
        <time>2021-11-14T16:42:13.136Z</time>
      </trkpt>
      <trkpt lat="47.597227" lon="8.089382">
        <ele>438.381141</ele>
        <time>2021-11-14T16:42:21.393Z</time>
      </trkpt>
      <trkpt lat="47.597355" lon="8.089249">
        <ele>437.803210</ele>
        <time>2021-11-14T16:42:23.518Z</time>
      </trkpt>
      <trkpt lat="47.597461" lon="8.089252">
        <ele>437.411181</ele>
        <time>2021-11-14T16:42:24.871Z</time>
      </trkpt>
      <trkpt lat="47.597850" lon="8.089671">
        <ele>435.518860</ele>
        <time>2021-11-14T16:42:31.185Z</time>
      </trkpt>
      <trkpt lat="47.597971" lon="8.089691">
        <ele>434.693274</ele>
        <time>2021-11-14T16:42:32.686Z</time>
      </trkpt>
      <trkpt lat="47.598033" lon="8.089701">
        <ele>434.270371</ele>
        <time>2021-11-14T16:42:33.425Z</time>
      </trkpt>
      <trkpt lat="47.598442" lon="8.088951">
        <ele>429.859793</ele>
        <time>2021-11-14T16:42:41.532Z</time>
      </trkpt>
      <trkpt lat="47.599017" lon="8.088656">
        <ele>425.733963</ele>
        <time>2021-11-14T16:42:49.210Z</time>
      </trkpt>
      <trkpt lat="47.599234" lon="8.088661">
        <ele>424.262302</ele>
        <time>2021-11-14T16:42:51.909Z</time>
      </trkpt>
      <trkpt lat="47.599376" lon="8.088891">
        <ele>424.055801</ele>
        <time>2021-11-14T16:42:55.403Z</time>
      </trkpt>
      <trkpt lat="47.599539" lon="8.089034">
        <ele>424.894475</ele>
        <time>2021-11-14T16:42:59.446Z</time>
      </trkpt>
      <trkpt lat="47.599680" lon="8.089035">
        <ele>425.518885</ele>
        <time>2021-11-14T16:43:03.072Z</time>
      </trkpt>
      <trkpt lat="47.599745" lon="8.088979">
        <ele>425.851778</ele>
        <time>2021-11-14T16:43:04.058Z</time>
      </trkpt>
      <trkpt lat="47.599922" lon="8.088733">
        <ele>426.926014</ele>
        <time>2021-11-14T16:43:13.387Z</time>
      </trkpt>
      <trkpt lat="47.600067" lon="8.088552">
        <ele>427.765317</ele>
        <time>2021-11-14T16:43:18.160Z</time>
      </trkpt>
      <trkpt lat="47.600299" lon="8.088347">
        <ele>428.961244</ele>
        <time>2021-11-14T16:43:29.070Z</time>
      </trkpt>
      <trkpt lat="47.600519" lon="8.088235">
        <ele>429.991294</ele>
        <time>2021-11-14T16:43:46.686Z</time>
      </trkpt>
      <trkpt lat="47.600735" lon="8.088155">
        <ele>430.977203</ele>
        <time>2021-11-14T16:43:59.182Z</time>
      </trkpt>
      <trkpt lat="47.600936" lon="8.088218">
        <ele>432.359570</ele>
        <time>2021-11-14T16:44:12.731Z</time>
      </trkpt>
      <trkpt lat="47.601306" lon="8.088733">
        <ele>437.659926</ele>
        <time>2021-11-14T16:44:49.389Z</time>
      </trkpt>
      <trkpt lat="47.601379" lon="8.089061">
        <ele>440.092683</ele>
        <time>2021-11-14T16:45:05.007Z</time>
      </trkpt>
      <trkpt lat="47.601417" lon="8.089289">
        <ele>441.746858</ele>
        <time>2021-11-14T16:45:18.793Z</time>
      </trkpt>
      <trkpt lat="47.601426" lon="8.089456">
        <ele>442.926821</ele>
        <time>2021-11-14T16:45:27.398Z</time>
      </trkpt>
      <trkpt lat="47.601467" lon="8.092126">
        <ele>455.461395</ele>
        <time>2021-11-14T16:46:54.461Z</time>
      </trkpt>
      <trkpt lat="47.601529" lon="8.092658">
        <ele>457.172543</ele>
        <time>2021-11-14T16:47:03.296Z</time>
      </trkpt>
      <trkpt lat="47.601536" lon="8.093056">
        <ele>458.434413</ele>
        <time>2021-11-14T16:47:09.546Z</time>
      </trkpt>
      <trkpt lat="47.601498" lon="8.093268">
        <ele>458.925448</ele>
        <time>2021-11-14T16:47:13.279Z</time>
      </trkpt>
      <trkpt lat="47.601242" lon="8.093957">
        <ele>459.957435</ele>
        <time>2021-11-14T16:47:26.894Z</time>
      </trkpt>
      <trkpt lat="47.601275" lon="8.094387">
        <ele>460.525164</ele>
        <time>2021-11-14T16:47:34.420Z</time>
      </trkpt>
      <trkpt lat="47.601436" lon="8.095066">
        <ele>461.469365</ele>
        <time>2021-11-14T16:47:47.636Z</time>
      </trkpt>
      <trkpt lat="47.601548" lon="8.095267">
        <ele>461.811424</ele>
        <time>2021-11-14T16:47:52.684Z</time>
      </trkpt>
      <trkpt lat="47.601619" lon="8.095393">
        <ele>462.026833</ele>
        <time>2021-11-14T16:47:56.342Z</time>
      </trkpt>
      <trkpt lat="47.602257" lon="8.096071">
        <ele>464.954403</ele>
        <time>2021-11-14T16:48:23.896Z</time>
      </trkpt>
      <trkpt lat="47.602668" lon="8.096756">
        <ele>467.480290</ele>
        <time>2021-11-14T16:48:46.860Z</time>
      </trkpt>
      <trkpt lat="47.602761" lon="8.096881">
        <ele>467.993054</ele>
        <time>2021-11-14T16:48:52.443Z</time>
      </trkpt>
      <trkpt lat="47.602863" lon="8.096910">
        <ele>468.417358</ele>
        <time>2021-11-14T16:48:56.127Z</time>
      </trkpt>
      <trkpt lat="47.602939" lon="8.096978">
        <ele>468.779980</ele>
        <time>2021-11-14T16:48:59.438Z</time>
      </trkpt>
      <trkpt lat="47.603033" lon="8.097110">
        <ele>469.308845</ele>
        <time>2021-11-14T16:49:04.895Z</time>
      </trkpt>
      <trkpt lat="47.603142" lon="8.097294">
        <ele>469.971724</ele>
        <time>2021-11-14T16:49:11.110Z</time>
      </trkpt>
      <trkpt lat="47.603261" lon="8.097475">
        <ele>470.644920</ele>
        <time>2021-11-14T16:49:18.065Z</time>
      </trkpt>
      <trkpt lat="47.603416" lon="8.097671">
        <ele>471.449375</ele>
        <time>2021-11-14T16:49:25.724Z</time>
      </trkpt>
      <trkpt lat="47.603501" lon="8.097769">
        <ele>471.874577</ele>
        <time>2021-11-14T16:49:29.802Z</time>
      </trkpt>
      <trkpt lat="47.603501" lon="8.097769">
        <ele>471.874577</ele>
        <time>2021-11-14T16:49:29.839Z</time>
      </trkpt>
      <trkpt lat="47.603539" lon="8.097366">
        <ele>472.958172</ele>
        <time>2021-11-14T16:49:38.552Z</time>
      </trkpt>
      <trkpt lat="47.603546" lon="8.097298">
        <ele>473.141348</ele>
        <time>2021-11-14T16:49:40.035Z</time>
      </trkpt>
      <trkpt lat="47.603567" lon="8.097110">
        <ele>473.648798</ele>
        <time>2021-11-14T16:49:44.482Z</time>
      </trkpt>
      <trkpt lat="47.603599" lon="8.096812">
        <ele>474.452344</ele>
        <time>2021-11-14T16:49:49.993Z</time>
      </trkpt>
      <trkpt lat="47.603623" lon="8.096582">
        <ele>475.072103</ele>
        <time>2021-11-14T16:49:54.052Z</time>
      </trkpt>
      <trkpt lat="47.603656" lon="8.096273">
        <ele>475.905197</ele>
        <time>2021-11-14T16:49:59.363Z</time>
      </trkpt>
      <trkpt lat="47.603675" lon="8.095972">
        <ele>476.710235</ele>
        <time>2021-11-14T16:50:05.101Z</time>
      </trkpt>
      <trkpt lat="47.603693" lon="8.095678">
        <ele>477.558986</ele>
        <time>2021-11-14T16:50:10.239Z</time>
      </trkpt>
      <trkpt lat="47.603700" lon="8.095486">
        <ele>478.112988</ele>
        <time>2021-11-14T16:50:13.900Z</time>
      </trkpt>
      <trkpt lat="47.603709" lon="8.095276">
        <ele>478.719265</ele>
        <time>2021-11-14T16:50:18.133Z</time>
      </trkpt>
      <trkpt lat="47.603698" lon="8.094864">
        <ele>479.907256</ele>
        <time>2021-11-14T16:50:27.946Z</time>
      </trkpt>
      <trkpt lat="47.603697" lon="8.094807">
        <ele>480.071541</ele>
        <time>2021-11-14T16:50:29.131Z</time>
      </trkpt>
      <trkpt lat="47.603689" lon="8.094526">
        <ele>480.881884</ele>
        <time>2021-11-14T16:50:35.710Z</time>
      </trkpt>
      <trkpt lat="47.603682" lon="8.094251">
        <ele>481.674784</ele>
        <time>2021-11-14T16:50:41.717Z</time>
      </trkpt>
      <trkpt lat="47.603673" lon="8.093932">
        <ele>482.594696</ele>
        <time>2021-11-14T16:50:48.992Z</time>
      </trkpt>
      <trkpt lat="47.603680" lon="8.093654">
        <ele>483.396233</ele>
        <time>2021-11-14T16:50:54.929Z</time>
      </trkpt>
      <trkpt lat="47.603811" lon="8.093348">
        <ele>484.440821</ele>
        <time>2021-11-14T16:51:02.943Z</time>
      </trkpt>
      <trkpt lat="47.603918" lon="8.093262">
        <ele>484.966365</ele>
        <time>2021-11-14T16:51:07.054Z</time>
      </trkpt>
      <trkpt lat="47.604164" lon="8.093177">
        <ele>486.057111</ele>
        <time>2021-11-14T16:51:15.699Z</time>
      </trkpt>
      <trkpt lat="47.604445" lon="8.093096">
        <ele>487.293256</ele>
        <time>2021-11-14T16:51:26.038Z</time>
      </trkpt>
      <trkpt lat="47.604920" lon="8.092792">
        <ele>489.527267</ele>
        <time>2021-11-14T16:51:44.331Z</time>
      </trkpt>
      <trkpt lat="47.605021" lon="8.092797">
        <ele>489.963657</ele>
        <time>2021-11-14T16:51:47.622Z</time>
      </trkpt>
      <trkpt lat="47.605028" lon="8.092803">
        <ele>489.998570</ele>
        <time>2021-11-14T16:51:48.010Z</time>
      </trkpt>
      <trkpt lat="47.605136" lon="8.092899">
        <ele>490.542289</ele>
        <time>2021-11-14T16:51:51.902Z</time>
      </trkpt>
      <trkpt lat="47.605336" lon="8.093620">
        <ele>492.352618</ele>
        <time>2021-11-14T16:52:06.896Z</time>
      </trkpt>
      <trkpt lat="47.605490" lon="8.093893">
        <ele>492.629167</ele>
        <time>2021-11-14T16:52:11.882Z</time>
      </trkpt>
      <trkpt lat="47.605804" lon="8.094194">
        <ele>493.059992</ele>
        <time>2021-11-14T16:52:18.819Z</time>
      </trkpt>
      <trkpt lat="47.606060" lon="8.094282">
        <ele>493.362806</ele>
        <time>2021-11-14T16:52:23.442Z</time>
      </trkpt>
      <trkpt lat="47.606168" lon="8.094297">
        <ele>493.487802</ele>
        <time>2021-11-14T16:52:25.315Z</time>
      </trkpt>
      <trkpt lat="47.606249" lon="8.094274">
        <ele>493.582835</ele>
        <time>2021-11-14T16:52:26.515Z</time>
      </trkpt>
      <trkpt lat="47.606421" lon="8.094112">
        <ele>493.817621</ele>
        <time>2021-11-14T16:52:29.948Z</time>
      </trkpt>
      <trkpt lat="47.606466" lon="8.094017">
        <ele>493.907823</ele>
        <time>2021-11-14T16:52:31.244Z</time>
      </trkpt>
      <trkpt lat="47.606562" lon="8.093812">
        <ele>494.101741</ele>
        <time>2021-11-14T16:52:33.649Z</time>
      </trkpt>
      <trkpt lat="47.606889" lon="8.092953">
        <ele>494.986331</ele>
        <time>2021-11-14T16:52:44.191Z</time>
      </trkpt>
      <trkpt lat="47.607198" lon="8.092415">
        <ele>495.641767</ele>
        <time>2021-11-14T16:52:52.165Z</time>
      </trkpt>
      <trkpt lat="47.608481" lon="8.091375">
        <ele>499.080233</ele>
        <time>2021-11-14T16:53:29.650Z</time>
      </trkpt>
      <trkpt lat="47.608575" lon="8.091247">
        <ele>499.527809</ele>
        <time>2021-11-14T16:53:32.933Z</time>
      </trkpt>
      <trkpt lat="47.608649" lon="8.091080">
        <ele>500.000380</ele>
        <time>2021-11-14T16:53:37.494Z</time>
      </trkpt>
      <trkpt lat="47.608681" lon="8.090901">
        <ele>500.438294</ele>
        <time>2021-11-14T16:53:40.783Z</time>
      </trkpt>
      <trkpt lat="47.608680" lon="8.090672">
        <ele>500.979828</ele>
        <time>2021-11-14T16:53:45.388Z</time>
      </trkpt>
      <trkpt lat="47.608634" lon="8.090469">
        <ele>501.486257</ele>
        <time>2021-11-14T16:53:49.849Z</time>
      </trkpt>
      <trkpt lat="47.608560" lon="8.090342">
        <ele>501.883198</ele>
        <time>2021-11-14T16:53:52.582Z</time>
      </trkpt>
      <trkpt lat="47.608478" lon="8.090224">
        <ele>502.283928</ele>
        <time>2021-11-14T16:53:56.435Z</time>
      </trkpt>
      <trkpt lat="47.608147" lon="8.089868">
        <ele>504.194890</ele>
        <time>2021-11-14T16:54:09.361Z</time>
      </trkpt>
      <trkpt lat="47.607558" lon="8.089317">
        <ele>508.357302</ele>
        <time>2021-11-14T16:54:36.025Z</time>
      </trkpt>
      <trkpt lat="47.607358" lon="8.088934">
        <ele>510.309603</ele>
        <time>2021-11-14T16:54:49.183Z</time>
      </trkpt>
      <trkpt lat="47.607272" lon="8.088660">
        <ele>511.527610</ele>
        <time>2021-11-14T16:54:57.634Z</time>
      </trkpt>
      <trkpt lat="47.607067" lon="8.087997">
        <ele>514.716515</ele>
        <time>2021-11-14T16:55:17.416Z</time>
      </trkpt>
      <trkpt lat="47.607036" lon="8.087664">
        <ele>516.571734</ele>
        <time>2021-11-14T16:55:28.113Z</time>
      </trkpt>
      <trkpt lat="47.607145" lon="8.085884">
        <ele>526.435748</ele>
        <time>2021-11-14T16:56:27.012Z</time>
      </trkpt>
      <trkpt lat="47.607202" lon="8.085535">
        <ele>528.417537</ele>
        <time>2021-11-14T16:56:40.013Z</time>
      </trkpt>
      <trkpt lat="47.607331" lon="8.085264">
        <ele>530.311143</ele>
        <time>2021-11-14T16:56:50.360Z</time>
      </trkpt>
      <trkpt lat="47.608141" lon="8.084076">
        <ele>539.973506</ele>
        <time>2021-11-14T16:57:45.071Z</time>
      </trkpt>
      <trkpt lat="47.609238" lon="8.082141">
        <ele>554.890935</ele>
        <time>2021-11-14T16:59:10.252Z</time>
      </trkpt>
      <trkpt lat="47.609640" lon="8.081583">
        <ele>559.765088</ele>
        <time>2021-11-14T16:59:38.005Z</time>
      </trkpt>
      <trkpt lat="47.611085" lon="8.080103">
        <ele>575.864202</ele>
        <time>2021-11-14T17:01:08.443Z</time>
      </trkpt>
      <trkpt lat="47.611512" lon="8.079849">
        <ele>579.872699</ele>
        <time>2021-11-14T17:01:32.673Z</time>
      </trkpt>
      <trkpt lat="47.611669" lon="8.079830">
        <ele>581.239483</ele>
        <time>2021-11-14T17:01:41.249Z</time>
      </trkpt>
      <trkpt lat="47.611897" lon="8.079884">
        <ele>583.242852</ele>
        <time>2021-11-14T17:01:53.183Z</time>
      </trkpt>
      <trkpt lat="47.612325" lon="8.079848">
        <ele>586.962489</ele>
        <time>2021-11-14T17:02:15.133Z</time>
      </trkpt>
      <trkpt lat="47.612429" lon="8.079778">
        <ele>587.953427</ele>
        <time>2021-11-14T17:02:20.412Z</time>
      </trkpt>
      <trkpt lat="47.612611" lon="8.079668">
        <ele>589.658657</ele>
        <time>2021-11-14T17:02:30.344Z</time>
      </trkpt>
      <trkpt lat="47.612741" lon="8.079511">
        <ele>591.113208</ele>
        <time>2021-11-14T17:02:37.884Z</time>
      </trkpt>
      <trkpt lat="47.612813" lon="8.079439">
        <ele>591.832241</ele>
        <time>2021-11-14T17:02:42.036Z</time>
      </trkpt>
      <trkpt lat="47.613592" lon="8.078654">
        <ele>596.676312</ele>
        <time>2021-11-14T17:03:19.444Z</time>
      </trkpt>
      <trkpt lat="47.614143" lon="8.078067">
        <ele>600.165658</ele>
        <time>2021-11-14T17:03:40.740Z</time>
      </trkpt>
      <trkpt lat="47.614340" lon="8.077748">
        <ele>601.276653</ele>
        <time>2021-11-14T17:03:48.169Z</time>
      </trkpt>
      <trkpt lat="47.614412" lon="8.077490">
        <ele>601.648673</ele>
        <time>2021-11-14T17:03:52.598Z</time>
      </trkpt>
      <trkpt lat="47.614400" lon="8.076777">
        <ele>602.598890</ele>
        <time>2021-11-14T17:04:02.301Z</time>
      </trkpt>
      <trkpt lat="47.614434" lon="8.076512">
        <ele>602.958284</ele>
        <time>2021-11-14T17:04:05.418Z</time>
      </trkpt>
      <trkpt lat="47.614582" lon="8.076217">
        <ele>603.448206</ele>
        <time>2021-11-14T17:04:09.529Z</time>
      </trkpt>
      <trkpt lat="47.614606" lon="8.076168">
        <ele>603.528900</ele>
        <time>2021-11-14T17:04:10.187Z</time>
      </trkpt>
      <trkpt lat="47.615026" lon="8.076094">
        <ele>604.364799</ele>
        <time>2021-11-14T17:04:20.226Z</time>
      </trkpt>
      <trkpt lat="47.615551" lon="8.076331">
        <ele>606.759708</ele>
        <time>2021-11-14T17:04:35.343Z</time>
      </trkpt>
      <trkpt lat="47.615753" lon="8.076423">
        <ele>607.813061</ele>
        <time>2021-11-14T17:04:41.169Z</time>
      </trkpt>
      <trkpt lat="47.615893" lon="8.076423">
        <ele>608.510958</ele>
        <time>2021-11-14T17:04:46.192Z</time>
      </trkpt>
      <trkpt lat="47.616037" lon="8.076370">
        <ele>609.250557</ele>
        <time>2021-11-14T17:04:50.234Z</time>
      </trkpt>
      <trkpt lat="47.616048" lon="8.076087">
        <ele>610.203115</ele>
        <time>2021-11-14T17:04:59.220Z</time>
      </trkpt>
      <trkpt lat="47.616138" lon="8.075398">
        <ele>612.561461</ele>
        <time>2021-11-14T17:05:19.506Z</time>
      </trkpt>
      <trkpt lat="47.616240" lon="8.075065">
        <ele>613.927127</ele>
        <time>2021-11-14T17:05:32.090Z</time>
      </trkpt>
      <trkpt lat="47.616602" lon="8.074103">
        <ele>619.773789</ele>
        <time>2021-11-14T17:06:13.310Z</time>
      </trkpt>
      <trkpt lat="47.616903" lon="8.072880">
        <ele>626.682953</ele>
        <time>2021-11-14T17:06:55.018Z</time>
      </trkpt>
      <trkpt lat="47.617031" lon="8.072501">
        <ele>628.410809</ele>
        <time>2021-11-14T17:07:07.895Z</time>
      </trkpt>
      <trkpt lat="47.617304" lon="8.071798">
        <ele>630.872086</ele>
        <time>2021-11-14T17:07:28.545Z</time>
      </trkpt>
      <trkpt lat="47.617487" lon="8.070818">
        <ele>633.957059</ele>
        <time>2021-11-14T17:07:49.857Z</time>
      </trkpt>
      <trkpt lat="47.617356" lon="8.070721">
        <ele>634.615981</ele>
        <time>2021-11-14T17:07:53.684Z</time>
      </trkpt>
      <trkpt lat="47.617222" lon="8.070610">
        <ele>635.306691</ele>
        <time>2021-11-14T17:07:57.596Z</time>
      </trkpt>
      <trkpt lat="47.617122" lon="8.070498">
        <ele>635.826534</ele>
        <time>2021-11-14T17:08:00.172Z</time>
      </trkpt>
      <trkpt lat="47.616982" lon="8.070184">
        <ele>636.147867</ele>
        <time>2021-11-14T17:08:05.570Z</time>
      </trkpt>
      <trkpt lat="47.616924" lon="8.069947">
        <ele>636.363076</ele>
        <time>2021-11-14T17:08:08.608Z</time>
      </trkpt>
      <trkpt lat="47.616682" lon="8.068707">
        <ele>637.464936</ele>
        <time>2021-11-14T17:08:23.481Z</time>
      </trkpt>
      <trkpt lat="47.616393" lon="8.067205">
        <ele>639.570534</ele>
        <time>2021-11-14T17:08:45.859Z</time>
      </trkpt>
      <trkpt lat="47.616340" lon="8.066594">
        <ele>640.667235</ele>
        <time>2021-11-14T17:08:56.563Z</time>
      </trkpt>
      <trkpt lat="47.616546" lon="8.065501">
        <ele>642.687668</ele>
        <time>2021-11-14T17:09:17.972Z</time>
      </trkpt>
      <trkpt lat="47.616911" lon="8.064532">
        <ele>644.923423</ele>
        <time>2021-11-14T17:09:39.661Z</time>
      </trkpt>
      <trkpt lat="47.616970" lon="8.064104">
        <ele>645.811665</ele>
        <time>2021-11-14T17:09:47.809Z</time>
      </trkpt>
      <trkpt lat="47.616877" lon="8.063786">
        <ele>646.516468</ele>
        <time>2021-11-14T17:09:53.850Z</time>
      </trkpt>
      <trkpt lat="47.616475" lon="8.063255">
        <ele>648.140035</ele>
        <time>2021-11-14T17:10:07.450Z</time>
      </trkpt>
      <trkpt lat="47.616304" lon="8.062945">
        <ele>648.699580</ele>
        <time>2021-11-14T17:10:14.191Z</time>
      </trkpt>
      <trkpt lat="47.616163" lon="8.062610">
        <ele>649.206922</ele>
        <time>2021-11-14T17:10:20.579Z</time>
      </trkpt>
      <trkpt lat="47.616151" lon="8.062583">
        <ele>649.248467</ele>
        <time>2021-11-14T17:10:21.137Z</time>
      </trkpt>
      <trkpt lat="47.616006" lon="8.062039">
        <ele>649.999945</ele>
        <time>2021-11-14T17:10:30.269Z</time>
      </trkpt>
      <trkpt lat="47.615893" lon="8.061708">
        <ele>650.476573</ele>
        <time>2021-11-14T17:10:35.818Z</time>
      </trkpt>
      <trkpt lat="47.615649" lon="8.061223">
        <ele>651.254000</ele>
        <time>2021-11-14T17:10:45.080Z</time>
      </trkpt>
      <trkpt lat="47.615560" lon="8.060605">
        <ele>651.515299</ele>
        <time>2021-11-14T17:10:52.610Z</time>
      </trkpt>
      <trkpt lat="47.615672" lon="8.059665">
        <ele>650.946022</ele>
        <time>2021-11-14T17:11:03.938Z</time>
      </trkpt>
      <trkpt lat="47.615627" lon="8.059482">
        <ele>650.829852</ele>
        <time>2021-11-14T17:11:05.409Z</time>
      </trkpt>
      <trkpt lat="47.615486" lon="8.059322">
        <ele>650.672800</ele>
        <time>2021-11-14T17:11:07.481Z</time>
      </trkpt>
      <trkpt lat="47.615451" lon="8.059291">
        <ele>650.636737</ele>
        <time>2021-11-14T17:11:08.315Z</time>
      </trkpt>
      <trkpt lat="47.615348" lon="8.059227">
        <ele>650.537943</ele>
        <time>2021-11-14T17:11:09.433Z</time>
      </trkpt>
      <trkpt lat="47.615048" lon="8.059219">
        <ele>650.272493</ele>
        <time>2021-11-14T17:11:12.670Z</time>
      </trkpt>
      <trkpt lat="47.614565" lon="8.059680">
        <ele>648.438900</ele>
        <time>2021-11-14T17:11:18.477Z</time>
      </trkpt>
      <trkpt lat="47.614399" lon="8.059755">
        <ele>647.676535</ele>
        <time>2021-11-14T17:11:20.200Z</time>
      </trkpt>
      <trkpt lat="47.614248" lon="8.059802">
        <ele>646.998698</ele>
        <time>2021-11-14T17:11:21.673Z</time>
      </trkpt>
      <trkpt lat="47.614239" lon="8.060060">
        <ele>646.233579</ele>
        <time>2021-11-14T17:11:23.355Z</time>
      </trkpt>
      <trkpt lat="47.614147" lon="8.060535">
        <ele>644.769898</ele>
        <time>2021-11-14T17:11:26.470Z</time>
      </trkpt>
      <trkpt lat="47.613978" lon="8.060933">
        <ele>643.376823</ele>
        <time>2021-11-14T17:11:29.428Z</time>
      </trkpt>
      <trkpt lat="47.613627" lon="8.061178">
        <ele>641.682712</ele>
        <time>2021-11-14T17:11:33.040Z</time>
      </trkpt>
      <trkpt lat="47.612751" lon="8.061412">
        <ele>637.847833</ele>
        <time>2021-11-14T17:11:41.554Z</time>
      </trkpt>
      <trkpt lat="47.612531" lon="8.061447">
        <ele>636.894545</ele>
        <time>2021-11-14T17:11:43.729Z</time>
      </trkpt>
      <trkpt lat="47.612171" lon="8.061421">
        <ele>635.341677</ele>
        <time>2021-11-14T17:11:47.227Z</time>
      </trkpt>
      <trkpt lat="47.612021" lon="8.061323">
        <ele>634.635507</ele>
        <time>2021-11-14T17:11:48.830Z</time>
      </trkpt>
      <trkpt lat="47.611788" lon="8.061004">
        <ele>633.772031</ele>
        <time>2021-11-14T17:11:52.017Z</time>
      </trkpt>
      <trkpt lat="47.611373" lon="8.060182">
        <ele>632.062028</ele>
        <time>2021-11-14T17:11:59.286Z</time>
      </trkpt>
      <trkpt lat="47.611314" lon="8.060105">
        <ele>631.867926</ele>
        <time>2021-11-14T17:12:00.075Z</time>
      </trkpt>
      <trkpt lat="47.611222" lon="8.060034">
        <ele>631.611776</ele>
        <time>2021-11-14T17:12:01.210Z</time>
      </trkpt>
      <trkpt lat="47.610950" lon="8.059922">
        <ele>630.914544</ele>
        <time>2021-11-14T17:12:04.381Z</time>
      </trkpt>
      <trkpt lat="47.610551" lon="8.059949">
        <ele>629.974165</ele>
        <time>2021-11-14T17:12:08.904Z</time>
      </trkpt>
      <trkpt lat="47.609993" lon="8.059799">
        <ele>629.416115</ele>
        <time>2021-11-14T17:12:15.602Z</time>
      </trkpt>
      <trkpt lat="47.609573" lon="8.059819">
        <ele>629.002597</ele>
        <time>2021-11-14T17:12:20.522Z</time>
      </trkpt>
      <trkpt lat="47.608928" lon="8.059951">
        <ele>628.361866</ele>
        <time>2021-11-14T17:12:29.514Z</time>
      </trkpt>
      <trkpt lat="47.608687" lon="8.059898">
        <ele>628.106471</ele>
        <time>2021-11-14T17:12:32.527Z</time>
      </trkpt>
      <trkpt lat="47.608022" lon="8.059501">
        <ele>627.303092</ele>
        <time>2021-11-14T17:12:41.739Z</time>
      </trkpt>
      <trkpt lat="47.607922" lon="8.059421">
        <ele>627.175758</ele>
        <time>2021-11-14T17:12:43.501Z</time>
      </trkpt>
      <trkpt lat="47.607659" lon="8.059344">
        <ele>626.875322</ele>
        <time>2021-11-14T17:12:46.693Z</time>
      </trkpt>
      <trkpt lat="47.607484" lon="8.059398">
        <ele>626.674997</ele>
        <time>2021-11-14T17:12:48.822Z</time>
      </trkpt>
      <trkpt lat="47.607298" lon="8.059551">
        <ele>626.436632</ele>
        <time>2021-11-14T17:12:51.208Z</time>
      </trkpt>
      <trkpt lat="47.606732" lon="8.060223">
        <ele>624.717864</ele>
        <time>2021-11-14T17:12:58.991Z</time>
      </trkpt>
      <trkpt lat="47.606493" lon="8.060596">
        <ele>623.736719</ele>
        <time>2021-11-14T17:13:02.625Z</time>
      </trkpt>
      <trkpt lat="47.606225" lon="8.061315">
        <ele>622.170234</ele>
        <time>2021-11-14T17:13:08.236Z</time>
      </trkpt>
      <trkpt lat="47.606046" lon="8.061983">
        <ele>620.639247</ele>
        <time>2021-11-14T17:13:13.147Z</time>
      </trkpt>
      <trkpt lat="47.605582" lon="8.063236">
        <ele>616.599589</ele>
        <time>2021-11-14T17:13:22.583Z</time>
      </trkpt>
      <trkpt lat="47.605208" lon="8.063962">
        <ele>614.017733</ele>
        <time>2021-11-14T17:13:28.499Z</time>
      </trkpt>
      <trkpt lat="47.605007" lon="8.064219">
        <ele>612.403309</ele>
        <time>2021-11-14T17:13:31.011Z</time>
      </trkpt>
      <trkpt lat="47.604826" lon="8.064383">
        <ele>610.865902</ele>
        <time>2021-11-14T17:13:32.992Z</time>
      </trkpt>
      <trkpt lat="47.604643" lon="8.064490">
        <ele>609.440092</ele>
        <time>2021-11-14T17:13:34.816Z</time>
      </trkpt>
      <trkpt lat="47.603157" lon="8.064743">
        <ele>598.265295</ele>
        <time>2021-11-14T17:13:47.957Z</time>
      </trkpt>
      <trkpt lat="47.602708" lon="8.064730">
        <ele>594.456725</ele>
        <time>2021-11-14T17:13:51.901Z</time>
      </trkpt>
      <trkpt lat="47.602464" lon="8.064709">
        <ele>592.383948</ele>
        <time>2021-11-14T17:13:54.015Z</time>
      </trkpt>
      <trkpt lat="47.602193" lon="8.064568">
        <ele>589.948345</ele>
        <time>2021-11-14T17:13:56.541Z</time>
      </trkpt>
      <trkpt lat="47.601951" lon="8.064377">
        <ele>587.623482</ele>
        <time>2021-11-14T17:13:58.962Z</time>
      </trkpt>
      <trkpt lat="47.601621" lon="8.064000">
        <ele>584.061413</ele>
        <time>2021-11-14T17:14:02.623Z</time>
      </trkpt>
      <trkpt lat="47.600544" lon="8.062457">
        <ele>571.054059</ele>
        <time>2021-11-14T17:14:15.800Z</time>
      </trkpt>
      <trkpt lat="47.600310" lon="8.062040">
        <ele>567.457331</ele>
        <time>2021-11-14T17:14:18.958Z</time>
      </trkpt>
      <trkpt lat="47.600274" lon="8.061963">
        <ele>566.780928</ele>
        <time>2021-11-14T17:14:19.471Z</time>
      </trkpt>
      <trkpt lat="47.600146" lon="8.061582">
        <ele>563.708035</ele>
        <time>2021-11-14T17:14:21.956Z</time>
      </trkpt>
      <trkpt lat="47.600119" lon="8.061435">
        <ele>562.608184</ele>
        <time>2021-11-14T17:14:22.803Z</time>
      </trkpt>
      <trkpt lat="47.600005" lon="8.060808">
        <ele>557.920231</ele>
        <time>2021-11-14T17:14:26.551Z</time>
      </trkpt>
      <trkpt lat="47.599932" lon="8.060524">
        <ele>555.726132</ele>
        <time>2021-11-14T17:14:28.344Z</time>
      </trkpt>
      <trkpt lat="47.599744" lon="8.060234">
        <ele>552.822040</ele>
        <time>2021-11-14T17:14:30.661Z</time>
      </trkpt>
      <trkpt lat="47.599584" lon="8.060139">
        <ele>550.976916</ele>
        <time>2021-11-14T17:14:32.097Z</time>
      </trkpt>
      <trkpt lat="47.599476" lon="8.060117">
        <ele>549.898134</ele>
        <time>2021-11-14T17:14:33.031Z</time>
      </trkpt>
      <trkpt lat="47.599152" lon="8.060267">
        <ele>546.787295</ele>
        <time>2021-11-14T17:14:35.925Z</time>
      </trkpt>
      <trkpt lat="47.598778" lon="8.060822">
        <ele>541.938120</ele>
        <time>2021-11-14T17:14:40.539Z</time>
      </trkpt>
      <trkpt lat="47.598681" lon="8.060936">
        <ele>540.803776</ele>
        <time>2021-11-14T17:14:41.601Z</time>
      </trkpt>
      <trkpt lat="47.598585" lon="8.061025">
        <ele>539.766141</ele>
        <time>2021-11-14T17:14:42.612Z</time>
      </trkpt>
      <trkpt lat="47.598574" lon="8.061034">
        <ele>539.650999</ele>
        <time>2021-11-14T17:14:42.723Z</time>
      </trkpt>
      <trkpt lat="47.598433" lon="8.061131">
        <ele>538.226436</ele>
        <time>2021-11-14T17:14:44.082Z</time>
      </trkpt>
      <trkpt lat="47.598305" lon="8.061203">
        <ele>536.971742</ele>
        <time>2021-11-14T17:14:45.264Z</time>
      </trkpt>
      <trkpt lat="47.598008" lon="8.061370">
        <ele>534.060596</ele>
        <time>2021-11-14T17:14:48.124Z</time>
      </trkpt>
      <trkpt lat="47.597167" lon="8.061926">
        <ele>526.994908</ele>
        <time>2021-11-14T17:14:56.312Z</time>
      </trkpt>
      <trkpt lat="47.596843" lon="8.062143">
        <ele>524.274656</ele>
        <time>2021-11-14T17:14:59.469Z</time>
      </trkpt>
      <trkpt lat="47.596613" lon="8.062312">
        <ele>522.310585</ele>
        <time>2021-11-14T17:15:01.764Z</time>
      </trkpt>
      <trkpt lat="47.596472" lon="8.062411">
        <ele>521.116882</ele>
        <time>2021-11-14T17:15:03.139Z</time>
      </trkpt>
      <trkpt lat="47.596147" lon="8.062473">
        <ele>518.636750</ele>
        <time>2021-11-14T17:15:06.044Z</time>
      </trkpt>
      <trkpt lat="47.595976" lon="8.062483">
        <ele>517.349994</ele>
        <time>2021-11-14T17:15:07.576Z</time>
      </trkpt>
      <trkpt lat="47.595791" lon="8.062463">
        <ele>515.955278</ele>
        <time>2021-11-14T17:15:09.201Z</time>
      </trkpt>
      <trkpt lat="47.595583" lon="8.062360">
        <ele>514.306419</ele>
        <time>2021-11-14T17:15:11.145Z</time>
      </trkpt>
      <trkpt lat="47.595363" lon="8.062099">
        <ele>512.187983</ele>
        <time>2021-11-14T17:15:13.658Z</time>
      </trkpt>
      <trkpt lat="47.595349" lon="8.062082">
        <ele>512.051927</ele>
        <time>2021-11-14T17:15:13.816Z</time>
      </trkpt>
      <trkpt lat="47.595208" lon="8.061913">
        <ele>510.688726</ele>
        <time>2021-11-14T17:15:15.390Z</time>
      </trkpt>
      <trkpt lat="47.595102" lon="8.061781">
        <ele>509.647945</ele>
        <time>2021-11-14T17:15:16.660Z</time>
      </trkpt>
      <trkpt lat="47.595027" lon="8.061716">
        <ele>508.994766</ele>
        <time>2021-11-14T17:15:17.422Z</time>
      </trkpt>
      <trkpt lat="47.594683" lon="8.061515">
        <ele>506.406281</ele>
        <time>2021-11-14T17:15:20.743Z</time>
      </trkpt>
      <trkpt lat="47.594606" lon="8.061501">
        <ele>506.078568</ele>
        <time>2021-11-14T17:15:21.425Z</time>
      </trkpt>
      <trkpt lat="47.594519" lon="8.061486">
        <ele>505.708571</ele>
        <time>2021-11-14T17:15:22.219Z</time>
      </trkpt>
      <trkpt lat="47.594403" lon="8.061507">
        <ele>505.214904</ele>
        <time>2021-11-14T17:15:23.337Z</time>
      </trkpt>
      <trkpt lat="47.594338" lon="8.061466">
        <ele>504.916510</ele>
        <time>2021-11-14T17:15:23.966Z</time>
      </trkpt>
      <trkpt lat="47.594006" lon="8.061362">
        <ele>503.483062</ele>
        <time>2021-11-14T17:15:27.129Z</time>
      </trkpt>
      <trkpt lat="47.593887" lon="8.061332">
        <ele>502.973148</ele>
        <time>2021-11-14T17:15:28.236Z</time>
      </trkpt>
      <trkpt lat="47.593936" lon="8.061196">
        <ele>502.533877</ele>
        <time>2021-11-14T17:15:29.715Z</time>
      </trkpt>
      <trkpt lat="47.594120" lon="8.060864">
        <ele>501.309649</ele>
        <time>2021-11-14T17:15:33.789Z</time>
      </trkpt>
      <trkpt lat="47.594253" lon="8.060578">
        <ele>500.319947</ele>
        <time>2021-11-14T17:15:37.411Z</time>
      </trkpt>
      <trkpt lat="47.594308" lon="8.060414">
        <ele>499.798158</ele>
        <time>2021-11-14T17:15:39.188Z</time>
      </trkpt>
      <trkpt lat="47.594320" lon="8.060215">
        <ele>499.228981</ele>
        <time>2021-11-14T17:15:41.523Z</time>
      </trkpt>
      <trkpt lat="47.594306" lon="8.059876">
        <ele>499.223511</ele>
        <time>2021-11-14T17:15:45.404Z</time>
      </trkpt>
      <trkpt lat="47.594073" lon="8.058877">
        <ele>499.868364</ele>
        <time>2021-11-14T17:16:01.799Z</time>
      </trkpt>
      <trkpt lat="47.593956" lon="8.058627">
        <ele>500.054003</ele>
        <time>2021-11-14T17:16:07.196Z</time>
      </trkpt>
      <trkpt lat="47.593826" lon="8.058485">
        <ele>500.200063</ele>
        <time>2021-11-14T17:16:11.458Z</time>
      </trkpt>
      <trkpt lat="47.593653" lon="8.058290">
        <ele>500.396640</ele>
        <time>2021-11-14T17:16:17.756Z</time>
      </trkpt>
      <trkpt lat="47.593357" lon="8.057851">
        <ele>500.823375</ele>
        <time>2021-11-14T17:16:31.024Z</time>
      </trkpt>
      <trkpt lat="47.593187" lon="8.057553">
        <ele>501.182550</ele>
        <time>2021-11-14T17:16:38.833Z</time>
      </trkpt>
      <trkpt lat="47.593094" lon="8.057193">
        <ele>501.537300</ele>
        <time>2021-11-14T17:16:46.184Z</time>
      </trkpt>
      <trkpt lat="47.593117" lon="8.056460">
        <ele>502.212546</ele>
        <time>2021-11-14T17:16:59.760Z</time>
      </trkpt>
      <trkpt lat="47.593221" lon="8.055917">
        <ele>502.731981</ele>
        <time>2021-11-14T17:17:08.734Z</time>
      </trkpt>
      <trkpt lat="47.593249" lon="8.055352">
        <ele>503.012987</ele>
        <time>2021-11-14T17:17:16.395Z</time>
      </trkpt>
      <trkpt lat="47.593216" lon="8.054503">
        <ele>502.203842</ele>
        <time>2021-11-14T17:17:26.647Z</time>
      </trkpt>
      <trkpt lat="47.593117" lon="8.053648">
        <ele>501.378423</ele>
        <time>2021-11-14T17:17:36.157Z</time>
      </trkpt>
      <trkpt lat="47.593128" lon="8.053189">
        <ele>500.941418</ele>
        <time>2021-11-14T17:17:40.893Z</time>
      </trkpt>
      <trkpt lat="47.593172" lon="8.053040">
        <ele>500.786652</ele>
        <time>2021-11-14T17:17:42.583Z</time>
      </trkpt>
      <trkpt lat="47.593780" lon="8.052150">
        <ele>499.462374</ele>
        <time>2021-11-14T17:17:55.511Z</time>
      </trkpt>
      <trkpt lat="47.594230" lon="8.051608">
        <ele>498.548729</ele>
        <time>2021-11-14T17:18:05.053Z</time>
      </trkpt>
      <trkpt lat="47.594330" lon="8.051467">
        <ele>498.331262</ele>
        <time>2021-11-14T17:18:07.331Z</time>
      </trkpt>
      <trkpt lat="47.594665" lon="8.050992">
        <ele>497.841402</ele>
        <time>2021-11-14T17:18:15.927Z</time>
      </trkpt>
      <trkpt lat="47.594830" lon="8.050657">
        <ele>498.054838</ele>
        <time>2021-11-14T17:18:21.775Z</time>
      </trkpt>
      <trkpt lat="47.595014" lon="8.050118">
        <ele>498.365663</ele>
        <time>2021-11-14T17:18:31.041Z</time>
      </trkpt>
      <trkpt lat="47.595281" lon="8.049984">
        <ele>498.580720</ele>
        <time>2021-11-14T17:18:37.895Z</time>
      </trkpt>
      <trkpt lat="47.595951" lon="8.050141">
        <ele>499.098235</ele>
        <time>2021-11-14T17:18:56.441Z</time>
      </trkpt>
      <trkpt lat="47.596257" lon="8.050069">
        <ele>499.576694</ele>
        <time>2021-11-14T17:19:03.914Z</time>
      </trkpt>
      <trkpt lat="47.597042" lon="8.049582">
        <ele>501.013926</ele>
        <time>2021-11-14T17:19:22.849Z</time>
      </trkpt>
      <trkpt lat="47.597293" lon="8.049268">
        <ele>501.568574</ele>
        <time>2021-11-14T17:19:30.945Z</time>
      </trkpt>
      <trkpt lat="47.597329" lon="8.049040">
        <ele>501.835282</ele>
        <time>2021-11-14T17:19:37.510Z</time>
      </trkpt>
      <trkpt lat="47.597280" lon="8.048861">
        <ele>502.055316</ele>
        <time>2021-11-14T17:19:39.847Z</time>
      </trkpt>
      <trkpt lat="47.597071" lon="8.048678">
        <ele>503.461369</ele>
        <time>2021-11-14T17:19:50.666Z</time>
      </trkpt>
      <trkpt lat="47.596556" lon="8.048354">
        <ele>507.628109</ele>
        <time>2021-11-14T17:20:12.432Z</time>
      </trkpt>
      <trkpt lat="47.596408" lon="8.048128">
        <ele>509.210399</ele>
        <time>2021-11-14T17:20:21.261Z</time>
      </trkpt>
      <trkpt lat="47.596341" lon="8.047998">
        <ele>510.032209</ele>
        <time>2021-11-14T17:20:28.697Z</time>
      </trkpt>
      <trkpt lat="47.596296" lon="8.047912">
        <ele>510.578945</ele>
        <time>2021-11-14T17:20:35.980Z</time>
      </trkpt>
      <trkpt lat="47.596177" lon="8.046442">
        <ele>518.734733</ele>
        <time>2021-11-14T17:21:34.343Z</time>
      </trkpt>
      <trkpt lat="47.596101" lon="8.046030">
        <ele>521.511228</ele>
        <time>2021-11-14T17:21:51.367Z</time>
      </trkpt>
      <trkpt lat="47.596052" lon="8.045947">
        <ele>522.228287</ele>
        <time>2021-11-14T17:21:58.620Z</time>
      </trkpt>
      <trkpt lat="47.595998" lon="8.045932">
        <ele>522.757860</ele>
        <time>2021-11-14T17:22:04.495Z</time>
      </trkpt>
      <trkpt lat="47.595755" lon="8.046073">
        <ele>525.273135</ele>
        <time>2021-11-14T17:22:19.490Z</time>
      </trkpt>
      <trkpt lat="47.595577" lon="8.046292">
        <ele>527.502591</ele>
        <time>2021-11-14T17:22:32.351Z</time>
      </trkpt>
      <trkpt lat="47.595182" lon="8.046596">
        <ele>531.792359</ele>
        <time>2021-11-14T17:22:55.807Z</time>
      </trkpt>
      <trkpt lat="47.595078" lon="8.046597">
        <ele>532.794863</ele>
        <time>2021-11-14T17:23:04.158Z</time>
      </trkpt>
      <trkpt lat="47.594877" lon="8.046451">
        <ele>534.211885</ele>
        <time>2021-11-14T17:23:12.802Z</time>
      </trkpt>
      <trkpt lat="47.594833" lon="8.046393">
        <ele>534.573893</ele>
        <time>2021-11-14T17:23:16.338Z</time>
      </trkpt>
      <trkpt lat="47.594659" lon="8.045915">
        <ele>536.826394</ele>
        <time>2021-11-14T17:23:33.661Z</time>
      </trkpt>
      <trkpt lat="47.594632" lon="8.045696">
        <ele>537.749593</ele>
        <time>2021-11-14T17:23:39.073Z</time>
      </trkpt>
      <trkpt lat="47.594714" lon="8.045470">
        <ele>538.813803</ele>
        <time>2021-11-14T17:23:46.167Z</time>
      </trkpt>
      <trkpt lat="47.595125" lon="8.044729">
        <ele>542.792375</ele>
        <time>2021-11-14T17:24:13.496Z</time>
      </trkpt>
      <trkpt lat="47.595145" lon="8.044264">
        <ele>544.608055</ele>
        <time>2021-11-14T17:24:27.785Z</time>
      </trkpt>
      <trkpt lat="47.595119" lon="8.043810">
        <ele>546.206776</ele>
        <time>2021-11-14T17:24:40.818Z</time>
      </trkpt>
      <trkpt lat="47.595066" lon="8.043389">
        <ele>547.709494</ele>
        <time>2021-11-14T17:24:52.763Z</time>
      </trkpt>
      <trkpt lat="47.595042" lon="8.042838">
        <ele>549.646865</ele>
        <time>2021-11-14T17:25:07.826Z</time>
      </trkpt>
      <trkpt lat="47.595061" lon="8.042566">
        <ele>550.606362</ele>
        <time>2021-11-14T17:25:15.678Z</time>
      </trkpt>
      <trkpt lat="47.594768" lon="8.041942">
        <ele>553.274316</ele>
        <time>2021-11-14T17:25:36.314Z</time>
      </trkpt>
      <trkpt lat="47.594253" lon="8.040904">
        <ele>556.285330</ele>
        <time>2021-11-14T17:26:08.270Z</time>
      </trkpt>
      <trkpt lat="47.593986" lon="8.040131">
        <ele>558.302867</ele>
        <time>2021-11-14T17:26:27.401Z</time>
      </trkpt>
      <trkpt lat="47.593758" lon="8.039114">
        <ele>559.609979</ele>
        <time>2021-11-14T17:26:48.292Z</time>
      </trkpt>
      <trkpt lat="47.593716" lon="8.038902">
        <ele>559.645626</ele>
        <time>2021-11-14T17:26:52.023Z</time>
      </trkpt>
      <trkpt lat="47.593653" lon="8.038574">
        <ele>559.700648</ele>
        <time>2021-11-14T17:26:57.662Z</time>
      </trkpt>
      <trkpt lat="47.593572" lon="8.038187">
        <ele>559.766022</ele>
        <time>2021-11-14T17:27:03.583Z</time>
      </trkpt>
      <trkpt lat="47.593440" lon="8.037805">
        <ele>559.835270</ele>
        <time>2021-11-14T17:27:09.044Z</time>
      </trkpt>
      <trkpt lat="47.593404" lon="8.037714">
        <ele>559.852291</ele>
        <time>2021-11-14T17:27:10.364Z</time>
      </trkpt>
      <trkpt lat="47.593282" lon="8.037406">
        <ele>559.909919</ele>
        <time>2021-11-14T17:27:14.402Z</time>
      </trkpt>
      <trkpt lat="47.593207" lon="8.037211">
        <ele>559.946136</ele>
        <time>2021-11-14T17:27:16.821Z</time>
      </trkpt>
      <trkpt lat="47.593192" lon="8.037147">
        <ele>559.882265</ele>
        <time>2021-11-14T17:27:17.563Z</time>
      </trkpt>
      <trkpt lat="47.593137" lon="8.036921">
        <ele>559.347456</ele>
        <time>2021-11-14T17:27:20.124Z</time>
      </trkpt>
      <trkpt lat="47.593134" lon="8.036910">
        <ele>559.321045</ele>
        <time>2021-11-14T17:27:20.228Z</time>
      </trkpt>
      <trkpt lat="47.593028" lon="8.036477">
        <ele>558.295688</ele>
        <time>2021-11-14T17:27:25.054Z</time>
      </trkpt>
      <trkpt lat="47.592676" lon="8.036726">
        <ele>557.008432</ele>
        <time>2021-11-14T17:27:28.965Z</time>
      </trkpt>
      <trkpt lat="47.592446" lon="8.036889">
        <ele>556.167039</ele>
        <time>2021-11-14T17:27:31.417Z</time>
      </trkpt>
      <trkpt lat="47.592197" lon="8.037045">
        <ele>555.274834</ele>
        <time>2021-11-14T17:27:34.062Z</time>
      </trkpt>
      <trkpt lat="47.591840" lon="8.037249">
        <ele>554.011291</ele>
        <time>2021-11-14T17:27:37.755Z</time>
      </trkpt>
      <trkpt lat="47.591489" lon="8.037361">
        <ele>552.559074</ele>
        <time>2021-11-14T17:27:41.296Z</time>
      </trkpt>
      <trkpt lat="47.591397" lon="8.037383">
        <ele>552.182147</ele>
        <time>2021-11-14T17:27:42.165Z</time>
      </trkpt>
      <trkpt lat="47.591150" lon="8.037443">
        <ele>551.169769</ele>
        <time>2021-11-14T17:27:44.603Z</time>
      </trkpt>
      <trkpt lat="47.591044" lon="8.037455">
        <ele>550.739775</ele>
        <time>2021-11-14T17:27:45.611Z</time>
      </trkpt>
      <trkpt lat="47.590476" lon="8.037474">
        <ele>548.441759</ele>
        <time>2021-11-14T17:27:51.229Z</time>
      </trkpt>
      <trkpt lat="47.590067" lon="8.037365">
        <ele>546.760937</ele>
        <time>2021-11-14T17:27:55.299Z</time>
      </trkpt>
      <trkpt lat="47.589869" lon="8.037227">
        <ele>545.719756</ele>
        <time>2021-11-14T17:27:57.444Z</time>
      </trkpt>
      <trkpt lat="47.589825" lon="8.037196">
        <ele>545.487093</ele>
        <time>2021-11-14T17:27:57.900Z</time>
      </trkpt>
      <trkpt lat="47.589772" lon="8.037159">
        <ele>545.207309</ele>
        <time>2021-11-14T17:27:58.439Z</time>
      </trkpt>
      <trkpt lat="47.589499" lon="8.036832">
        <ele>543.531150</ele>
        <time>2021-11-14T17:28:01.861Z</time>
      </trkpt>
      <trkpt lat="47.589239" lon="8.036386">
        <ele>541.632227</ele>
        <time>2021-11-14T17:28:05.692Z</time>
      </trkpt>
      <trkpt lat="47.588947" lon="8.035308">
        <ele>537.790856</ele>
        <time>2021-11-14T17:28:12.993Z</time>
      </trkpt>
      <trkpt lat="47.588642" lon="8.034658">
        <ele>534.264062</ele>
        <time>2021-11-14T17:28:17.899Z</time>
      </trkpt>
      <trkpt lat="47.588478" lon="8.034510">
        <ele>532.996196</ele>
        <time>2021-11-14T17:28:19.643Z</time>
      </trkpt>
      <trkpt lat="47.587928" lon="8.034180">
        <ele>529.077953</ele>
        <time>2021-11-14T17:28:24.978Z</time>
      </trkpt>
      <trkpt lat="47.586980" lon="8.033883">
        <ele>522.342288</ele>
        <time>2021-11-14T17:28:33.613Z</time>
      </trkpt>
      <trkpt lat="47.585583" lon="8.032905">
        <ele>511.563570</ele>
        <time>2021-11-14T17:28:47.454Z</time>
      </trkpt>
      <trkpt lat="47.585091" lon="8.032467">
        <ele>508.170628</ele>
        <time>2021-11-14T17:28:52.673Z</time>
      </trkpt>
      <trkpt lat="47.584568" lon="8.032176">
        <ele>504.867931</ele>
        <time>2021-11-14T17:28:57.808Z</time>
      </trkpt>
      <trkpt lat="47.584000" lon="8.032100">
        <ele>502.156404</ele>
        <time>2021-11-14T17:29:03.236Z</time>
      </trkpt>
      <trkpt lat="47.583770" lon="8.032077">
        <ele>501.576268</ele>
        <time>2021-11-14T17:29:05.459Z</time>
      </trkpt>
      <trkpt lat="47.583557" lon="8.032062">
        <ele>501.039626</ele>
        <time>2021-11-14T17:29:07.626Z</time>
      </trkpt>
      <trkpt lat="47.583316" lon="8.032065">
        <ele>500.433101</ele>
        <time>2021-11-14T17:29:10.162Z</time>
      </trkpt>
      <trkpt lat="47.583028" lon="8.032087">
        <ele>499.707356</ele>
        <time>2021-11-14T17:29:13.302Z</time>
      </trkpt>
      <trkpt lat="47.582877" lon="8.032131">
        <ele>499.320077</ele>
        <time>2021-11-14T17:29:15.099Z</time>
      </trkpt>
      <trkpt lat="47.582534" lon="8.032340">
        <ele>498.386814</ele>
        <time>2021-11-14T17:29:19.515Z</time>
      </trkpt>
      <trkpt lat="47.582379" lon="8.032452">
        <ele>498.113599</ele>
        <time>2021-11-14T17:29:21.621Z</time>
      </trkpt>
      <trkpt lat="47.582305" lon="8.032518">
        <ele>498.106187</ele>
        <time>2021-11-14T17:29:22.771Z</time>
      </trkpt>
      <trkpt lat="47.582257" lon="8.032344">
        <ele>498.095302</ele>
        <time>2021-11-14T17:29:25.536Z</time>
      </trkpt>
      <trkpt lat="47.582218" lon="8.032127">
        <ele>498.082300</ele>
        <time>2021-11-14T17:29:28.778Z</time>
      </trkpt>
      <trkpt lat="47.582194" lon="8.031979">
        <ele>498.073487</ele>
        <time>2021-11-14T17:29:30.946Z</time>
      </trkpt>
      <trkpt lat="47.582207" lon="8.031849">
        <ele>498.065878</ele>
        <time>2021-11-14T17:29:33.079Z</time>
      </trkpt>
      <trkpt lat="47.581991" lon="8.031722">
        <ele>498.045933</ele>
        <time>2021-11-14T17:29:37.972Z</time>
      </trkpt>
      <trkpt lat="47.581914" lon="8.031633">
        <ele>498.037552</ele>
        <time>2021-11-14T17:29:40.346Z</time>
      </trkpt>
      <trkpt lat="47.581703" lon="8.031357">
        <ele>498.013399</ele>
        <time>2021-11-14T17:29:46.343Z</time>
      </trkpt>
      <trkpt lat="47.581603" lon="8.031197">
        <ele>498.000770</ele>
        <time>2021-11-14T17:29:49.721Z</time>
      </trkpt>
      <trkpt lat="47.581523" lon="8.031026">
        <ele>497.988721</ele>
        <time>2021-11-14T17:29:52.320Z</time>
      </trkpt>
      <trkpt lat="47.581423" lon="8.030639">
        <ele>497.963048</ele>
        <time>2021-11-14T17:29:57.786Z</time>
      </trkpt>
      <trkpt lat="47.581354" lon="8.030430">
        <ele>497.810343</ele>
        <time>2021-11-14T17:30:00.496Z</time>
      </trkpt>
      <trkpt lat="47.581171" lon="8.030156">
        <ele>497.557298</ele>
        <time>2021-11-14T17:30:05.194Z</time>
      </trkpt>
      <trkpt lat="47.580985" lon="8.029962">
        <ele>497.336039</ele>
        <time>2021-11-14T17:30:09.219Z</time>
      </trkpt>
      <trkpt lat="47.580745" lon="8.029776">
        <ele>497.072563</ele>
        <time>2021-11-14T17:30:13.782Z</time>
      </trkpt>
      <trkpt lat="47.580567" lon="8.029638">
        <ele>496.877135</ele>
        <time>2021-11-14T17:30:17.347Z</time>
      </trkpt>
      <trkpt lat="47.580537" lon="8.029599">
        <ele>496.838316</ele>
        <time>2021-11-14T17:30:17.960Z</time>
      </trkpt>
      <trkpt lat="47.580507" lon="8.029540">
        <ele>496.789828</ele>
        <time>2021-11-14T17:30:18.820Z</time>
      </trkpt>
      <trkpt lat="47.580457" lon="8.029426">
        <ele>496.700589</ele>
        <time>2021-11-14T17:30:20.391Z</time>
      </trkpt>
      <trkpt lat="47.580445" lon="8.029350">
        <ele>496.649364</ele>
        <time>2021-11-14T17:30:21.400Z</time>
      </trkpt>
      <trkpt lat="47.580435" lon="8.029225">
        <ele>496.566755</ele>
        <time>2021-11-14T17:30:22.917Z</time>
      </trkpt>
      <trkpt lat="47.580414" lon="8.028952">
        <ele>496.386432</ele>
        <time>2021-11-14T17:30:25.913Z</time>
      </trkpt>
      <trkpt lat="47.580414" lon="8.028741">
        <ele>496.247958</ele>
        <time>2021-11-14T17:30:28.452Z</time>
      </trkpt>
      <trkpt lat="47.580504" lon="8.027848">
        <ele>495.649663</ele>
        <time>2021-11-14T17:30:38.415Z</time>
      </trkpt>
      <trkpt lat="47.580430" lon="8.027348">
        <ele>495.310277</ele>
        <time>2021-11-14T17:30:44.253Z</time>
      </trkpt>
      <trkpt lat="47.580406" lon="8.027217">
        <ele>495.220277</ele>
        <time>2021-11-14T17:30:45.999Z</time>
      </trkpt>
      <trkpt lat="47.580391" lon="8.026955">
        <ele>495.045945</ele>
        <time>2021-11-14T17:30:49.102Z</time>
      </trkpt>
      <trkpt lat="47.580386" lon="8.026802">
        <ele>494.944387</ele>
        <time>2021-11-14T17:30:50.965Z</time>
      </trkpt>
      <trkpt lat="47.580341" lon="8.025695">
        <ele>494.425852</ele>
        <time>2021-11-14T17:31:04.826Z</time>
      </trkpt>
      <trkpt lat="47.580173" lon="8.024170">
        <ele>494.334180</ele>
        <time>2021-11-14T17:31:24.052Z</time>
      </trkpt>
      <trkpt lat="47.580262" lon="8.023307">
        <ele>494.491489</ele>
        <time>2021-11-14T17:31:37.163Z</time>
      </trkpt>
      <trkpt lat="47.580380" lon="8.022562">
        <ele>495.889522</ele>
        <time>2021-11-14T17:31:50.579Z</time>
      </trkpt>
      <trkpt lat="47.580425" lon="8.022255">
        <ele>496.463458</ele>
        <time>2021-11-14T17:31:56.664Z</time>
      </trkpt>
      <trkpt lat="47.580470" lon="8.021934">
        <ele>497.062412</ele>
        <time>2021-11-14T17:32:03.221Z</time>
      </trkpt>
      <trkpt lat="47.580271" lon="8.020243">
        <ele>500.124375</ele>
        <time>2021-11-14T17:32:47.324Z</time>
      </trkpt>
      <trkpt lat="47.580484" lon="8.019833">
        <ele>501.002456</ele>
        <time>2021-11-14T17:32:58.635Z</time>
      </trkpt>
      <trkpt lat="47.580955" lon="8.019317">
        <ele>502.475613</ele>
        <time>2021-11-14T17:33:14.789Z</time>
      </trkpt>
      <trkpt lat="47.580948" lon="8.019213">
        <ele>502.652951</ele>
        <time>2021-11-14T17:33:16.243Z</time>
      </trkpt>
      <trkpt lat="47.580916" lon="8.019035">
        <ele>502.965516</ele>
        <time>2021-11-14T17:33:18.900Z</time>
      </trkpt>
      <trkpt lat="47.580830" lon="8.018918">
        <ele>503.259126</ele>
        <time>2021-11-14T17:33:22.945Z</time>
      </trkpt>
      <trkpt lat="47.580782" lon="8.018916">
        <ele>503.379913</ele>
        <time>2021-11-14T17:33:23.992Z</time>
      </trkpt>
      <trkpt lat="47.580628" lon="8.018939">
        <ele>503.698191</ele>
        <time>2021-11-14T17:33:27.036Z</time>
      </trkpt>
      <trkpt lat="47.580282" lon="8.019086">
        <ele>503.844935</ele>
        <time>2021-11-14T17:33:34.982Z</time>
      </trkpt>
      <trkpt lat="47.580093" lon="8.019071">
        <ele>503.922102</ele>
        <time>2021-11-14T17:33:40.229Z</time>
      </trkpt>
      <trkpt lat="47.579943" lon="8.018927">
        <ele>503.994961</ele>
        <time>2021-11-14T17:33:42.517Z</time>
      </trkpt>
      <trkpt lat="47.579890" lon="8.018812">
        <ele>504.033265</ele>
        <time>2021-11-14T17:33:44.721Z</time>
      </trkpt>
      <trkpt lat="47.579827" lon="8.017916">
        <ele>504.281021</ele>
        <time>2021-11-14T17:33:52.225Z</time>
      </trkpt>
      <trkpt lat="47.579800" lon="8.017631">
        <ele>504.360171</ele>
        <time>2021-11-14T17:33:55.382Z</time>
      </trkpt>
      <trkpt lat="47.579770" lon="8.017313">
        <ele>504.434404</ele>
        <time>2021-11-14T17:33:57.830Z</time>
      </trkpt>
      <trkpt lat="47.579807" lon="8.016479">
        <ele>504.558936</ele>
        <time>2021-11-14T17:34:08.231Z</time>
      </trkpt>
      <trkpt lat="47.579782" lon="8.016013">
        <ele>504.628588</ele>
        <time>2021-11-14T17:34:14.302Z</time>
      </trkpt>
      <trkpt lat="47.579693" lon="8.015395">
        <ele>504.722744</ele>
        <time>2021-11-14T17:34:21.543Z</time>
      </trkpt>
      <trkpt lat="47.579677" lon="8.015285">
        <ele>504.739511</ele>
        <time>2021-11-14T17:34:22.397Z</time>
      </trkpt>
      <trkpt lat="47.579476" lon="8.014445">
        <ele>504.683045</ele>
        <time>2021-11-14T17:34:30.692Z</time>
      </trkpt>
      <trkpt lat="47.579390" lon="8.014221">
        <ele>504.594520</ele>
        <time>2021-11-14T17:34:32.721Z</time>
      </trkpt>
      <trkpt lat="47.579303" lon="8.013994">
        <ele>504.504847</ele>
        <time>2021-11-14T17:34:35.384Z</time>
      </trkpt>
      <trkpt lat="47.579083" lon="8.012800">
        <ele>504.079719</ele>
        <time>2021-11-14T17:34:46.046Z</time>
      </trkpt>
      <trkpt lat="47.578994" lon="8.011565">
        <ele>503.638408</ele>
        <time>2021-11-14T17:34:57.461Z</time>
      </trkpt>
      <trkpt lat="47.578877" lon="8.010552">
        <ele>503.264309</ele>
        <time>2021-11-14T17:35:06.935Z</time>
      </trkpt>
      <trkpt lat="47.578802" lon="8.010247">
        <ele>503.146143</ele>
        <time>2021-11-14T17:35:09.643Z</time>
      </trkpt>
      <trkpt lat="47.578506" lon="8.009815">
        <ele>502.898023</ele>
        <time>2021-11-14T17:35:14.936Z</time>
      </trkpt>
      <trkpt lat="47.578339" lon="8.009582">
        <ele>502.329945</ele>
        <time>2021-11-14T17:35:18.168Z</time>
      </trkpt>
      <trkpt lat="47.578275" lon="8.009410">
        <ele>502.001710</ele>
        <time>2021-11-14T17:35:19.640Z</time>
      </trkpt>
      <trkpt lat="47.578269" lon="8.009376">
        <ele>501.942985</ele>
        <time>2021-11-14T17:35:20.731Z</time>
      </trkpt>
      <trkpt lat="47.578332" lon="8.009223">
        <ele>501.643457</ele>
        <time>2021-11-14T17:35:22.137Z</time>
      </trkpt>
      <trkpt lat="47.578864" lon="8.008842">
        <ele>500.179920</ele>
        <time>2021-11-14T17:35:28.703Z</time>
      </trkpt>
      <trkpt lat="47.579619" lon="8.008172">
        <ele>497.097342</ele>
        <time>2021-11-14T17:35:37.328Z</time>
      </trkpt>
      <trkpt lat="47.579923" lon="8.008040">
        <ele>494.815019</ele>
        <time>2021-11-14T17:35:40.239Z</time>
      </trkpt>
      <trkpt lat="47.580912" lon="8.007336">
        <ele>486.910450</ele>
        <time>2021-11-14T17:35:49.945Z</time>
      </trkpt>
      <trkpt lat="47.581140" lon="8.006991">
        <ele>484.402865</ele>
        <time>2021-11-14T17:35:52.766Z</time>
      </trkpt>
      <trkpt lat="47.581321" lon="8.006142">
        <ele>479.346327</ele>
        <time>2021-11-14T17:35:57.963Z</time>
      </trkpt>
      <trkpt lat="47.581764" lon="8.005054">
        <ele>472.129235</ele>
        <time>2021-11-14T17:36:05.544Z</time>
      </trkpt>
      <trkpt lat="47.582188" lon="8.004718">
        <ele>468.911662</ele>
        <time>2021-11-14T17:36:09.814Z</time>
      </trkpt>
      <trkpt lat="47.582510" lon="8.004377">
        <ele>466.787827</ele>
        <time>2021-11-14T17:36:13.343Z</time>
      </trkpt>
      <trkpt lat="47.582604" lon="8.004164">
        <ele>465.866340</ele>
        <time>2021-11-14T17:36:14.881Z</time>
      </trkpt>
      <trkpt lat="47.582727" lon="8.003464">
        <ele>463.247604</ele>
        <time>2021-11-14T17:36:19.436Z</time>
      </trkpt>
      <trkpt lat="47.582781" lon="8.003305">
        <ele>462.603143</ele>
        <time>2021-11-14T17:36:20.480Z</time>
      </trkpt>
      <trkpt lat="47.582789" lon="8.003167">
        <ele>462.101710</ele>
        <time>2021-11-14T17:36:21.402Z</time>
      </trkpt>
      <trkpt lat="47.582779" lon="8.003036">
        <ele>461.624434</ele>
        <time>2021-11-14T17:36:22.716Z</time>
      </trkpt>
      <trkpt lat="47.582735" lon="8.002783">
        <ele>460.743388</ele>
        <time>2021-11-14T17:36:24.720Z</time>
      </trkpt>
      <trkpt lat="47.582722" lon="8.002476">
        <ele>461.462958</ele>
        <time>2021-11-14T17:36:27.968Z</time>
      </trkpt>
      <trkpt lat="47.582770" lon="8.002301">
        <ele>461.904882</ele>
        <time>2021-11-14T17:36:30.436Z</time>
      </trkpt>
      <trkpt lat="47.582871" lon="8.002150">
        <ele>462.402336</ele>
        <time>2021-11-14T17:36:32.384Z</time>
      </trkpt>
      <trkpt lat="47.583138" lon="8.001749">
        <ele>463.720416</ele>
        <time>2021-11-14T17:36:41.531Z</time>
      </trkpt>
      <trkpt lat="47.583129" lon="8.001600">
        <ele>464.070360</ele>
        <time>2021-11-14T17:36:44.787Z</time>
      </trkpt>
      <trkpt lat="47.583038" lon="8.001422">
        <ele>464.592831</ele>
        <time>2021-11-14T17:36:48.168Z</time>
      </trkpt>
      <trkpt lat="47.582884" lon="8.001201">
        <ele>465.336136</ele>
        <time>2021-11-14T17:36:56.150Z</time>
      </trkpt>
      <trkpt lat="47.582884" lon="8.001201">
        <ele>465.336136</ele>
        <time>2021-11-14T17:36:56.708Z</time>
      </trkpt>
      <trkpt lat="47.582718" lon="8.001131">
        <ele>465.934664</ele>
        <time>2021-11-14T17:37:01.475Z</time>
      </trkpt>
      <trkpt lat="47.582003" lon="8.001392">
        <ele>470.318510</ele>
        <time>2021-11-14T17:37:39.139Z</time>
      </trkpt>
      <trkpt lat="47.581843" lon="8.001622">
        <ele>472.014332</ele>
        <time>2021-11-14T17:37:52.032Z</time>
      </trkpt>
      <trkpt lat="47.581587" lon="8.002199">
        <ele>475.559075</ele>
        <time>2021-11-14T17:38:17.597Z</time>
      </trkpt>
      <trkpt lat="47.581538" lon="8.002492">
        <ele>477.108478</ele>
        <time>2021-11-14T17:38:25.761Z</time>
      </trkpt>
      <trkpt lat="47.581433" lon="8.002768">
        <ele>478.734869</ele>
        <time>2021-11-14T17:38:34.820Z</time>
      </trkpt>
      <trkpt lat="47.580693" lon="8.003731">
        <ele>481.357102</ele>
        <time>2021-11-14T17:39:01.982Z</time>
      </trkpt>
      <trkpt lat="47.580305" lon="8.004384">
        <ele>481.929090</ele>
        <time>2021-11-14T17:39:09.942Z</time>
      </trkpt>
      <trkpt lat="47.579909" lon="8.004868">
        <ele>482.415168</ele>
        <time>2021-11-14T17:39:15.634Z</time>
      </trkpt>
      <trkpt lat="47.579228" lon="8.005324">
        <ele>482.849138</ele>
        <time>2021-11-14T17:39:24.456Z</time>
      </trkpt>
      <trkpt lat="47.578736" lon="8.005500">
        <ele>483.143073</ele>
        <time>2021-11-14T17:39:33.120Z</time>
      </trkpt>
      <trkpt lat="47.578325" lon="8.005530">
        <ele>483.382054</ele>
        <time>2021-11-14T17:39:43.240Z</time>
      </trkpt>
      <trkpt lat="47.578086" lon="8.005441">
        <ele>484.174868</ele>
        <time>2021-11-14T17:39:50.406Z</time>
      </trkpt>
      <trkpt lat="47.577792" lon="8.005044">
        <ele>486.148189</ele>
        <time>2021-11-14T17:40:03.808Z</time>
      </trkpt>
      <trkpt lat="47.577375" lon="8.004938">
        <ele>488.247516</ele>
        <time>2021-11-14T17:40:19.909Z</time>
      </trkpt>
      <trkpt lat="47.576902" lon="8.005070">
        <ele>490.635740</ele>
        <time>2021-11-14T17:40:38.664Z</time>
      </trkpt>
      <trkpt lat="47.575892" lon="8.005591">
        <ele>494.377976</ele>
        <time>2021-11-14T17:41:16.069Z</time>
      </trkpt>
      <trkpt lat="47.575756" lon="8.005585">
        <ele>494.757997</ele>
        <time>2021-11-14T17:41:20.120Z</time>
      </trkpt>
      <trkpt lat="47.575531" lon="8.005431">
        <ele>495.450186</ele>
        <time>2021-11-14T17:41:26.724Z</time>
      </trkpt>
      <trkpt lat="47.575508" lon="8.005404">
        <ele>495.532131</ele>
        <time>2021-11-14T17:41:27.544Z</time>
      </trkpt>
      <trkpt lat="47.575411" lon="8.005256">
        <ele>495.920932</ele>
        <time>2021-11-14T17:41:30.593Z</time>
      </trkpt>
      <trkpt lat="47.575168" lon="8.004892">
        <ele>496.885842</ele>
        <time>2021-11-14T17:41:36.267Z</time>
      </trkpt>
      <trkpt lat="47.574764" lon="8.003762">
        <ele>496.329676</ele>
        <time>2021-11-14T17:41:47.018Z</time>
      </trkpt>
      <trkpt lat="47.574686" lon="8.003684">
        <ele>496.183990</ele>
        <time>2021-11-14T17:41:47.989Z</time>
      </trkpt>
      <trkpt lat="47.574392" lon="8.003728">
        <ele>495.726455</ele>
        <time>2021-11-14T17:41:51.396Z</time>
      </trkpt>
      <trkpt lat="47.574305" lon="8.003732">
        <ele>495.591682</ele>
        <time>2021-11-14T17:41:52.245Z</time>
      </trkpt>
      <trkpt lat="47.574217" lon="8.003704">
        <ele>495.452322</ele>
        <time>2021-11-14T17:41:53.192Z</time>
      </trkpt>
      <trkpt lat="47.573800" lon="8.003256">
        <ele>494.654894</ele>
        <time>2021-11-14T17:41:58.893Z</time>
      </trkpt>
      <trkpt lat="47.573718" lon="8.003157">
        <ele>494.553832</ele>
        <time>2021-11-14T17:41:59.928Z</time>
      </trkpt>
      <trkpt lat="47.573679" lon="8.003065">
        <ele>494.504227</ele>
        <time>2021-11-14T17:42:00.669Z</time>
      </trkpt>
      <trkpt lat="47.573643" lon="8.002920">
        <ele>494.433688</ele>
        <time>2021-11-14T17:42:01.861Z</time>
      </trkpt>
      <trkpt lat="47.573502" lon="8.002634">
        <ele>494.271969</ele>
        <time>2021-11-14T17:42:04.348Z</time>
      </trkpt>
      <trkpt lat="47.573400" lon="8.002344">
        <ele>494.122660</ele>
        <time>2021-11-14T17:42:06.918Z</time>
      </trkpt>
      <trkpt lat="47.573126" lon="8.002031">
        <ele>493.888566</ele>
        <time>2021-11-14T17:42:11.470Z</time>
      </trkpt>
      <trkpt lat="47.573026" lon="8.001932">
        <ele>493.807188</ele>
        <time>2021-11-14T17:42:12.916Z</time>
      </trkpt>
      <trkpt lat="47.572938" lon="8.001919">
        <ele>493.747342</ele>
        <time>2021-11-14T17:42:14.755Z</time>
      </trkpt>
      <trkpt lat="47.572940" lon="8.001742">
        <ele>493.666523</ele>
        <time>2021-11-14T17:42:17.180Z</time>
      </trkpt>
      <trkpt lat="47.572943" lon="8.001367">
        <ele>493.495306</ele>
        <time>2021-11-14T17:42:21.087Z</time>
      </trkpt>
      <trkpt lat="47.572935" lon="8.001208">
        <ele>493.422514</ele>
        <time>2021-11-14T17:42:23.422Z</time>
      </trkpt>
      <trkpt lat="47.572887" lon="8.000996">
        <ele>493.571216</ele>
        <time>2021-11-14T17:42:25.853Z</time>
      </trkpt>
      <trkpt lat="47.572824" lon="8.000753">
        <ele>493.911537</ele>
        <time>2021-11-14T17:42:29.993Z</time>
      </trkpt>
      <trkpt lat="47.572747" lon="8.000534">
        <ele>494.234381</ele>
        <time>2021-11-14T17:42:32.650Z</time>
      </trkpt>
      <trkpt lat="47.572662" lon="8.000300">
        <ele>494.581811</ele>
        <time>2021-11-14T17:42:37.141Z</time>
      </trkpt>
      <trkpt lat="47.572611" lon="8.000059">
        <ele>494.912006</ele>
        <time>2021-11-14T17:42:40.520Z</time>
      </trkpt>
      <trkpt lat="47.572543" lon="7.999708">
        <ele>495.389412</ele>
        <time>2021-11-14T17:42:46.835Z</time>
      </trkpt>
      <trkpt lat="47.572560" lon="7.999471">
        <ele>495.700989</ele>
        <time>2021-11-14T17:42:49.985Z</time>
      </trkpt>
      <trkpt lat="47.572588" lon="7.999397">
        <ele>495.811905</ele>
        <time>2021-11-14T17:42:51.436Z</time>
      </trkpt>
      <trkpt lat="47.572623" lon="7.999326">
        <ele>495.926861</ele>
        <time>2021-11-14T17:42:53.337Z</time>
      </trkpt>
      <trkpt lat="47.572684" lon="7.999259">
        <ele>496.073978</ele>
        <time>2021-11-14T17:42:55.464Z</time>
      </trkpt>
      <trkpt lat="47.572737" lon="7.999234">
        <ele>496.181752</ele>
        <time>2021-11-14T17:42:56.859Z</time>
      </trkpt>
      <trkpt lat="47.572701" lon="7.999118">
        <ele>496.348674</ele>
        <time>2021-11-14T17:42:58.384Z</time>
      </trkpt>
      <trkpt lat="47.572664" lon="7.998959">
        <ele>496.568552</ele>
        <time>2021-11-14T17:43:01.542Z</time>
      </trkpt>
      <trkpt lat="47.572708" lon="7.998779">
        <ele>496.818835</ele>
        <time>2021-11-14T17:43:05.402Z</time>
      </trkpt>
      <trkpt lat="47.572763" lon="7.998535">
        <ele>497.155367</ele>
        <time>2021-11-14T17:43:09.076Z</time>
      </trkpt>
      <trkpt lat="47.572796" lon="7.998352">
        <ele>497.403191</ele>
        <time>2021-11-14T17:43:12.918Z</time>
      </trkpt>
      <trkpt lat="47.572807" lon="7.998270">
        <ele>497.512571</ele>
        <time>2021-11-14T17:43:14.615Z</time>
      </trkpt>
      <trkpt lat="47.572559" lon="7.996184">
        <ele>500.283738</ele>
        <time>2021-11-14T17:43:46.286Z</time>
      </trkpt>
      <trkpt lat="47.572468" lon="7.995163">
        <ele>500.715318</ele>
        <time>2021-11-14T17:43:59.172Z</time>
      </trkpt>
      <trkpt lat="47.572460" lon="7.995058">
        <ele>500.754073</ele>
        <time>2021-11-14T17:44:00.423Z</time>
      </trkpt>
      <trkpt lat="47.572368" lon="7.994372">
        <ele>501.010596</ele>
        <time>2021-11-14T17:44:08.174Z</time>
      </trkpt>
      <trkpt lat="47.572249" lon="7.994022">
        <ele>501.154343</ele>
        <time>2021-11-14T17:44:12.328Z</time>
      </trkpt>
      <trkpt lat="47.572207" lon="7.993915">
        <ele>501.199746</ele>
        <time>2021-11-14T17:44:13.552Z</time>
      </trkpt>
      <trkpt lat="47.572062" lon="7.993506">
        <ele>501.313504</ele>
        <time>2021-11-14T17:44:18.106Z</time>
      </trkpt>
      <trkpt lat="47.571990" lon="7.993258">
        <ele>501.244515</ele>
        <time>2021-11-14T17:44:20.541Z</time>
      </trkpt>
      <trkpt lat="47.571883" lon="7.992565">
        <ele>501.062856</ele>
        <time>2021-11-14T17:44:26.895Z</time>
      </trkpt>
      <trkpt lat="47.571712" lon="7.990384">
        <ele>500.880029</ele>
        <time>2021-11-14T17:44:46.507Z</time>
      </trkpt>
      <trkpt lat="47.571710" lon="7.989958">
        <ele>501.039673</ele>
        <time>2021-11-14T17:44:51.216Z</time>
      </trkpt>
      <trkpt lat="47.571711" lon="7.989669">
        <ele>501.147975</ele>
        <time>2021-11-14T17:44:54.816Z</time>
      </trkpt>
      <trkpt lat="47.571580" lon="7.989167">
        <ele>501.349678</ele>
        <time>2021-11-14T17:45:01.609Z</time>
      </trkpt>
      <trkpt lat="47.571208" lon="7.988246">
        <ele>501.407980</ele>
        <time>2021-11-14T17:45:16.009Z</time>
      </trkpt>
      <trkpt lat="47.571180" lon="7.987989">
        <ele>501.162238</ele>
        <time>2021-11-14T17:45:19.708Z</time>
      </trkpt>
      <trkpt lat="47.571168" lon="7.987874">
        <ele>501.052391</ele>
        <time>2021-11-14T17:45:21.739Z</time>
      </trkpt>
      <trkpt lat="47.571268" lon="7.987105">
        <ele>500.313120</ele>
        <time>2021-11-14T17:45:28.886Z</time>
      </trkpt>
      <trkpt lat="47.571515" lon="7.986697">
        <ele>499.795663</ele>
        <time>2021-11-14T17:45:32.900Z</time>
      </trkpt>
      <trkpt lat="47.571904" lon="7.986414">
        <ele>499.189370</ele>
        <time>2021-11-14T17:45:37.238Z</time>
      </trkpt>
      <trkpt lat="47.572042" lon="7.986160">
        <ele>497.528176</ele>
        <time>2021-11-14T17:45:39.374Z</time>
      </trkpt>
      <trkpt lat="47.571967" lon="7.986077">
        <ele>496.705191</ele>
        <time>2021-11-14T17:45:40.215Z</time>
      </trkpt>
      <trkpt lat="47.571694" lon="7.985779">
        <ele>493.724083</ele>
        <time>2021-11-14T17:45:43.278Z</time>
      </trkpt>
      <trkpt lat="47.571104" lon="7.985841">
        <ele>488.523360</ele>
        <time>2021-11-14T17:45:48.507Z</time>
      </trkpt>
      <trkpt lat="47.570598" lon="7.985658">
        <ele>483.943716</ele>
        <time>2021-11-14T17:45:52.888Z</time>
      </trkpt>
      <trkpt lat="47.570188" lon="7.985852">
        <ele>478.577068</ele>
        <time>2021-11-14T17:45:56.474Z</time>
      </trkpt>
      <trkpt lat="47.569899" lon="7.986324">
        <ele>472.904324</ele>
        <time>2021-11-14T17:46:00.078Z</time>
      </trkpt>
      <trkpt lat="47.569720" lon="7.986239">
        <ele>470.424866</ele>
        <time>2021-11-14T17:46:01.654Z</time>
      </trkpt>
      <trkpt lat="47.569544" lon="7.985948">
        <ele>466.946684</ele>
        <time>2021-11-14T17:46:03.868Z</time>
      </trkpt>
      <trkpt lat="47.569441" lon="7.985823">
        <ele>465.190627</ele>
        <time>2021-11-14T17:46:04.972Z</time>
      </trkpt>
      <trkpt lat="47.569224" lon="7.985557">
        <ele>461.475979</ele>
        <time>2021-11-14T17:46:07.346Z</time>
      </trkpt>
      <trkpt lat="47.568880" lon="7.985270">
        <ele>457.000386</ele>
        <time>2021-11-14T17:46:10.658Z</time>
      </trkpt>
      <trkpt lat="47.567629" lon="7.984321">
        <ele>442.538555</ele>
        <time>2021-11-14T17:46:22.716Z</time>
      </trkpt>
      <trkpt lat="47.567590" lon="7.984165">
        <ele>441.383442</ele>
        <time>2021-11-14T17:46:23.727Z</time>
      </trkpt>
      <trkpt lat="47.567683" lon="7.983121">
        <ele>436.626796</ele>
        <time>2021-11-14T17:46:30.169Z</time>
      </trkpt>
      <trkpt lat="47.567696" lon="7.982527">
        <ele>434.003194</ele>
        <time>2021-11-14T17:46:33.821Z</time>
      </trkpt>
      <trkpt lat="47.567624" lon="7.981800">
        <ele>430.759449</ele>
        <time>2021-11-14T17:46:38.387Z</time>
      </trkpt>
      <trkpt lat="47.567665" lon="7.981438">
        <ele>429.161601</ele>
        <time>2021-11-14T17:46:40.672Z</time>
      </trkpt>
      <trkpt lat="47.567933" lon="7.980942">
        <ele>426.707955</ele>
        <time>2021-11-14T17:46:44.631Z</time>
      </trkpt>
      <trkpt lat="47.567985" lon="7.980685">
        <ele>425.671937</ele>
        <time>2021-11-14T17:46:46.301Z</time>
      </trkpt>
      <trkpt lat="47.568061" lon="7.979013">
        <ele>419.201199</ele>
        <time>2021-11-14T17:46:56.721Z</time>
      </trkpt>
      <trkpt lat="47.568118" lon="7.978684">
        <ele>417.751134</ele>
        <time>2021-11-14T17:46:58.864Z</time>
      </trkpt>
      <trkpt lat="47.568567" lon="7.977498">
        <ele>411.859925</ele>
        <time>2021-11-14T17:47:07.575Z</time>
      </trkpt>
      <trkpt lat="47.568631" lon="7.977178">
        <ele>410.414088</ele>
        <time>2021-11-14T17:47:09.577Z</time>
      </trkpt>
      <trkpt lat="47.568704" lon="7.977054">
        <ele>409.701197</ele>
        <time>2021-11-14T17:47:10.759Z</time>
      </trkpt>
      <trkpt lat="47.568987" lon="7.976683">
        <ele>407.097348</ele>
        <time>2021-11-14T17:47:14.066Z</time>
      </trkpt>
      <trkpt lat="47.569048" lon="7.976403">
        <ele>404.700009</ele>
        <time>2021-11-14T17:47:15.735Z</time>
      </trkpt>
      <trkpt lat="47.568939" lon="7.976270">
        <ele>402.995046</ele>
        <time>2021-11-14T17:47:16.944Z</time>
      </trkpt>
      <trkpt lat="47.568748" lon="7.976336">
        <ele>400.626669</ele>
        <time>2021-11-14T17:47:18.601Z</time>
      </trkpt>
      <trkpt lat="47.568519" lon="7.976515">
        <ele>397.500239</ele>
        <time>2021-11-14T17:47:20.802Z</time>
      </trkpt>
      <trkpt lat="47.568316" lon="7.976569">
        <ele>395.009636</ele>
        <time>2021-11-14T17:47:22.523Z</time>
      </trkpt>
      <trkpt lat="47.568107" lon="7.976469">
        <ele>392.357489</ele>
        <time>2021-11-14T17:47:24.408Z</time>
      </trkpt>
      <trkpt lat="47.567987" lon="7.976370">
        <ele>390.698989</ele>
        <time>2021-11-14T17:47:25.546Z</time>
      </trkpt>
      <trkpt lat="47.567801" lon="7.976285">
        <ele>388.348500</ele>
        <time>2021-11-14T17:47:27.210Z</time>
      </trkpt>
      <trkpt lat="47.567627" lon="7.976382">
        <ele>386.103549</ele>
        <time>2021-11-14T17:47:28.744Z</time>
      </trkpt>
      <trkpt lat="47.567340" lon="7.976629">
        <ele>381.685414</ele>
        <time>2021-11-14T17:47:31.501Z</time>
      </trkpt>
      <trkpt lat="47.567134" lon="7.976669">
        <ele>378.895297</ele>
        <time>2021-11-14T17:47:33.280Z</time>
      </trkpt>
      <trkpt lat="47.566939" lon="7.976573">
        <ele>376.135849</ele>
        <time>2021-11-14T17:47:34.974Z</time>
      </trkpt>
      <trkpt lat="47.566852" lon="7.976458">
        <ele>374.570302</ele>
        <time>2021-11-14T17:47:35.948Z</time>
      </trkpt>
      <trkpt lat="47.566673" lon="7.975768">
        <ele>367.871811</ele>
        <time>2021-11-14T17:47:40.094Z</time>
      </trkpt>
      <trkpt lat="47.566542" lon="7.975527">
        <ele>365.067548</ele>
        <time>2021-11-14T17:47:41.847Z</time>
      </trkpt>
      <trkpt lat="47.566200" lon="7.975405">
        <ele>360.658992</ele>
        <time>2021-11-14T17:47:44.865Z</time>
      </trkpt>
      <trkpt lat="47.565964" lon="7.975378">
        <ele>358.276930</ele>
        <time>2021-11-14T17:47:46.940Z</time>
      </trkpt>
      <trkpt lat="47.565867" lon="7.975381">
        <ele>357.300554</ele>
        <time>2021-11-14T17:47:47.747Z</time>
      </trkpt>
      <trkpt lat="47.565200" lon="7.975372">
        <ele>350.587895</ele>
        <time>2021-11-14T17:47:53.505Z</time>
      </trkpt>
      <trkpt lat="47.564852" lon="7.975095">
        <ele>346.612630</ele>
        <time>2021-11-14T17:47:56.898Z</time>
      </trkpt>
      <trkpt lat="47.563511" lon="7.973794">
        <ele>331.642458</ele>
        <time>2021-11-14T17:48:10.878Z</time>
      </trkpt>
      <trkpt lat="47.563140" lon="7.973536">
        <ele>327.885598</ele>
        <time>2021-11-14T17:48:14.426Z</time>
      </trkpt>
      <trkpt lat="47.563057" lon="7.973484">
        <ele>327.059523</ele>
        <time>2021-11-14T17:48:15.205Z</time>
      </trkpt>
      <trkpt lat="47.562835" lon="7.973351">
        <ele>324.719481</ele>
        <time>2021-11-14T17:48:17.270Z</time>
      </trkpt>
      <trkpt lat="47.562624" lon="7.973211">
        <ele>322.457245</ele>
        <time>2021-11-14T17:48:19.273Z</time>
      </trkpt>
      <trkpt lat="47.562482" lon="7.973084">
        <ele>320.834266</ele>
        <time>2021-11-14T17:48:20.706Z</time>
      </trkpt>
      <trkpt lat="47.562391" lon="7.972987">
        <ele>319.737363</ele>
        <time>2021-11-14T17:48:21.660Z</time>
      </trkpt>
      <trkpt lat="47.562270" lon="7.972880">
        <ele>318.358540</ele>
        <time>2021-11-14T17:48:22.875Z</time>
      </trkpt>
      <trkpt lat="47.562247" lon="7.972843">
        <ele>318.026358</ele>
        <time>2021-11-14T17:48:23.154Z</time>
      </trkpt>
      <trkpt lat="47.562063" lon="7.972426">
        <ele>314.736412</ele>
        <time>2021-11-14T17:48:26.055Z</time>
      </trkpt>
      <trkpt lat="47.561984" lon="7.972078">
        <ele>312.311961</ele>
        <time>2021-11-14T17:48:28.166Z</time>
      </trkpt>
      <trkpt lat="47.561959" lon="7.971806">
        <ele>310.499314</ele>
        <time>2021-11-14T17:48:29.774Z</time>
      </trkpt>
      <trkpt lat="47.561856" lon="7.971566">
        <ele>308.937827</ele>
        <time>2021-11-14T17:48:31.413Z</time>
      </trkpt>
      <trkpt lat="47.561716" lon="7.971255">
        <ele>307.457069</ele>
        <time>2021-11-14T17:48:33.680Z</time>
      </trkpt>
      <trkpt lat="47.561682" lon="7.971192">
        <ele>307.137548</ele>
        <time>2021-11-14T17:48:34.146Z</time>
      </trkpt>
      <trkpt lat="47.561534" lon="7.970899">
        <ele>305.687903</ele>
        <time>2021-11-14T17:48:36.374Z</time>
      </trkpt>
      <trkpt lat="47.561319" lon="7.970293">
        <ele>302.976098</ele>
        <time>2021-11-14T17:48:40.727Z</time>
      </trkpt>
      <trkpt lat="47.561300" lon="7.970209">
        <ele>302.625193</ele>
        <time>2021-11-14T17:48:41.243Z</time>
      </trkpt>
      <trkpt lat="47.561250" lon="7.969992">
        <ele>301.716963</ele>
        <time>2021-11-14T17:48:42.854Z</time>
      </trkpt>
      <trkpt lat="47.561207" lon="7.969794">
        <ele>300.893099</ele>
        <time>2021-11-14T17:48:44.242Z</time>
      </trkpt>
      <trkpt lat="47.561077" lon="7.969584">
        <ele>299.764332</ele>
        <time>2021-11-14T17:48:46.068Z</time>
      </trkpt>
      <trkpt lat="47.561012" lon="7.969521">
        <ele>299.308447</ele>
        <time>2021-11-14T17:48:46.889Z</time>
      </trkpt>
      <trkpt lat="47.561075" lon="7.969222">
        <ele>298.552691</ele>
        <time>2021-11-14T17:48:48.893Z</time>
      </trkpt>
      <trkpt lat="47.561101" lon="7.969103">
        <ele>298.362429</ele>
        <time>2021-11-14T17:48:49.775Z</time>
      </trkpt>
      <trkpt lat="47.561113" lon="7.969048">
        <ele>298.274505</ele>
        <time>2021-11-14T17:48:50.186Z</time>
      </trkpt>
      <trkpt lat="47.561146" lon="7.968816">
        <ele>297.913857</ele>
        <time>2021-11-14T17:48:51.865Z</time>
      </trkpt>
      <trkpt lat="47.561165" lon="7.968686">
        <ele>297.711530</ele>
        <time>2021-11-14T17:48:52.772Z</time>
      </trkpt>
      <trkpt lat="47.561196" lon="7.968420">
        <ele>297.300930</ele>
        <time>2021-11-14T17:48:55.009Z</time>
      </trkpt>
      <trkpt lat="47.561199" lon="7.968395">
        <ele>297.262306</ele>
        <time>2021-11-14T17:48:55.220Z</time>
      </trkpt>
      <trkpt lat="47.561236" lon="7.967223">
        <ele>295.477638</ele>
        <time>2021-11-14T17:49:04.304Z</time>
      </trkpt>
      <trkpt lat="47.561237" lon="7.967177">
        <ele>295.407632</ele>
        <time>2021-11-14T17:49:04.608Z</time>
      </trkpt>
      <trkpt lat="47.561251" lon="7.966549">
        <ele>294.495493</ele>
        <time>2021-11-14T17:49:09.293Z</time>
      </trkpt>
      <trkpt lat="47.561266" lon="7.965598">
        <ele>293.229526</ele>
        <time>2021-11-14T17:49:16.176Z</time>
      </trkpt>
      <trkpt lat="47.561250" lon="7.965305">
        <ele>292.838318</ele>
        <time>2021-11-14T17:49:18.320Z</time>
      </trkpt>
      <trkpt lat="47.561199" lon="7.964939">
        <ele>292.340957</ele>
        <time>2021-11-14T17:49:21.007Z</time>
      </trkpt>
      <trkpt lat="47.561111" lon="7.964529">
        <ele>291.768379</ele>
        <time>2021-11-14T17:49:24.263Z</time>
      </trkpt>
      <trkpt lat="47.561093" lon="7.964433">
        <ele>291.635778</ele>
        <time>2021-11-14T17:49:25.039Z</time>
      </trkpt>
      <trkpt lat="47.561035" lon="7.964188">
        <ele>291.290241</ele>
        <time>2021-11-14T17:49:27.083Z</time>
      </trkpt>
      <trkpt lat="47.561001" lon="7.964043">
        <ele>291.181236</ele>
        <time>2021-11-14T17:49:28.273Z</time>
      </trkpt>
      <trkpt lat="47.560931" lon="7.963733">
        <ele>290.993747</ele>
        <time>2021-11-14T17:49:30.912Z</time>
      </trkpt>
      <trkpt lat="47.560919" lon="7.963679">
        <ele>290.961139</ele>
        <time>2021-11-14T17:49:31.347Z</time>
      </trkpt>
      <trkpt lat="47.560851" lon="7.963377">
        <ele>290.778539</ele>
        <time>2021-11-14T17:49:33.885Z</time>
      </trkpt>
      <trkpt lat="47.560812" lon="7.963211">
        <ele>290.677725</ele>
        <time>2021-11-14T17:49:35.287Z</time>
      </trkpt>
      <trkpt lat="47.560771" lon="7.963029">
        <ele>290.567676</ele>
        <time>2021-11-14T17:49:36.777Z</time>
      </trkpt>
      <trkpt lat="47.560496" lon="7.961725">
        <ele>289.784093</ele>
        <time>2021-11-14T17:49:48.979Z</time>
      </trkpt>
      <trkpt lat="47.560385" lon="7.961242">
        <ele>289.773365</ele>
        <time>2021-11-14T17:49:54.038Z</time>
      </trkpt>
      <trkpt lat="47.560345" lon="7.961067">
        <ele>289.795500</ele>
        <time>2021-11-14T17:49:55.843Z</time>
      </trkpt>
      <trkpt lat="47.560357" lon="7.960950">
        <ele>289.809677</ele>
        <time>2021-11-14T17:49:57.041Z</time>
      </trkpt>
      <trkpt lat="47.560290" lon="7.960677">
        <ele>289.844477</ele>
        <time>2021-11-14T17:50:00.098Z</time>
      </trkpt>
      <trkpt lat="47.560252" lon="7.960649">
        <ele>289.852010</ele>
        <time>2021-11-14T17:50:00.706Z</time>
      </trkpt>
      <trkpt lat="47.559783" lon="7.958508">
        <ele>290.206855</ele>
        <time>2021-11-14T17:50:25.328Z</time>
      </trkpt>
      <trkpt lat="47.559715" lon="7.958231">
        <ele>290.280873</ele>
        <time>2021-11-14T17:50:28.544Z</time>
      </trkpt>
      <trkpt lat="47.559673" lon="7.958042">
        <ele>290.330841</ele>
        <time>2021-11-14T17:50:30.496Z</time>
      </trkpt>
      <trkpt lat="47.559665" lon="7.958004">
        <ele>290.340837</ele>
        <time>2021-11-14T17:50:31.202Z</time>
      </trkpt>
      <trkpt lat="47.559567" lon="7.957668">
        <ele>290.432755</ele>
        <time>2021-11-14T17:50:35.144Z</time>
      </trkpt>
      <trkpt lat="47.559506" lon="7.957457">
        <ele>290.490398</ele>
        <time>2021-11-14T17:50:37.781Z</time>
      </trkpt>
      <trkpt lat="47.559491" lon="7.957404">
        <ele>290.504830</ele>
        <time>2021-11-14T17:50:38.420Z</time>
      </trkpt>
      <trkpt lat="47.559249" lon="7.956674">
        <ele>290.709070</ele>
        <time>2021-11-14T17:50:47.350Z</time>
      </trkpt>
      <trkpt lat="47.558915" lon="7.955819">
        <ele>290.888991</ele>
        <time>2021-11-14T17:50:58.456Z</time>
      </trkpt>
      <trkpt lat="47.558601" lon="7.954714">
        <ele>291.105925</ele>
        <time>2021-11-14T17:51:10.619Z</time>
      </trkpt>
      <trkpt lat="47.558477" lon="7.954170">
        <ele>291.261914</ele>
        <time>2021-11-14T17:51:16.813Z</time>
      </trkpt>
      <trkpt lat="47.558440" lon="7.954011">
        <ele>291.403193</ele>
        <time>2021-11-14T17:51:18.721Z</time>
      </trkpt>
      <trkpt lat="47.558404" lon="7.953880">
        <ele>291.522007</ele>
        <time>2021-11-14T17:51:20.276Z</time>
      </trkpt>
      <trkpt lat="47.558342" lon="7.953593">
        <ele>291.775139</ele>
        <time>2021-11-14T17:51:23.778Z</time>
      </trkpt>
      <trkpt lat="47.558267" lon="7.953258">
        <ele>292.071622</ele>
        <time>2021-11-14T17:51:27.945Z</time>
      </trkpt>
      <trkpt lat="47.558259" lon="7.953198">
        <ele>292.122997</ele>
        <time>2021-11-14T17:51:28.788Z</time>
      </trkpt>
      <trkpt lat="47.558243" lon="7.952923">
        <ele>292.354855</ele>
        <time>2021-11-14T17:51:32.330Z</time>
      </trkpt>
      <trkpt lat="47.558238" lon="7.952655">
        <ele>292.580063</ele>
        <time>2021-11-14T17:51:36.001Z</time>
      </trkpt>
      <trkpt lat="47.558235" lon="7.952506">
        <ele>292.705279</ele>
        <time>2021-11-14T17:51:38.090Z</time>
      </trkpt>
      <trkpt lat="47.558237" lon="7.951803">
        <ele>293.295809</ele>
        <time>2021-11-14T17:51:48.539Z</time>
      </trkpt>
      <trkpt lat="47.558233" lon="7.951204">
        <ele>294.153093</ele>
        <time>2021-11-14T17:51:58.307Z</time>
      </trkpt>
      <trkpt lat="47.558230" lon="7.951089">
        <ele>294.343646</ele>
        <time>2021-11-14T17:52:00.409Z</time>
      </trkpt>
      <trkpt lat="47.558213" lon="7.950700">
        <ele>294.989082</ele>
        <time>2021-11-14T17:52:06.963Z</time>
      </trkpt>
      <trkpt lat="47.558189" lon="7.950493">
        <ele>295.336845</ele>
        <time>2021-11-14T17:52:10.804Z</time>
      </trkpt>
      <trkpt lat="47.558144" lon="7.950185">
        <ele>295.858632</ele>
        <time>2021-11-14T17:52:16.225Z</time>
      </trkpt>
      <trkpt lat="47.558088" lon="7.949755">
        <ele>296.583742</ele>
        <time>2021-11-14T17:52:24.036Z</time>
      </trkpt>
      <trkpt lat="47.558048" lon="7.949508">
        <ele>297.004325</ele>
        <time>2021-11-14T17:52:28.760Z</time>
      </trkpt>
      <trkpt lat="47.558012" lon="7.949057">
        <ele>297.756277</ele>
        <time>2021-11-14T17:52:36.242Z</time>
      </trkpt>
      <trkpt lat="47.557949" lon="7.947676">
        <ele>298.652926</ele>
        <time>2021-11-14T17:52:55.920Z</time>
      </trkpt>
      <trkpt lat="47.557939" lon="7.947500">
        <ele>298.759969</ele>
        <time>2021-11-14T17:52:58.075Z</time>
      </trkpt>
      <trkpt lat="47.557921" lon="7.947342">
        <ele>298.857080</ele>
        <time>2021-11-14T17:52:59.992Z</time>
      </trkpt>
      <trkpt lat="47.557885" lon="7.947164">
        <ele>298.969698</ele>
        <time>2021-11-14T17:53:01.679Z</time>
      </trkpt>
      <trkpt lat="47.557838" lon="7.946982">
        <ele>299.087800</ele>
        <time>2021-11-14T17:53:03.666Z</time>
      </trkpt>
      <trkpt lat="47.557770" lon="7.946815">
        <ele>299.206007</ele>
        <time>2021-11-14T17:53:05.546Z</time>
      </trkpt>
      <trkpt lat="47.557681" lon="7.946618">
        <ele>299.349684</ele>
        <time>2021-11-14T17:53:07.654Z</time>
      </trkpt>
      <trkpt lat="47.557536" lon="7.946344">
        <ele>299.417784</ele>
        <time>2021-11-14T17:53:10.982Z</time>
      </trkpt>
      <trkpt lat="47.557422" lon="7.946114">
        <ele>299.338491</ele>
        <time>2021-11-14T17:53:13.660Z</time>
      </trkpt>
      <trkpt lat="47.557371" lon="7.946013">
        <ele>299.303441</ele>
        <time>2021-11-14T17:53:14.968Z</time>
      </trkpt>
      <trkpt lat="47.557315" lon="7.945902">
        <ele>299.264933</ele>
        <time>2021-11-14T17:53:16.202Z</time>
      </trkpt>
      <trkpt lat="47.557274" lon="7.945819">
        <ele>299.236352</ele>
        <time>2021-11-14T17:53:17.121Z</time>
      </trkpt>
      <trkpt lat="47.557196" lon="7.945663">
        <ele>299.182405</ele>
        <time>2021-11-14T17:53:19.084Z</time>
      </trkpt>
      <trkpt lat="47.557110" lon="7.945492">
        <ele>299.123148</ele>
        <time>2021-11-14T17:53:21.051Z</time>
      </trkpt>
      <trkpt lat="47.556999" lon="7.945268">
        <ele>299.045930</ele>
        <time>2021-11-14T17:53:23.477Z</time>
      </trkpt>
      <trkpt lat="47.556919" lon="7.945110">
        <ele>298.991045</ele>
        <time>2021-11-14T17:53:25.171Z</time>
      </trkpt>
      <trkpt lat="47.556830" lon="7.944931">
        <ele>298.929267</ele>
        <time>2021-11-14T17:53:27.026Z</time>
      </trkpt>
      <trkpt lat="47.556650" lon="7.944566">
        <ele>298.803654</ele>
        <time>2021-11-14T17:53:30.999Z</time>
      </trkpt>
      <trkpt lat="47.556439" lon="7.944137">
        <ele>298.697565</ele>
        <time>2021-11-14T17:53:35.822Z</time>
      </trkpt>
      <trkpt lat="47.556345" lon="7.943946">
        <ele>298.673096</ele>
        <time>2021-11-14T17:53:38.004Z</time>
      </trkpt>
      <trkpt lat="47.556302" lon="7.943858">
        <ele>298.661850</ele>
        <time>2021-11-14T17:53:39.052Z</time>
      </trkpt>
      <trkpt lat="47.556288" lon="7.943830">
        <ele>298.658243</ele>
        <time>2021-11-14T17:53:39.406Z</time>
      </trkpt>
      <trkpt lat="47.556069" lon="7.943386">
        <ele>298.601319</ele>
        <time>2021-11-14T17:53:44.966Z</time>
      </trkpt>
      <trkpt lat="47.555911" lon="7.943042">
        <ele>298.558247</ele>
        <time>2021-11-14T17:53:49.368Z</time>
      </trkpt>
      <trkpt lat="47.555828" lon="7.942869">
        <ele>298.536276</ele>
        <time>2021-11-14T17:53:51.694Z</time>
      </trkpt>
      <trkpt lat="47.555765" lon="7.942732">
        <ele>298.519116</ele>
        <time>2021-11-14T17:53:53.406Z</time>
      </trkpt>
      <trkpt lat="47.555711" lon="7.942617">
        <ele>298.504615</ele>
        <time>2021-11-14T17:53:54.795Z</time>
      </trkpt>
      <trkpt lat="47.555633" lon="7.942436">
        <ele>298.482385</ele>
        <time>2021-11-14T17:53:56.918Z</time>
      </trkpt>
      <trkpt lat="47.555530" lon="7.942195">
        <ele>298.452858</ele>
        <time>2021-11-14T17:53:59.481Z</time>
      </trkpt>
      <trkpt lat="47.555494" lon="7.942104">
        <ele>298.432754</ele>
        <time>2021-11-14T17:54:00.428Z</time>
      </trkpt>
      <trkpt lat="47.555456" lon="7.942017">
        <ele>298.399326</ele>
        <time>2021-11-14T17:54:01.358Z</time>
      </trkpt>
      <trkpt lat="47.555313" lon="7.941663">
        <ele>298.266245</ele>
        <time>2021-11-14T17:54:04.862Z</time>
      </trkpt>
      <trkpt lat="47.555223" lon="7.941452">
        <ele>298.185729</ele>
        <time>2021-11-14T17:54:07.105Z</time>
      </trkpt>
      <trkpt lat="47.554981" lon="7.940858">
        <ele>297.961918</ele>
        <time>2021-11-14T17:54:13.398Z</time>
      </trkpt>
      <trkpt lat="47.554831" lon="7.940510">
        <ele>297.828723</ele>
        <time>2021-11-14T17:54:17.273Z</time>
      </trkpt>
      <trkpt lat="47.554786" lon="7.940407">
        <ele>297.789144</ele>
        <time>2021-11-14T17:54:18.349Z</time>
      </trkpt>
      <trkpt lat="47.554653" lon="7.940102">
        <ele>297.672010</ele>
        <time>2021-11-14T17:54:21.633Z</time>
      </trkpt>
      <trkpt lat="47.554446" lon="7.939644">
        <ele>297.469027</ele>
        <time>2021-11-14T17:54:26.442Z</time>
      </trkpt>
      <trkpt lat="47.554246" lon="7.939196">
        <ele>297.248544</ele>
        <time>2021-11-14T17:54:30.997Z</time>
      </trkpt>
      <trkpt lat="47.554109" lon="7.938885">
        <ele>297.096099</ele>
        <time>2021-11-14T17:54:34.140Z</time>
      </trkpt>
      <trkpt lat="47.554109" lon="7.938885">
        <ele>297.096099</ele>
        <time>2021-11-14T17:54:34.194Z</time>
      </trkpt>
      <trkpt lat="47.554109" lon="7.938885">
        <ele>297.096099</ele>
        <time>2021-11-14T17:54:34.335Z</time>
      </trkpt>
      <trkpt lat="47.553978" lon="7.938519">
        <ele>296.926046</ele>
        <time>2021-11-14T17:54:37.844Z</time>
      </trkpt>
      <trkpt lat="47.553909" lon="7.938319">
        <ele>296.833846</ele>
        <time>2021-11-14T17:54:39.777Z</time>
      </trkpt>
      <trkpt lat="47.553848" lon="7.938105">
        <ele>296.738491</ele>
        <time>2021-11-14T17:54:41.891Z</time>
      </trkpt>
      <trkpt lat="47.553805" lon="7.937948">
        <ele>296.668942</ele>
        <time>2021-11-14T17:54:43.429Z</time>
      </trkpt>
      <trkpt lat="47.553775" lon="7.937797">
        <ele>296.604330</ele>
        <time>2021-11-14T17:54:44.818Z</time>
      </trkpt>
      <trkpt lat="47.553769" lon="7.937764">
        <ele>296.590301</ele>
        <time>2021-11-14T17:54:45.133Z</time>
      </trkpt>
      <trkpt lat="47.553744" lon="7.937573">
        <ele>296.510439</ele>
        <time>2021-11-14T17:54:46.987Z</time>
      </trkpt>
      <trkpt lat="47.553727" lon="7.937367">
        <ele>296.477577</ele>
        <time>2021-11-14T17:54:48.895Z</time>
      </trkpt>
      <trkpt lat="47.553724" lon="7.937134">
        <ele>296.456183</ele>
        <time>2021-11-14T17:54:51.063Z</time>
      </trkpt>
      <trkpt lat="47.553732" lon="7.936945">
        <ele>296.438798</ele>
        <time>2021-11-14T17:54:52.857Z</time>
      </trkpt>
      <trkpt lat="47.553754" lon="7.936703">
        <ele>296.416381</ele>
        <time>2021-11-14T17:54:55.094Z</time>
      </trkpt>
      <trkpt lat="47.553763" lon="7.936585">
        <ele>296.405479</ele>
        <time>2021-11-14T17:54:56.224Z</time>
      </trkpt>
      <trkpt lat="47.553712" lon="7.936520">
        <ele>296.396329</ele>
        <time>2021-11-14T17:54:57.180Z</time>
      </trkpt>
      <trkpt lat="47.553680" lon="7.936493">
        <ele>296.391320</ele>
        <time>2021-11-14T17:54:57.705Z</time>
      </trkpt>
      <trkpt lat="47.553579" lon="7.936483">
        <ele>296.377550</ele>
        <time>2021-11-14T17:54:59.106Z</time>
      </trkpt>
      <trkpt lat="47.553468" lon="7.936486">
        <ele>296.362449</ele>
        <time>2021-11-14T17:55:00.696Z</time>
      </trkpt>
      <trkpt lat="47.553364" lon="7.936511">
        <ele>296.348117</ele>
        <time>2021-11-14T17:55:02.251Z</time>
      </trkpt>
      <trkpt lat="47.553216" lon="7.936481">
        <ele>296.327798</ele>
        <time>2021-11-14T17:55:04.559Z</time>
      </trkpt>
      <trkpt lat="47.553130" lon="7.936464">
        <ele>296.315996</ele>
        <time>2021-11-14T17:55:05.936Z</time>
      </trkpt>
      <trkpt lat="47.553015" lon="7.936441">
        <ele>296.300212</ele>
        <time>2021-11-14T17:55:07.843Z</time>
      </trkpt>
      <trkpt lat="47.552921" lon="7.936425">
        <ele>296.287341</ele>
        <time>2021-11-14T17:55:09.471Z</time>
      </trkpt>
      <trkpt lat="47.552791" lon="7.936403">
        <ele>296.269543</ele>
        <time>2021-11-14T17:55:11.310Z</time>
      </trkpt>
      <trkpt lat="47.552493" lon="7.936374">
        <ele>296.088867</ele>
        <time>2021-11-14T17:55:15.786Z</time>
      </trkpt>
      <trkpt lat="47.552311" lon="7.936357">
        <ele>295.881883</ele>
        <time>2021-11-14T17:55:18.308Z</time>
      </trkpt>
      <trkpt lat="47.551926" lon="7.936360">
        <ele>295.444895</ele>
        <time>2021-11-14T17:55:23.661Z</time>
      </trkpt>
      <trkpt lat="47.551730" lon="7.936373">
        <ele>295.222208</ele>
        <time>2021-11-14T17:55:26.269Z</time>
      </trkpt>
      <trkpt lat="47.551599" lon="7.936386">
        <ele>295.073188</ele>
        <time>2021-11-14T17:55:27.952Z</time>
      </trkpt>
      <trkpt lat="47.551477" lon="7.936401">
        <ele>294.934240</ele>
        <time>2021-11-14T17:55:29.312Z</time>
      </trkpt>
      <trkpt lat="47.551303" lon="7.936435">
        <ele>294.735036</ele>
        <time>2021-11-14T17:55:31.243Z</time>
      </trkpt>
      <trkpt lat="47.550607" lon="7.936694">
        <ele>293.442264</ele>
        <time>2021-11-14T17:55:38.875Z</time>
      </trkpt>
      <trkpt lat="47.550221" lon="7.936962">
        <ele>292.149242</ele>
        <time>2021-11-14T17:55:43.289Z</time>
      </trkpt>
      <trkpt lat="47.550098" lon="7.937070">
        <ele>291.715553</ele>
        <time>2021-11-14T17:55:44.676Z</time>
      </trkpt>
      <trkpt lat="47.549970" lon="7.937189">
        <ele>291.257188</ele>
        <time>2021-11-14T17:55:46.198Z</time>
      </trkpt>
      <trkpt lat="47.549714" lon="7.937478">
        <ele>290.280945</ele>
        <time>2021-11-14T17:55:49.430Z</time>
      </trkpt>
      <trkpt lat="47.549404" lon="7.937916">
        <ele>288.981601</ele>
        <time>2021-11-14T17:55:53.797Z</time>
      </trkpt>
      <trkpt lat="47.549168" lon="7.938309">
        <ele>288.247824</ele>
        <time>2021-11-14T17:55:57.394Z</time>
      </trkpt>
      <trkpt lat="47.549055" lon="7.938483">
        <ele>287.953981</ele>
        <time>2021-11-14T17:55:59.014Z</time>
      </trkpt>
      <trkpt lat="47.549023" lon="7.938562">
        <ele>287.841860</ele>
        <time>2021-11-14T17:55:59.637Z</time>
      </trkpt>
      <trkpt lat="47.548679" lon="7.939412">
        <ele>286.635775</ele>
        <time>2021-11-14T17:56:07.136Z</time>
      </trkpt>
      <trkpt lat="47.548592" lon="7.939666">
        <ele>286.289150</ele>
        <time>2021-11-14T17:56:09.507Z</time>
      </trkpt>
      <trkpt lat="47.548585" lon="7.939688">
        <ele>286.259552</ele>
        <time>2021-11-14T17:56:09.713Z</time>
      </trkpt>
      <trkpt lat="47.548563" lon="7.939753">
        <ele>286.171063</ele>
        <time>2021-11-14T17:56:10.317Z</time>
      </trkpt>
      <trkpt lat="47.548509" lon="7.939765">
        <ele>286.072613</ele>
        <time>2021-11-14T17:56:10.948Z</time>
      </trkpt>
      <trkpt lat="47.548479" lon="7.939789">
        <ele>286.011143</ele>
        <time>2021-11-14T17:56:11.349Z</time>
      </trkpt>
      <trkpt lat="47.548455" lon="7.939823">
        <ele>285.951273</ele>
        <time>2021-11-14T17:56:11.750Z</time>
      </trkpt>
      <trkpt lat="47.548437" lon="7.939866">
        <ele>285.889698</ele>
        <time>2021-11-14T17:56:12.157Z</time>
      </trkpt>
      <trkpt lat="47.548426" lon="7.939924">
        <ele>285.816382</ele>
        <time>2021-11-14T17:56:12.677Z</time>
      </trkpt>
      <trkpt lat="47.548427" lon="7.939957">
        <ele>285.776182</ele>
        <time>2021-11-14T17:56:12.993Z</time>
      </trkpt>
      <trkpt lat="47.548446" lon="7.940038">
        <ele>285.671827</ele>
        <time>2021-11-14T17:56:13.745Z</time>
      </trkpt>
      <trkpt lat="47.548468" lon="7.940081">
        <ele>285.606164</ele>
        <time>2021-11-14T17:56:14.258Z</time>
      </trkpt>
      <trkpt lat="47.548420" lon="7.940256">
        <ele>285.524040</ele>
        <time>2021-11-14T17:56:15.923Z</time>
      </trkpt>
      <trkpt lat="47.548303" lon="7.940599">
        <ele>285.581632</ele>
        <time>2021-11-14T17:56:19.831Z</time>
      </trkpt>
      <trkpt lat="47.548195" lon="7.940950">
        <ele>285.639441</ele>
        <time>2021-11-14T17:56:23.854Z</time>
      </trkpt>
      <trkpt lat="47.547852" lon="7.942144">
        <ele>285.833905</ele>
        <time>2021-11-14T17:56:38.327Z</time>
      </trkpt>
      <trkpt lat="47.547772" lon="7.942416">
        <ele>285.878369</ele>
        <time>2021-11-14T17:56:41.944Z</time>
      </trkpt>
      <trkpt lat="47.547436" lon="7.943731">
        <ele>286.227105</ele>
        <time>2021-11-14T17:56:58.174Z</time>
      </trkpt>
      <trkpt lat="47.547297" lon="7.944159">
        <ele>286.352293</ele>
        <time>2021-11-14T17:57:03.487Z</time>
      </trkpt>
      <trkpt lat="47.547246" lon="7.944330">
        <ele>286.401568</ele>
        <time>2021-11-14T17:57:05.670Z</time>
      </trkpt>
      <trkpt lat="47.547178" lon="7.944456">
        <ele>286.444088</ele>
        <time>2021-11-14T17:57:07.452Z</time>
      </trkpt>
      <trkpt lat="47.547134" lon="7.944545">
        <ele>286.473165</ele>
        <time>2021-11-14T17:57:08.520Z</time>
      </trkpt>
      <trkpt lat="47.546764" lon="7.945239">
        <ele>286.894200</ele>
        <time>2021-11-14T17:57:17.381Z</time>
      </trkpt>
      <trkpt lat="47.546516" lon="7.946289">
        <ele>287.757076</ele>
        <time>2021-11-14T17:57:29.353Z</time>
      </trkpt>
      <trkpt lat="47.546519" lon="7.946567">
        <ele>287.972740</ele>
        <time>2021-11-14T17:57:32.884Z</time>
      </trkpt>
      <trkpt lat="47.546565" lon="7.946721">
        <ele>288.103367</ele>
        <time>2021-11-14T17:57:35.395Z</time>
      </trkpt>
      <trkpt lat="47.546592" lon="7.946809">
        <ele>288.178347</ele>
        <time>2021-11-14T17:57:36.773Z</time>
      </trkpt>
      <trkpt lat="47.546633" lon="7.946946">
        <ele>288.294590</ele>
        <time>2021-11-14T17:57:39.025Z</time>
      </trkpt>
      <trkpt lat="47.546648" lon="7.947009">
        <ele>288.346408</ele>
        <time>2021-11-14T17:57:39.991Z</time>
      </trkpt>
      <trkpt lat="47.546651" lon="7.947115">
        <ele>288.428701</ele>
        <time>2021-11-14T17:57:41.779Z</time>
      </trkpt>
      <trkpt lat="47.546572" lon="7.947545">
        <ele>288.994794</ele>
        <time>2021-11-14T17:57:49.195Z</time>
      </trkpt>
      <trkpt lat="47.546159" lon="7.949303">
        <ele>293.688910</ele>
        <time>2021-11-14T17:58:27.960Z</time>
      </trkpt>
      <trkpt lat="47.545949" lon="7.950185">
        <ele>295.729077</ele>
        <time>2021-11-14T17:58:48.233Z</time>
      </trkpt>
      <trkpt lat="47.545884" lon="7.950363">
        <ele>295.989946</ele>
        <time>2021-11-14T17:58:52.165Z</time>
      </trkpt>
      <trkpt lat="47.545822" lon="7.950627">
        <ele>296.350255</ele>
        <time>2021-11-14T17:58:57.467Z</time>
      </trkpt>
      <trkpt lat="47.545810" lon="7.950694">
        <ele>296.439608</ele>
        <time>2021-11-14T17:58:58.698Z</time>
      </trkpt>
      <trkpt lat="47.545763" lon="7.950733">
        <ele>296.542482</ele>
        <time>2021-11-14T17:59:00.206Z</time>
      </trkpt>
      <trkpt lat="47.545659" lon="7.950771">
        <ele>296.747038</ele>
        <time>2021-11-14T17:59:02.627Z</time>
      </trkpt>
      <trkpt lat="47.545625" lon="7.950771">
        <ele>296.811966</ele>
        <time>2021-11-14T17:59:03.525Z</time>
      </trkpt>
      <trkpt lat="47.545567" lon="7.950765">
        <ele>296.922996</ele>
        <time>2021-11-14T17:59:04.938Z</time>
      </trkpt>
      <trkpt lat="47.545494" lon="7.950684">
        <ele>297.097166</ele>
        <time>2021-11-14T17:59:07.075Z</time>
      </trkpt>
      <trkpt lat="47.545434" lon="7.950668">
        <ele>297.213587</ele>
        <time>2021-11-14T17:59:08.555Z</time>
      </trkpt>
      <trkpt lat="47.545166" lon="7.950366">
        <ele>297.856605</ele>
        <time>2021-11-14T17:59:15.326Z</time>
      </trkpt>
      <trkpt lat="47.544901" lon="7.950044">
        <ele>298.511112</ele>
        <time>2021-11-14T17:59:20.961Z</time>
      </trkpt>
      <trkpt lat="47.544521" lon="7.949558">
        <ele>298.982481</ele>
        <time>2021-11-14T17:59:27.658Z</time>
      </trkpt>
      <trkpt lat="47.544239" lon="7.949202">
        <ele>299.150281</ele>
        <time>2021-11-14T17:59:32.619Z</time>
      </trkpt>
      <trkpt lat="47.543864" lon="7.948694">
        <ele>299.380421</ele>
        <time>2021-11-14T17:59:40.582Z</time>
      </trkpt>
      <trkpt lat="47.543760" lon="7.948548">
        <ele>299.445312</ele>
        <time>2021-11-14T17:59:42.825Z</time>
      </trkpt>
      <trkpt lat="47.543579" lon="7.948287">
        <ele>299.559710</ele>
        <time>2021-11-14T17:59:48.536Z</time>
      </trkpt>
      <trkpt lat="47.543579" lon="7.948287">
        <ele>299.559710</ele>
        <time>2021-11-14T17:59:48.597Z</time>
      </trkpt>
      <trkpt lat="47.543579" lon="7.948287">
        <ele>299.559710</ele>
        <time>2021-11-14T17:59:48.657Z</time>
      </trkpt>
      <trkpt lat="47.543532" lon="7.948214">
        <ele>299.590551</ele>
        <time>2021-11-14T17:59:49.783Z</time>
      </trkpt>
      <trkpt lat="47.543435" lon="7.948000">
        <ele>299.778981</ele>
        <time>2021-11-14T17:59:52.847Z</time>
      </trkpt>
      <trkpt lat="47.543407" lon="7.947938">
        <ele>299.906950</ele>
        <time>2021-11-14T17:59:54.704Z</time>
      </trkpt>
      <trkpt lat="47.543280" lon="7.947656">
        <ele>300.488500</ele>
        <time>2021-11-14T17:59:59.191Z</time>
      </trkpt>
      <trkpt lat="47.543142" lon="7.947250">
        <ele>301.268305</ele>
        <time>2021-11-14T18:00:06.656Z</time>
      </trkpt>
      <trkpt lat="47.543086" lon="7.947052">
        <ele>301.636583</ele>
        <time>2021-11-14T18:00:10.085Z</time>
      </trkpt>
      <trkpt lat="47.543056" lon="7.946935">
        <ele>301.851289</ele>
        <time>2021-11-14T18:00:12.926Z</time>
      </trkpt>
      <trkpt lat="47.543045" lon="7.946881">
        <ele>301.948052</ele>
        <time>2021-11-14T18:00:14.082Z</time>
      </trkpt>
      <trkpt lat="47.542982" lon="7.946547">
        <ele>302.542979</ele>
        <time>2021-11-14T18:00:19.483Z</time>
      </trkpt>
      <trkpt lat="47.542974" lon="7.946495">
        <ele>302.634473</ele>
        <time>2021-11-14T18:00:21.124Z</time>
      </trkpt>
      <trkpt lat="47.542960" lon="7.946400">
        <ele>302.801284</ele>
        <time>2021-11-14T18:00:23.190Z</time>
      </trkpt>
      <trkpt lat="47.542916" lon="7.945730">
        <ele>303.956100</ele>
        <time>2021-11-14T18:00:35.855Z</time>
      </trkpt>
      <trkpt lat="47.542913" lon="7.945267">
        <ele>304.539365</ele>
        <time>2021-11-14T18:00:44.350Z</time>
      </trkpt>
      <trkpt lat="47.543007" lon="7.943867">
        <ele>305.998754</ele>
        <time>2021-11-14T18:01:05.517Z</time>
      </trkpt>
      <trkpt lat="47.543161" lon="7.942213">
        <ele>306.596248</ele>
        <time>2021-11-14T18:01:23.924Z</time>
      </trkpt>
      <trkpt lat="47.543435" lon="7.940670">
        <ele>305.748660</ele>
        <time>2021-11-14T18:01:36.872Z</time>
      </trkpt>
      <trkpt lat="47.543826" lon="7.939433">
        <ele>304.360525</ele>
        <time>2021-11-14T18:01:47.273Z</time>
      </trkpt>
      <trkpt lat="47.544472" lon="7.937932">
        <ele>302.263260</ele>
        <time>2021-11-14T18:02:00.597Z</time>
      </trkpt>
      <trkpt lat="47.544705" lon="7.937395">
        <ele>301.530716</ele>
        <time>2021-11-14T18:02:05.436Z</time>
      </trkpt>
      <trkpt lat="47.544903" lon="7.936917">
        <ele>300.887159</ele>
        <time>2021-11-14T18:02:09.697Z</time>
      </trkpt>
      <trkpt lat="47.545074" lon="7.936484">
        <ele>300.311495</ele>
        <time>2021-11-14T18:02:13.528Z</time>
      </trkpt>
      <trkpt lat="47.545457" lon="7.935110">
        <ele>299.064091</ele>
        <time>2021-11-14T18:02:24.896Z</time>
      </trkpt>
      <trkpt lat="47.545674" lon="7.933625">
        <ele>298.378343</ele>
        <time>2021-11-14T18:02:37.976Z</time>
      </trkpt>
      <trkpt lat="47.545702" lon="7.933290">
        <ele>298.225993</ele>
        <time>2021-11-14T18:02:41.556Z</time>
      </trkpt>
      <trkpt lat="47.545724" lon="7.932758">
        <ele>298.557255</ele>
        <time>2021-11-14T18:02:47.823Z</time>
      </trkpt>
      <trkpt lat="47.545721" lon="7.931992">
        <ele>299.352810</ele>
        <time>2021-11-14T18:02:57.863Z</time>
      </trkpt>
      <trkpt lat="47.545696" lon="7.931497">
        <ele>299.868338</ele>
        <time>2021-11-14T18:03:05.068Z</time>
      </trkpt>
      <trkpt lat="47.545661" lon="7.930955">
        <ele>300.433811</ele>
        <time>2021-11-14T18:03:13.763Z</time>
      </trkpt>
      <trkpt lat="47.545563" lon="7.929641">
        <ele>301.483639</ele>
        <time>2021-11-14T18:03:36.103Z</time>
      </trkpt>
      <trkpt lat="47.545475" lon="7.928419">
        <ele>302.291660</ele>
        <time>2021-11-14T18:03:52.406Z</time>
      </trkpt>
      <trkpt lat="47.545421" lon="7.927686">
        <ele>302.395417</ele>
        <time>2021-11-14T18:03:58.509Z</time>
      </trkpt>
      <trkpt lat="47.545406" lon="7.927306">
        <ele>301.676543</ele>
        <time>2021-11-14T18:04:01.413Z</time>
      </trkpt>
      <trkpt lat="47.545407" lon="7.927001">
        <ele>301.100528</ele>
        <time>2021-11-14T18:04:03.700Z</time>
      </trkpt>
      <trkpt lat="47.545409" lon="7.926773">
        <ele>300.669903</ele>
        <time>2021-11-14T18:04:05.329Z</time>
      </trkpt>
      <trkpt lat="47.545417" lon="7.925848">
        <ele>298.922852</ele>
        <time>2021-11-14T18:04:11.664Z</time>
      </trkpt>
      <trkpt lat="47.545446" lon="7.925350">
        <ele>297.978861</ele>
        <time>2021-11-14T18:04:14.956Z</time>
      </trkpt>
      <trkpt lat="47.545466" lon="7.924880">
        <ele>296.983317</ele>
        <time>2021-11-14T18:04:18.009Z</time>
      </trkpt>
      <trkpt lat="47.545481" lon="7.924396">
        <ele>295.893672</ele>
        <time>2021-11-14T18:04:21.092Z</time>
      </trkpt>
      <trkpt lat="47.545521" lon="7.923709">
        <ele>294.342897</ele>
        <time>2021-11-14T18:04:25.618Z</time>
      </trkpt>
      <trkpt lat="47.545536" lon="7.923407">
        <ele>293.661874</ele>
        <time>2021-11-14T18:04:27.766Z</time>
      </trkpt>
      <trkpt lat="47.545553" lon="7.923142">
        <ele>293.063214</ele>
        <time>2021-11-14T18:04:29.597Z</time>
      </trkpt>
      <trkpt lat="47.545587" lon="7.922895">
        <ele>292.496288</ele>
        <time>2021-11-14T18:04:31.530Z</time>
      </trkpt>
      <trkpt lat="47.545641" lon="7.922610">
        <ele>291.830562</ele>
        <time>2021-11-14T18:04:33.676Z</time>
      </trkpt>
      <trkpt lat="47.545690" lon="7.922369">
        <ele>291.548445</ele>
        <time>2021-11-14T18:04:35.682Z</time>
      </trkpt>
      <trkpt lat="47.545699" lon="7.922325">
        <ele>291.520599</ele>
        <time>2021-11-14T18:04:35.976Z</time>
      </trkpt>
      <trkpt lat="47.545714" lon="7.922249">
        <ele>291.472640</ele>
        <time>2021-11-14T18:04:36.567Z</time>
      </trkpt>
      <trkpt lat="47.545778" lon="7.921947">
        <ele>291.280924</ele>
        <time>2021-11-14T18:04:39.269Z</time>
      </trkpt>
      <trkpt lat="47.545810" lon="7.921755">
        <ele>291.161143</ele>
        <time>2021-11-14T18:04:40.750Z</time>
      </trkpt>
      <trkpt lat="47.545881" lon="7.921096">
        <ele>290.756953</ele>
        <time>2021-11-14T18:04:46.212Z</time>
      </trkpt>
      <trkpt lat="47.545913" lon="7.920765">
        <ele>290.554430</ele>
        <time>2021-11-14T18:04:49.105Z</time>
      </trkpt>
      <trkpt lat="47.545973" lon="7.920313">
        <ele>290.275423</ele>
        <time>2021-11-14T18:04:53.575Z</time>
      </trkpt>
      <trkpt lat="47.546128" lon="7.919617">
        <ele>289.950092</ele>
        <time>2021-11-14T18:05:00.815Z</time>
      </trkpt>
      <trkpt lat="47.546262" lon="7.919081">
        <ele>289.801561</ele>
        <time>2021-11-14T18:05:06.864Z</time>
      </trkpt>
      <trkpt lat="47.546821" lon="7.916867">
        <ele>289.169516</ele>
        <time>2021-11-14T18:05:27.532Z</time>
      </trkpt>
      <trkpt lat="47.547032" lon="7.916218">
        <ele>288.961444</ele>
        <time>2021-11-14T18:05:33.839Z</time>
      </trkpt>
      <trkpt lat="47.547091" lon="7.916039">
        <ele>288.903906</ele>
        <time>2021-11-14T18:05:35.613Z</time>
      </trkpt>
      <trkpt lat="47.547113" lon="7.915971">
        <ele>288.882125</ele>
        <time>2021-11-14T18:05:36.203Z</time>
      </trkpt>
      <trkpt lat="47.547423" lon="7.915080">
        <ele>288.592588</ele>
        <time>2021-11-14T18:05:45.691Z</time>
      </trkpt>
      <trkpt lat="47.547994" lon="7.913433">
        <ele>289.101747</ele>
        <time>2021-11-14T18:06:05.395Z</time>
      </trkpt>
      <trkpt lat="47.548027" lon="7.913334">
        <ele>289.133972</ele>
        <time>2021-11-14T18:06:06.754Z</time>
      </trkpt>
      <trkpt lat="47.548412" lon="7.912168">
        <ele>289.765656</ele>
        <time>2021-11-14T18:06:23.157Z</time>
      </trkpt>
      <trkpt lat="47.549012" lon="7.910340">
        <ele>291.308059</ele>
        <time>2021-11-14T18:06:50.113Z</time>
      </trkpt>
      <trkpt lat="47.549102" lon="7.910058">
        <ele>291.603426</ele>
        <time>2021-11-14T18:06:54.232Z</time>
      </trkpt>
      <trkpt lat="47.549195" lon="7.909756">
        <ele>291.943308</ele>
        <time>2021-11-14T18:06:58.527Z</time>
      </trkpt>
      <trkpt lat="47.549287" lon="7.909450">
        <ele>292.286301</ele>
        <time>2021-11-14T18:07:02.873Z</time>
      </trkpt>
      <trkpt lat="47.549340" lon="7.909274">
        <ele>292.483629</ele>
        <time>2021-11-14T18:07:05.364Z</time>
      </trkpt>
      <trkpt lat="47.549520" lon="7.908678">
        <ele>293.152179</ele>
        <time>2021-11-14T18:07:13.822Z</time>
      </trkpt>
      <trkpt lat="47.549539" lon="7.908625">
        <ele>293.213625</ele>
        <time>2021-11-14T18:07:14.564Z</time>
      </trkpt>
      <trkpt lat="47.550497" lon="7.905558">
        <ele>298.381381</ele>
        <time>2021-11-14T18:08:09.451Z</time>
      </trkpt>
      <trkpt lat="47.550283" lon="7.905413">
        <ele>299.138052</ele>
        <time>2021-11-14T18:08:17.616Z</time>
      </trkpt>
      <trkpt lat="47.550067" lon="7.905245">
        <ele>300.059261</ele>
        <time>2021-11-14T18:08:26.302Z</time>
      </trkpt>
      <trkpt lat="47.549867" lon="7.905155">
        <ele>300.848561</ele>
        <time>2021-11-14T18:08:33.932Z</time>
      </trkpt>
      <trkpt lat="47.549868" lon="7.905010">
        <ele>301.218144</ele>
        <time>2021-11-14T18:08:37.337Z</time>
      </trkpt>
      <trkpt lat="47.550025" lon="7.904774">
        <ele>302.062701</ele>
        <time>2021-11-14T18:08:45.488Z</time>
      </trkpt>
      <trkpt lat="47.550169" lon="7.904457">
        <ele>303.036584</ele>
        <time>2021-11-14T18:08:54.856Z</time>
      </trkpt>
      <trkpt lat="47.550302" lon="7.904164">
        <ele>303.936527</ele>
        <time>2021-11-14T18:09:03.788Z</time>
      </trkpt>
      <trkpt lat="47.550498" lon="7.903445">
        <ele>305.903464</ele>
        <time>2021-11-14T18:09:23.358Z</time>
      </trkpt>
      <trkpt lat="47.550688" lon="7.902451">
        <ele>308.484224</ele>
        <time>2021-11-14T18:09:45.905Z</time>
      </trkpt>
      <trkpt lat="47.550757" lon="7.901591">
        <ele>310.647702</ele>
        <time>2021-11-14T18:10:05.707Z</time>
      </trkpt>
      <trkpt lat="47.550769" lon="7.901362">
        <ele>311.221484</ele>
        <time>2021-11-14T18:10:11.615Z</time>
      </trkpt>
      <trkpt lat="47.550801" lon="7.900244">
        <ele>314.300388</ele>
        <time>2021-11-14T18:10:36.012Z</time>
      </trkpt>
      <trkpt lat="47.550819" lon="7.898109">
        <ele>320.117014</ele>
        <time>2021-11-14T18:11:22.964Z</time>
      </trkpt>
      <trkpt lat="47.550727" lon="7.897231">
        <ele>321.530130</ele>
        <time>2021-11-14T18:11:38.830Z</time>
      </trkpt>
      <trkpt lat="47.550648" lon="7.896481">
        <ele>322.737384</ele>
        <time>2021-11-14T18:11:50.621Z</time>
      </trkpt>
      <trkpt lat="47.550639" lon="7.896345">
        <ele>322.954719</ele>
        <time>2021-11-14T18:11:52.988Z</time>
      </trkpt>
      <trkpt lat="47.550660" lon="7.896255">
        <ele>323.106169</ele>
        <time>2021-11-14T18:11:53.786Z</time>
      </trkpt>
      <trkpt lat="47.550838" lon="7.895509">
        <ele>324.204870</ele>
        <time>2021-11-14T18:12:03.967Z</time>
      </trkpt>
      <trkpt lat="47.550878" lon="7.895158">
        <ele>324.538625</ele>
        <time>2021-11-14T18:12:08.038Z</time>
      </trkpt>
      <trkpt lat="47.550908" lon="7.894308">
        <ele>325.336671</ele>
        <time>2021-11-14T18:12:18.589Z</time>
      </trkpt>
      <trkpt lat="47.550892" lon="7.893176">
        <ele>326.398262</ele>
        <time>2021-11-14T18:12:33.307Z</time>
      </trkpt>
      <trkpt lat="47.550904" lon="7.891725">
        <ele>330.745939</ele>
        <time>2021-11-14T18:13:03.069Z</time>
      </trkpt>
      <trkpt lat="47.550915" lon="7.890600">
        <ele>334.253635</ele>
        <time>2021-11-14T18:13:31.909Z</time>
      </trkpt>
      <trkpt lat="47.550833" lon="7.889069">
        <ele>340.561192</ele>
        <time>2021-11-14T18:14:14.542Z</time>
      </trkpt>
      <trkpt lat="47.550831" lon="7.888611">
        <ele>342.498473</ele>
        <time>2021-11-14T18:14:27.113Z</time>
      </trkpt>
      <trkpt lat="47.550789" lon="7.887816">
        <ele>345.871437</ele>
        <time>2021-11-14T18:14:47.724Z</time>
      </trkpt>
      <trkpt lat="47.550758" lon="7.887295">
        <ele>347.854912</ele>
        <time>2021-11-14T18:15:01.546Z</time>
      </trkpt>
      <trkpt lat="47.550677" lon="7.886476">
        <ele>350.961388</ele>
        <time>2021-11-14T18:15:23.060Z</time>
      </trkpt>
      <trkpt lat="47.550548" lon="7.885799">
        <ele>353.601440</ele>
        <time>2021-11-14T18:15:40.310Z</time>
      </trkpt>
      <trkpt lat="47.550391" lon="7.885109">
        <ele>356.263209</ele>
        <time>2021-11-14T18:15:58.007Z</time>
      </trkpt>
      <trkpt lat="47.550332" lon="7.884727">
        <ele>357.359400</ele>
        <time>2021-11-14T18:16:06.778Z</time>
      </trkpt>
      <trkpt lat="47.550288" lon="7.884050">
        <ele>359.261937</ele>
        <time>2021-11-14T18:16:21.820Z</time>
      </trkpt>
      <trkpt lat="47.550234" lon="7.883221">
        <ele>361.591681</ele>
        <time>2021-11-14T18:16:39.693Z</time>
      </trkpt>
      <trkpt lat="47.550112" lon="7.882535">
        <ele>363.568672</ele>
        <time>2021-11-14T18:16:53.537Z</time>
      </trkpt>
      <trkpt lat="47.549927" lon="7.881490">
        <ele>366.249702</ele>
        <time>2021-11-14T18:17:11.929Z</time>
      </trkpt>
      <trkpt lat="47.549726" lon="7.880786">
        <ele>368.146659</ele>
        <time>2021-11-14T18:17:27.868Z</time>
      </trkpt>
      <trkpt lat="47.549327" lon="7.879547">
        <ele>371.657645</ele>
        <time>2021-11-14T18:17:57.421Z</time>
      </trkpt>
      <trkpt lat="47.549318" lon="7.879398">
        <ele>372.055929</ele>
        <time>2021-11-14T18:18:00.610Z</time>
      </trkpt>
      <trkpt lat="47.549140" lon="7.879391">
        <ele>372.758309</ele>
        <time>2021-11-14T18:18:07.480Z</time>
      </trkpt>
      <trkpt lat="47.548718" lon="7.879258">
        <ele>374.460162</ele>
        <time>2021-11-14T18:18:21.151Z</time>
      </trkpt>
      <trkpt lat="47.548422" lon="7.878959">
        <ele>375.873314</ele>
        <time>2021-11-14T18:18:31.798Z</time>
      </trkpt>
      <trkpt lat="47.548234" lon="7.878638">
        <ele>377.004845</ele>
        <time>2021-11-14T18:18:40.230Z</time>
      </trkpt>
      <trkpt lat="47.547992" lon="7.877974">
        <ele>377.322567</ele>
        <time>2021-11-14T18:18:53.327Z</time>
      </trkpt>
      <trkpt lat="47.547574" lon="7.876801">
        <ele>377.528018</ele>
        <time>2021-11-14T18:19:07.090Z</time>
      </trkpt>
      <trkpt lat="47.547126" lon="7.875801">
        <ele>376.096170</ele>
        <time>2021-11-14T18:19:15.873Z</time>
      </trkpt>
      <trkpt lat="47.546309" lon="7.874154">
        <ele>370.248597</ele>
        <time>2021-11-14T18:19:29.061Z</time>
      </trkpt>
      <trkpt lat="47.546135" lon="7.873859">
        <ele>368.612044</ele>
        <time>2021-11-14T18:19:31.443Z</time>
      </trkpt>
      <trkpt lat="47.546077" lon="7.873763">
        <ele>368.027287</ele>
        <time>2021-11-14T18:19:32.254Z</time>
      </trkpt>
      <trkpt lat="47.545934" lon="7.873549">
        <ele>366.660563</ele>
        <time>2021-11-14T18:19:34.059Z</time>
      </trkpt>
      <trkpt lat="47.545746" lon="7.873302">
        <ele>364.970959</ele>
        <time>2021-11-14T18:19:36.347Z</time>
      </trkpt>
      <trkpt lat="47.545515" lon="7.873015">
        <ele>362.943799</ele>
        <time>2021-11-14T18:19:39.046Z</time>
      </trkpt>
      <trkpt lat="47.545478" lon="7.872968">
        <ele>362.616078</ele>
        <time>2021-11-14T18:19:39.488Z</time>
      </trkpt>
      <trkpt lat="47.545375" lon="7.872836">
        <ele>361.700329</ele>
        <time>2021-11-14T18:19:40.681Z</time>
      </trkpt>
      <trkpt lat="47.545131" lon="7.872664">
        <ele>359.883408</ele>
        <time>2021-11-14T18:19:43.140Z</time>
      </trkpt>
      <trkpt lat="47.544883" lon="7.872555">
        <ele>358.144014</ele>
        <time>2021-11-14T18:19:45.463Z</time>
      </trkpt>
      <trkpt lat="47.544390" lon="7.872423">
        <ele>355.020846</ele>
        <time>2021-11-14T18:19:49.927Z</time>
      </trkpt>
      <trkpt lat="47.543332" lon="7.872237">
        <ele>348.417371</ele>
        <time>2021-11-14T18:19:59.694Z</time>
      </trkpt>
      <trkpt lat="47.543251" lon="7.872152">
        <ele>347.802139</ele>
        <time>2021-11-14T18:20:00.635Z</time>
      </trkpt>
      <trkpt lat="47.543233" lon="7.872082">
        <ele>347.488740</ele>
        <time>2021-11-14T18:20:01.056Z</time>
      </trkpt>
      <trkpt lat="47.543013" lon="7.872182">
        <ele>346.765222</ele>
        <time>2021-11-14T18:20:03.296Z</time>
      </trkpt>
      <trkpt lat="47.542919" lon="7.872226">
        <ele>346.765222</ele>
        <time>2021-11-14T18:20:04.217Z</time>
      </trkpt>
      <trkpt lat="47.542814" lon="7.872280">
        <ele>346.765222</ele>
        <time>2021-11-14T18:20:05.269Z</time>
      </trkpt>
      <trkpt lat="47.542714" lon="7.872334">
        <ele>346.765222</ele>
        <time>2021-11-14T18:20:06.353Z</time>
      </trkpt>
      <trkpt lat="47.542537" lon="7.872430">
        <ele>346.765222</ele>
        <time>2021-11-14T18:20:08.078Z</time>
      </trkpt>
      <trkpt lat="47.542436" lon="7.872494">
        <ele>346.765222</ele>
        <time>2021-11-14T18:20:09.400Z</time>
      </trkpt>
      <trkpt lat="47.542394" lon="7.872341">
        <ele>346.765222</ele>
        <time>2021-11-14T18:20:10.481Z</time>
      </trkpt>
      <trkpt lat="47.542218" lon="7.871866">
        <ele>346.765222</ele>
        <time>2021-11-14T18:20:14.127Z</time>
      </trkpt>
      <trkpt lat="47.542091" lon="7.871721">
        <ele>346.765222</ele>
        <time>2021-11-14T18:20:15.638Z</time>
      </trkpt>
      <trkpt lat="47.542067" lon="7.871664">
        <ele>346.765222</ele>
        <time>2021-11-14T18:20:16.353Z</time>
      </trkpt>
      <trkpt lat="47.542039" lon="7.871556">
        <ele>346.765222</ele>
        <time>2021-11-14T18:20:17.245Z</time>
      </trkpt>
      <trkpt lat="47.541953" lon="7.871286">
        <ele>346.765222</ele>
        <time>2021-11-14T18:20:19.402Z</time>
      </trkpt>
      <trkpt lat="47.541824" lon="7.871086">
        <ele>346.765222</ele>
        <time>2021-11-14T18:20:21.547Z</time>
      </trkpt>
    </trkseg>
  </trk>
</gpx>